Wetterdaten: Mittwoch, 13.06.2018
Datum Zeit Temp. A. Feuchte A. Luftdruck Regen Wind Richtung Richtung Taupunkt Windben Empfang
13.06.2018 00:00 14,1 C 78 % 1011,6 hPa 0,0 l/m 0,7 km/h (0 Bft) NO 40 10,3 C 3,1 km/h (1 Bft) 100 %
13.06.2018 00:01 14,1 C 77 % 1011,5 hPa 0,0 l/m 2,4 km/h (1 Bft) SW 215 10,1 C 6,3 km/h (2 Bft) 100 %
13.06.2018 00:02 14,0 C 76 % 1011,5 hPa 0,0 l/m 1,4 km/h (1 Bft) W-SW 250 9,8 C 6,3 km/h (2 Bft) 100 %
13.06.2018 00:03 14,0 C 76 % 1011,5 hPa 0,0 l/m 0,0 km/h (0 Bft) W-SW 251 9,8 C 0,0 km/h (0 Bft) 100 %
13.06.2018 00:04 14,0 C 76 % 1011,5 hPa 0,0 l/m 0,8 km/h (0 Bft) W-SW 252 9,8 C 6,3 km/h (2 Bft) 100 %
13.06.2018 00:05 14,0 C 77 % 1011,5 hPa 0,0 l/m 0,4 km/h (0 Bft) S-SW 207 10,0 C 3,1 km/h (1 Bft) 100 %
13.06.2018 00:06 14,0 C 77 % 1011,5 hPa 0,0 l/m 0,1 km/h (0 Bft) W-NW 283 10,0 C 3,1 km/h (1 Bft) 100 %
13.06.2018 00:07 14,0 C 76 % 1011,5 hPa 0,0 l/m 3,0 km/h (1 Bft) W 276 9,8 C 9,4 km/h (2 Bft) 100 %
13.06.2018 00:08 13,9 C 76 % 1011,5 hPa 0,0 l/m 2,5 km/h (1 Bft) SW 231 9,7 C 6,3 km/h (2 Bft) 100 %
13.06.2018 00:09 13,9 C 76 % 1011,5 hPa 0,0 l/m 2,9 km/h (1 Bft) W-NW 287 9,7 C 6,3 km/h (2 Bft) 100 %
13.06.2018 00:10 13,9 C 76 % 1011,5 hPa 0,0 l/m 4,3 km/h (1 Bft) SW 219 9,7 C 6,3 km/h (2 Bft) 100 %
13.06.2018 00:11 13,9 C 76 % 1011,5 hPa 0,0 l/m 2,6 km/h (1 Bft) W-SW 239 9,7 C 6,3 km/h (2 Bft) 100 %
13.06.2018 00:12 13,9 C 76 % 1011,5 hPa 0,0 l/m 4,1 km/h (1 Bft) W-SW 250 9,7 C 9,4 km/h (2 Bft) 100 %
13.06.2018 00:13 13,9 C 75 % 1011,5 hPa 0,0 l/m 4,0 km/h (1 Bft) W 261 9,5 C 9,4 km/h (2 Bft) 100 %
13.06.2018 00:14 13,9 C 76 % 1011,6 hPa 0,0 l/m 1,8 km/h (1 Bft) W 268 9,7 C 6,3 km/h (2 Bft) 96 %
13.06.2018 00:15 13,8 C 75 % 1011,5 hPa 0,0 l/m 2,1 km/h (1 Bft) W-NW 285 9,4 C 9,4 km/h (2 Bft) 96 %
13.06.2018 00:16 13,8 C 75 % 1011,5 hPa 0,0 l/m 0,3 km/h (0 Bft) W 263 9,4 C 3,1 km/h (1 Bft) 96 %
13.06.2018 00:17 13,8 C 75 % 1011,5 hPa 0,0 l/m 2,4 km/h (1 Bft) W 262 9,4 C 6,3 km/h (2 Bft) 69 %
13.06.2018 00:18 13,8 C 76 % 1011,5 hPa 0,0 l/m 0,2 km/h (0 Bft) S-SW 211 9,6 C 3,1 km/h (1 Bft) 81 %
13.06.2018 00:19 13,8 C 75 % 1011,5 hPa 0,0 l/m 1,4 km/h (1 Bft) W-NW 288 9,4 C 6,3 km/h (2 Bft) 96 %
13.06.2018 00:20 13,8 C 75 % 1011,6 hPa 0,0 l/m 4,4 km/h (1 Bft) W-NW 300 9,4 C 6,3 km/h (2 Bft) 100 %
13.06.2018 00:21 13,8 C 75 % 1011,6 hPa 0,0 l/m 5,1 km/h (1 Bft) W-NW 293 9,4 C 9,4 km/h (2 Bft) 96 %
13.06.2018 00:22 13,8 C 75 % 1011,5 hPa 0,0 l/m 6,3 km/h (2 Bft) S-SW 205 9,4 C 9,4 km/h (2 Bft) 100 %
13.06.2018 00:23 13,8 C 75 % 1011,5 hPa 0,0 l/m 1,5 km/h (1 Bft) SW 220 9,4 C 3,1 km/h (1 Bft) 88 %
13.06.2018 00:24 13,8 C 75 % 1011,5 hPa 0,0 l/m 1,0 km/h (0 Bft) W-NW 294 9,4 C 3,1 km/h (1 Bft) 100 %
13.06.2018 00:25 13,8 C 75 % 1011,5 hPa 0,0 l/m 5,1 km/h (1 Bft) W-NW 296 9,4 C 9,4 km/h (2 Bft) 96 %
13.06.2018 00:26 13,8 C 75 % 1011,5 hPa 0,0 l/m 5,0 km/h (1 Bft) W-NW 297 9,4 C 12,6 km/h (3 Bft) 100 %
13.06.2018 00:27 13,8 C 75 % 1011,6 hPa 0,0 l/m 6,3 km/h (2 Bft) W 262 9,4 C 9,4 km/h (2 Bft) 91 %
13.06.2018 00:28 13,7 C 75 % 1011,6 hPa 0,0 l/m 2,0 km/h (1 Bft) W-NW 288 9,3 C 6,3 km/h (2 Bft) 100 %
13.06.2018 00:29 13,7 C 76 % 1011,6 hPa 0,0 l/m 3,8 km/h (1 Bft) W 261 9,5 C 6,3 km/h (2 Bft) 100 %
13.06.2018 00:30 13,7 C 76 % 1011,6 hPa 0,0 l/m 1,4 km/h (1 Bft) W-NW 293 9,5 C 6,3 km/h (2 Bft) 96 %
13.06.2018 00:31 13,7 C 76 % 1011,6 hPa 0,0 l/m 2,7 km/h (1 Bft) W-SW 251 9,5 C 6,3 km/h (2 Bft) 96 %
13.06.2018 00:32 13,7 C 76 % 1011,6 hPa 0,0 l/m 0,2 km/h (0 Bft) NO 41 9,5 C 3,1 km/h (1 Bft) 100 %
13.06.2018 00:33 13,7 C 76 % 1011,6 hPa 0,0 l/m 0,0 km/h (0 Bft) NO 41 9,5 C 0,0 km/h (0 Bft) 100 %
13.06.2018 00:34 13,7 C 76 % 1011,6 hPa 0,0 l/m 0,7 km/h (0 Bft) W-NW 285 9,5 C 3,1 km/h (1 Bft) 100 %
13.06.2018 00:35 13,7 C 76 % 1011,6 hPa 0,0 l/m 1,8 km/h (1 Bft) W 270 9,5 C 6,3 km/h (2 Bft) 100 %
13.06.2018 00:36 13,7 C 76 % 1011,6 hPa 0,0 l/m 0,4 km/h (0 Bft) W-NW 283 9,5 C 3,1 km/h (1 Bft) 100 %
13.06.2018 00:37 13,7 C 76 % 1011,6 hPa 0,0 l/m 0,1 km/h (0 Bft) W-NW 283 9,5 C 3,1 km/h (1 Bft) 100 %
13.06.2018 00:38 13,7 C 76 % 1011,6 hPa 0,0 l/m 0,7 km/h (0 Bft) W-NW 287 9,5 C 3,1 km/h (1 Bft) 100 %
13.06.2018 00:39 13,6 C 76 % 1011,6 hPa 0,0 l/m 4,7 km/h (1 Bft) W-NW 302 9,4 C 15,7 km/h (3 Bft) 96 %
13.06.2018 00:40 13,6 C 76 % 1011,6 hPa 0,0 l/m 0,8 km/h (0 Bft) W 278 9,4 C 3,1 km/h (1 Bft) 100 %
13.06.2018 00:41 13,6 C 76 % 1011,6 hPa 0,0 l/m 1,5 km/h (1 Bft) W 264 9,4 C 6,3 km/h (2 Bft) 100 %
13.06.2018 00:42 13,6 C 76 % 1011,6 hPa 0,0 l/m 2,9 km/h (1 Bft) NW 307 9,4 C 6,3 km/h (2 Bft) 100 %
13.06.2018 00:43 13,6 C 76 % 1011,6 hPa 0,0 l/m 3,0 km/h (1 Bft) NO 39 9,4 C 6,3 km/h (2 Bft) 96 %
13.06.2018 00:44 13,6 C 76 % 1011,6 hPa 0,0 l/m 1,2 km/h (1 Bft) NO 49 9,4 C 6,3 km/h (2 Bft) 96 %
13.06.2018 00:45 13,6 C 76 % 1011,6 hPa 0,0 l/m 2,0 km/h (1 Bft) W 281 9,4 C 9,4 km/h (2 Bft) 100 %
13.06.2018 00:46 13,6 C 76 % 1011,6 hPa 0,0 l/m 2,7 km/h (1 Bft) NW 321 9,4 C 6,3 km/h (2 Bft) 93 %
13.06.2018 00:47 13,6 C 77 % 1011,6 hPa 0,0 l/m 0,0 km/h (0 Bft) NW 321 9,6 C 0,0 km/h (0 Bft) 100 %
13.06.2018 00:48 13,6 C 77 % 1011,6 hPa 0,0 l/m 0,8 km/h (0 Bft) W-SW 246 9,6 C 3,1 km/h (1 Bft) 100 %
13.06.2018 00:49 13,6 C 77 % 1011,6 hPa 0,0 l/m 1,2 km/h (1 Bft) SW 227 9,6 C 3,1 km/h (1 Bft) 100 %
13.06.2018 00:50 13,6 C 77 % 1011,6 hPa 0,0 l/m 1,4 km/h (1 Bft) W-NW 289 9,6 C 3,1 km/h (1 Bft) 91 %
13.06.2018 00:51 13,6 C 77 % 1011,6 hPa 0,0 l/m 0,2 km/h (0 Bft) NO 47 9,6 C 3,1 km/h (1 Bft) 100 %
13.06.2018 00:52 13,5 C 77 % 1011,6 hPa 0,0 l/m 3,1 km/h (1 Bft) W-NW 301 9,5 C 9,4 km/h (2 Bft) 96 %
13.06.2018 00:53 13,5 C 77 % 1011,6 hPa 0,0 l/m 6,4 km/h (2 Bft) W-NW 296 9,5 C 9,4 km/h (2 Bft) 96 %
13.06.2018 00:54 13,5 C 77 % 1011,6 hPa 0,0 l/m 3,8 km/h (1 Bft) W 270 9,5 C 9,4 km/h (2 Bft) 100 %
13.06.2018 00:55 13,5 C 77 % 1011,6 hPa 0,0 l/m 0,0 km/h (0 Bft) W-SW 247 9,5 C 0,0 km/h (0 Bft) 96 %
13.06.2018 00:56 13,5 C 77 % 1011,6 hPa 0,0 l/m 0,1 km/h (0 Bft) W-SW 248 9,5 C 3,1 km/h (1 Bft) 100 %
13.06.2018 00:57 13,5 C 77 % 1011,6 hPa 0,0 l/m 0,0 km/h (0 Bft) W-SW 243 9,5 C 0,0 km/h (0 Bft) 96 %
13.06.2018 00:58 13,4 C 77 % 1011,7 hPa 0,0 l/m 0,1 km/h (0 Bft) NO 51 9,5 C 3,1 km/h (1 Bft) 100 %
13.06.2018 00:59 13,4 C 77 % 1011,7 hPa 0,0 l/m 0,3 km/h (0 Bft) NW 319 9,5 C 3,1 km/h (1 Bft) 96 %
13.06.2018 01:00 13,4 C 78 % 1011,7 hPa 0,0 l/m 0,0 km/h (0 Bft) NW 319 9,6 C 0,0 km/h (0 Bft) 100 %
13.06.2018 01:01 13,4 C 78 % 1011,7 hPa 0,0 l/m 0,0 km/h (0 Bft) NW 319 9,6 C 0,0 km/h (0 Bft) 100 %
13.06.2018 01:02 13,4 C 77 % 1011,8 hPa 0,0 l/m 0,7 km/h (0 Bft) W 278 9,5 C 3,1 km/h (1 Bft) 100 %
13.06.2018 01:03 13,4 C 77 % 1011,8 hPa 0,0 l/m 1,8 km/h (1 Bft) W 266 9,5 C 6,3 km/h (2 Bft) 100 %
13.06.2018 01:04 13,4 C 77 % 1011,7 hPa 0,0 l/m 1,0 km/h (0 Bft) W 261 9,5 C 3,1 km/h (1 Bft) 100 %
13.06.2018 01:05 13,4 C 77 % 1011,8 hPa 0,0 l/m 0,9 km/h (0 Bft) O-NO 66 9,5 C 6,3 km/h (2 Bft) 100 %
13.06.2018 01:06 13,4 C 78 % 1011,7 hPa 0,0 l/m 1,0 km/h (0 Bft) W 279 9,6 C 3,1 km/h (1 Bft) 100 %
13.06.2018 01:07 13,4 C 78 % 1011,7 hPa 0,0 l/m 0,5 km/h (0 Bft) W-NW 290 9,6 C 3,1 km/h (1 Bft) 100 %
13.06.2018 01:08 13,3 C 77 % 1011,7 hPa 0,0 l/m 0,7 km/h (0 Bft) W-NW 287 9,4 C 3,1 km/h (1 Bft) 100 %
13.06.2018 01:09 13,3 C 78 % 1011,7 hPa 0,0 l/m 1,2 km/h (1 Bft) W 273 9,5 C 9,4 km/h (2 Bft) 100 %
13.06.2018 01:10 13,3 C 77 % 1011,7 hPa 0,0 l/m 3,8 km/h (1 Bft) W-NW 301 9,4 C 9,4 km/h (2 Bft) 100 %
13.06.2018 01:11 13,3 C 78 % 1011,7 hPa 0,0 l/m 1,0 km/h (0 Bft) W-NW 290 9,5 C 3,1 km/h (1 Bft) 100 %
13.06.2018 01:12 13,3 C 78 % 1011,7 hPa 0,0 l/m 0,3 km/h (0 Bft) W-NW 286 9,5 C 3,1 km/h (1 Bft) 100 %
13.06.2018 01:13 13,3 C 78 % 1011,8 hPa 0,0 l/m 1,0 km/h (0 Bft) W-NW 286 9,5 C 3,1 km/h (1 Bft) 100 %
13.06.2018 01:14 13,3 C 78 % 1011,8 hPa 0,0 l/m 0,5 km/h (0 Bft) W-SW 245 9,5 C 3,1 km/h (1 Bft) 100 %
13.06.2018 01:15 13,3 C 78 % 1011,8 hPa 0,0 l/m 0,2 km/h (0 Bft) W-NW 302 9,5 C 3,1 km/h (1 Bft) 100 %
13.06.2018 01:16 13,3 C 78 % 1011,8 hPa 0,0 l/m 0,1 km/h (0 Bft) W-NW 302 9,5 C 3,1 km/h (1 Bft) 100 %
13.06.2018 01:17 13,3 C 78 % 1011,8 hPa 0,0 l/m 0,2 km/h (0 Bft) W-NW 289 9,5 C 3,1 km/h (1 Bft) 100 %
13.06.2018 01:18 13,3 C 78 % 1011,9 hPa 0,0 l/m 2,5 km/h (1 Bft) W-NW 295 9,5 C 6,3 km/h (2 Bft) 100 %
13.06.2018 01:19 13,3 C 78 % 1011,8 hPa 0,0 l/m 0,1 km/h (0 Bft) W-NW 295 9,5 C 3,1 km/h (1 Bft) 100 %
13.06.2018 01:20 13,3 C 78 % 1011,8 hPa 0,0 l/m 0,0 km/h (0 Bft) W-SW 238 9,5 C 0,0 km/h (0 Bft) 100 %
13.06.2018 01:21 13,2 C 78 % 1011,9 hPa 0,0 l/m 0,0 km/h (0 Bft) W 276 9,4 C 0,0 km/h (0 Bft) 100 %
13.06.2018 01:22 13,2 C 78 % 1011,9 hPa 0,0 l/m 0,1 km/h (0 Bft) SW 234 9,4 C 3,1 km/h (1 Bft) 100 %
13.06.2018 01:23 13,2 C 79 % 1011,9 hPa 0,0 l/m 0,6 km/h (0 Bft) W-SW 253 9,6 C 3,1 km/h (1 Bft) 100 %
13.06.2018 01:24 13,2 C 78 % 1011,9 hPa 0,0 l/m 0,1 km/h (0 Bft) W 278 9,4 C 3,1 km/h (1 Bft) 100 %
13.06.2018 01:25 13,2 C 79 % 1012,0 hPa 0,0 l/m 0,0 km/h (0 Bft) SW 232 9,6 C 0,0 km/h (0 Bft) 100 %
13.06.2018 01:26 13,2 C 78 % 1012,0 hPa 0,0 l/m 0,5 km/h (0 Bft) W-NW 290 9,4 C 3,1 km/h (1 Bft) 100 %
13.06.2018 01:27 13,2 C 78 % 1012,0 hPa 0,0 l/m 0,3 km/h (0 Bft) W-NW 289 9,4 C 3,1 km/h (1 Bft) 100 %
13.06.2018 01:28 13,2 C 79 % 1011,9 hPa 0,0 l/m 1,0 km/h (0 Bft) W 272 9,6 C 3,1 km/h (1 Bft) 100 %
13.06.2018 01:29 13,1 C 78 % 1012,0 hPa 0,0 l/m 2,6 km/h (1 Bft) W 276 9,4 C 6,3 km/h (2 Bft) 100 %
13.06.2018 01:30 13,1 C 78 % 1012,0 hPa 0,0 l/m 2,0 km/h (1 Bft) W-NW 285 9,4 C 6,3 km/h (2 Bft) 100 %
13.06.2018 01:31 13,1 C 78 % 1011,9 hPa 0,0 l/m 0,0 km/h (0 Bft) W-NW 285 9,4 C 0,0 km/h (0 Bft) 100 %
13.06.2018 01:32 13,1 C 79 % 1012,0 hPa 0,0 l/m 0,7 km/h (0 Bft) W-NW 288 9,5 C 3,1 km/h (1 Bft) 100 %
13.06.2018 01:33 13,1 C 79 % 1012,0 hPa 0,0 l/m 0,5 km/h (0 Bft) W 278 9,5 C 3,1 km/h (1 Bft) 100 %
13.06.2018 01:34 13,1 C 79 % 1012,0 hPa 0,0 l/m 0,1 km/h (0 Bft) W 278 9,5 C 3,1 km/h (1 Bft) 100 %
13.06.2018 01:35 13,1 C 79 % 1012,0 hPa 0,0 l/m 0,4 km/h (0 Bft) W-NW 288 9,5 C 3,1 km/h (1 Bft) 100 %
13.06.2018 01:36 13,1 C 79 % 1012,1 hPa 0,0 l/m 2,0 km/h (1 Bft) W-NW 294 9,5 C 6,3 km/h (2 Bft) 100 %
13.06.2018 01:37 13,1 C 78 % 1012,1 hPa 0,0 l/m 0,1 km/h (0 Bft) W-NW 294 9,4 C 3,1 km/h (1 Bft) 100 %
13.06.2018 01:38 13,1 C 79 % 1012,1 hPa 0,0 l/m 0,7 km/h (0 Bft) W-NW 294 9,5 C 3,1 km/h (1 Bft) 96 %
13.06.2018 01:39 13,1 C 79 % 1012,1 hPa 0,0 l/m 0,0 km/h (0 Bft) W-NW 294 9,5 C 0,0 km/h (0 Bft) 100 %
13.06.2018 01:40 13,1 C 79 % 1012,1 hPa 0,0 l/m 1,0 km/h (0 Bft) W-NW 293 9,5 C 3,1 km/h (1 Bft) 100 %
13.06.2018 01:41 13,1 C 79 % 1012,1 hPa 0,0 l/m 1,8 km/h (1 Bft) W 280 9,5 C 3,1 km/h (1 Bft) 100 %
13.06.2018 01:42 13,1 C 79 % 1012,0 hPa 0,0 l/m 1,8 km/h (1 Bft) SW 230 9,5 C 9,4 km/h (2 Bft) 100 %
13.06.2018 01:43 13,0 C 79 % 1012,0 hPa 0,0 l/m 0,1 km/h (0 Bft) W-SW 257 9,4 C 3,1 km/h (1 Bft) 100 %
13.06.2018 01:44 13,0 C 79 % 1012,0 hPa 0,0 l/m 1,7 km/h (1 Bft) W-SW 250 9,4 C 3,1 km/h (1 Bft) 100 %
13.06.2018 01:45 13,0 C 79 % 1012,0 hPa 0,0 l/m 2,3 km/h (1 Bft) W-NW 290 9,4 C 6,3 km/h (2 Bft) 100 %
13.06.2018 01:46 13,0 C 79 % 1012,0 hPa 0,0 l/m 4,0 km/h (1 Bft) W-NW 292 9,4 C 6,3 km/h (2 Bft) 100 %
13.06.2018 01:47 12,9 C 79 % 1012,0 hPa 0,0 l/m 1,6 km/h (1 Bft) W-NW 285 9,3 C 3,1 km/h (1 Bft) 100 %
13.06.2018 01:48 12,9 C 79 % 1012,0 hPa 0,0 l/m 0,6 km/h (0 Bft) W 262 9,3 C 3,1 km/h (1 Bft) 100 %
13.06.2018 01:49 12,9 C 79 % 1012,0 hPa 0,0 l/m 0,0 km/h (0 Bft) W 266 9,3 C 0,0 km/h (0 Bft) 100 %
13.06.2018 01:50 12,9 C 79 % 1012,0 hPa 0,0 l/m 0,0 km/h (0 Bft) W 263 9,3 C 0,0 km/h (0 Bft) 100 %
13.06.2018 01:51 12,9 C 80 % 1011,9 hPa 0,0 l/m 0,0 km/h (0 Bft) W-SW 245 9,5 C 0,0 km/h (0 Bft) 100 %
13.06.2018 01:52 12,9 C 80 % 1012,0 hPa 0,0 l/m 0,1 km/h (0 Bft) W-SW 246 9,5 C 3,1 km/h (1 Bft) 96 %
13.06.2018 01:53 12,9 C 80 % 1012,0 hPa 0,0 l/m 0,2 km/h (0 Bft) W-NW 283 9,5 C 3,1 km/h (1 Bft) 100 %
13.06.2018 01:54 12,9 C 80 % 1012,0 hPa 0,0 l/m 0,4 km/h (0 Bft) W 278 9,5 C 3,1 km/h (1 Bft) 96 %
13.06.2018 01:55 12,9 C 79 % 1012,0 hPa 0,0 l/m 0,2 km/h (0 Bft) W 273 9,3 C 3,1 km/h (1 Bft) 96 %
13.06.2018 01:56 12,9 C 79 % 1012,0 hPa 0,0 l/m 2,4 km/h (1 Bft) NW 321 9,3 C 6,3 km/h (2 Bft) 96 %
13.06.2018 01:57 12,9 C 79 % 1012,0 hPa 0,0 l/m 2,2 km/h (1 Bft) W-NW 298 9,3 C 6,3 km/h (2 Bft) 100 %
13.06.2018 01:58 12,9 C 79 % 1011,9 hPa 0,0 l/m 0,0 km/h (0 Bft) W-NW 298 9,3 C 0,0 km/h (0 Bft) 96 %
13.06.2018 01:59 12,9 C 80 % 1012,0 hPa 0,0 l/m 1,6 km/h (1 Bft) W-NW 285 9,5 C 3,1 km/h (1 Bft) 100 %
13.06.2018 02:00 12,9 C 79 % 1012,0 hPa 0,0 l/m 0,0 km/h (0 Bft) W 278 9,3 C 0,0 km/h (0 Bft) 96 %
13.06.2018 02:01 12,9 C 79 % 1012,0 hPa 0,0 l/m 1,7 km/h (1 Bft) W-NW 294 9,3 C 6,3 km/h (2 Bft) 100 %
13.06.2018 02:02 12,9 C 79 % 1012,0 hPa 0,0 l/m 1,7 km/h (1 Bft) W-SW 247 9,3 C 3,1 km/h (1 Bft) 96 %
13.06.2018 02:03 12,9 C 80 % 1012,0 hPa 0,0 l/m 0,1 km/h (0 Bft) W-SW 247 9,5 C 3,1 km/h (1 Bft) 96 %
13.06.2018 02:04 12,9 C 80 % 1011,9 hPa 0,0 l/m 0,2 km/h (0 Bft) W-SW 248 9,5 C 3,1 km/h (1 Bft) 100 %
13.06.2018 02:05 12,9 C 80 % 1011,9 hPa 0,0 l/m 1,9 km/h (1 Bft) W-NW 283 9,5 C 9,4 km/h (2 Bft) 96 %
13.06.2018 02:06 12,9 C 79 % 1011,9 hPa 0,0 l/m 1,2 km/h (1 Bft) W-NW 282 9,3 C 3,1 km/h (1 Bft) 100 %
13.06.2018 02:07 12,9 C 79 % 1012,0 hPa 0,0 l/m 0,0 km/h (0 Bft) W-NW 283 9,3 C 0,0 km/h (0 Bft) 96 %
13.06.2018 02:08 12,9 C 80 % 1012,0 hPa 0,0 l/m 0,7 km/h (0 Bft) W-NW 283 9,5 C 3,1 km/h (1 Bft) 100 %
13.06.2018 02:09 12,8 C 80 % 1011,9 hPa 0,0 l/m 0,9 km/h (0 Bft) W-SW 257 9,4 C 3,1 km/h (1 Bft) 100 %
13.06.2018 02:10 12,8 C 80 % 1012,0 hPa 0,0 l/m 1,3 km/h (1 Bft) W-NW 285 9,4 C 3,1 km/h (1 Bft) 100 %
13.06.2018 02:11 12,8 C 80 % 1011,9 hPa 0,0 l/m 0,0 km/h (0 Bft) W-NW 285 9,4 C 0,0 km/h (0 Bft) 100 %
13.06.2018 02:12 12,8 C 80 % 1011,9 hPa 0,0 l/m 0,1 km/h (0 Bft) W-NW 285 9,4 C 3,1 km/h (1 Bft) 100 %
13.06.2018 02:13 12,8 C 80 % 1012,0 hPa 0,0 l/m 0,0 km/h (0 Bft) W-NW 285 9,4 C 0,0 km/h (0 Bft) 100 %
13.06.2018 02:14 12,8 C 80 % 1012,0 hPa 0,0 l/m 1,4 km/h (1 Bft) W-NW 285 9,4 C 3,1 km/h (1 Bft) 100 %
13.06.2018 02:15 12,8 C 80 % 1012,0 hPa 0,0 l/m 0,0 km/h (0 Bft) W-NW 285 9,4 C 0,0 km/h (0 Bft) 100 %
13.06.2018 02:16 12,8 C 80 % 1012,0 hPa 0,0 l/m 0,1 km/h (0 Bft) W-NW 283 9,4 C 3,1 km/h (1 Bft) 100 %
13.06.2018 02:17 12,8 C 80 % 1011,9 hPa 0,0 l/m 1,6 km/h (1 Bft) W-NW 284 9,4 C 6,3 km/h (2 Bft) 100 %
13.06.2018 02:18 12,8 C 80 % 1012,0 hPa 0,0 l/m 0,5 km/h (0 Bft) W 264 9,4 C 3,1 km/h (1 Bft) 100 %
13.06.2018 02:19 12,8 C 80 % 1012,0 hPa 0,0 l/m 0,7 km/h (0 Bft) W 273 9,4 C 3,1 km/h (1 Bft) 100 %
13.06.2018 02:20 12,8 C 80 % 1011,9 hPa 0,0 l/m 2,9 km/h (1 Bft) W-NW 283 9,4 C 6,3 km/h (2 Bft) 100 %
13.06.2018 02:21 12,8 C 80 % 1011,9 hPa 0,0 l/m 4,2 km/h (1 Bft) W-NW 295 9,4 C 9,4 km/h (2 Bft) 100 %
13.06.2018 02:22 12,8 C 80 % 1011,9 hPa 0,0 l/m 1,1 km/h (1 Bft) W-SW 257 9,4 C 3,1 km/h (1 Bft) 100 %
13.06.2018 02:23 12,8 C 81 % 1011,9 hPa 0,0 l/m 0,1 km/h (0 Bft) W 262 9,6 C 3,1 km/h (1 Bft) 100 %
13.06.2018 02:24 12,7 C 81 % 1011,9 hPa 0,0 l/m 0,3 km/h (0 Bft) W 262 9,5 C 3,1 km/h (1 Bft) 100 %
13.06.2018 02:25 12,7 C 81 % 1011,9 hPa 0,0 l/m 1,0 km/h (0 Bft) W-SW 256 9,5 C 3,1 km/h (1 Bft) 100 %
13.06.2018 02:26 12,7 C 81 % 1011,9 hPa 0,0 l/m 0,8 km/h (0 Bft) W-NW 282 9,5 C 3,1 km/h (1 Bft) 100 %
13.06.2018 02:27 12,7 C 81 % 1011,9 hPa 0,0 l/m 0,6 km/h (0 Bft) W-NW 302 9,5 C 3,1 km/h (1 Bft) 100 %
13.06.2018 02:28 12,7 C 81 % 1011,9 hPa 0,0 l/m 0,7 km/h (0 Bft) W-NW 302 9,5 C 3,1 km/h (1 Bft) 100 %
13.06.2018 02:29 12,7 C 81 % 1011,9 hPa 0,0 l/m 0,2 km/h (0 Bft) W-NW 302 9,5 C 3,1 km/h (1 Bft) 100 %
13.06.2018 02:30 12,7 C 81 % 1011,9 hPa 0,0 l/m 0,1 km/h (0 Bft) W-NW 302 9,5 C 3,1 km/h (1 Bft) 100 %
13.06.2018 02:31 12,7 C 81 % 1011,9 hPa 0,0 l/m 0,0 km/h (0 Bft) W-NW 302 9,5 C 0,0 km/h (0 Bft) 100 %
13.06.2018 02:32 12,7 C 81 % 1011,9 hPa 0,0 l/m 0,0 km/h (0 Bft) W-NW 302 9,5 C 0,0 km/h (0 Bft) 100 %
13.06.2018 02:33 12,7 C 81 % 1011,9 hPa 0,0 l/m 0,0 km/h (0 Bft) W-NW 302 9,5 C 0,0 km/h (0 Bft) 100 %
13.06.2018 02:34 12,7 C 81 % 1011,9 hPa 0,0 l/m 0,0 km/h (0 Bft) W-NW 302 9,5 C 0,0 km/h (0 Bft) 100 %
13.06.2018 02:35 12,7 C 81 % 1012,0 hPa 0,0 l/m 0,0 km/h (0 Bft) W-NW 302 9,5 C 0,0 km/h (0 Bft) 100 %
13.06.2018 02:36 12,7 C 81 % 1011,9 hPa 0,0 l/m 1,4 km/h (1 Bft) W 272 9,5 C 3,1 km/h (1 Bft) 100 %
13.06.2018 02:37 12,7 C 81 % 1012,0 hPa 0,0 l/m 0,0 km/h (0 Bft) W 266 9,5 C 0,0 km/h (0 Bft) 100 %
13.06.2018 02:38 12,7 C 81 % 1011,9 hPa 0,0 l/m 0,3 km/h (0 Bft) W 269 9,5 C 3,1 km/h (1 Bft) 100 %
13.06.2018 02:39 12,7 C 81 % 1012,0 hPa 0,0 l/m 0,0 km/h (0 Bft) W 269 9,5 C 0,0 km/h (0 Bft) 100 %
13.06.2018 02:40 12,6 C 81 % 1012,0 hPa 0,0 l/m 0,2 km/h (0 Bft) W-SW 250 9,4 C 3,1 km/h (1 Bft) 100 %
13.06.2018 02:41 12,6 C 82 % 1012,0 hPa 0,0 l/m 0,0 km/h (0 Bft) W 262 9,6 C 0,0 km/h (0 Bft) 100 %
13.06.2018 02:42 12,6 C 81 % 1012,0 hPa 0,0 l/m 0,1 km/h (0 Bft) W 263 9,4 C 3,1 km/h (1 Bft) 100 %
13.06.2018 02:43 12,6 C 82 % 1012,0 hPa 0,0 l/m 0,0 km/h (0 Bft) W 263 9,6 C 0,0 km/h (0 Bft) 100 %
13.06.2018 02:44 12,6 C 82 % 1012,0 hPa 0,0 l/m 0,0 km/h (0 Bft) W 263 9,6 C 0,0 km/h (0 Bft) 100 %
13.06.2018 02:45 12,6 C 82 % 1011,9 hPa 0,0 l/m 0,1 km/h (0 Bft) W 263 9,6 C 3,1 km/h (1 Bft) 100 %
13.06.2018 02:46 12,6 C 82 % 1012,0 hPa 0,0 l/m 0,1 km/h (0 Bft) W 263 9,6 C 3,1 km/h (1 Bft) 100 %
13.06.2018 02:47 12,6 C 82 % 1011,9 hPa 0,0 l/m 0,1 km/h (0 Bft) W 263 9,6 C 3,1 km/h (1 Bft) 100 %
13.06.2018 02:48 12,6 C 82 % 1012,0 hPa 0,0 l/m 0,0 km/h (0 Bft) W 263 9,6 C 0,0 km/h (0 Bft) 100 %
13.06.2018 02:49 12,6 C 82 % 1011,9 hPa 0,0 l/m 0,1 km/h (0 Bft) W 280 9,6 C 3,1 km/h (1 Bft) 100 %
13.06.2018 02:50 12,6 C 82 % 1012,0 hPa 0,0 l/m 0,2 km/h (0 Bft) W 280 9,6 C 3,1 km/h (1 Bft) 100 %
13.06.2018 02:51 12,6 C 82 % 1012,0 hPa 0,0 l/m 0,0 km/h (0 Bft) W 280 9,6 C 0,0 km/h (0 Bft) 100 %
13.06.2018 02:52 12,7 C 82 % 1011,9 hPa 0,0 l/m 0,0 km/h (0 Bft) W 280 9,7 C 0,0 km/h (0 Bft) 100 %
13.06.2018 02:53 12,6 C 82 % 1011,9 hPa 0,0 l/m 0,8 km/h (0 Bft) W-NW 294 9,6 C 3,1 km/h (1 Bft) 100 %
13.06.2018 02:54 12,7 C 82 % 1011,9 hPa 0,0 l/m 0,3 km/h (0 Bft) W-NW 293 9,7 C 3,1 km/h (1 Bft) 100 %
13.06.2018 02:55 12,7 C 82 % 1011,9 hPa 0,0 l/m 0,0 km/h (0 Bft) W-NW 291 9,7 C 0,0 km/h (0 Bft) 100 %
13.06.2018 02:56 12,7 C 82 % 1011,9 hPa 0,0 l/m 0,9 km/h (0 Bft) W-NW 290 9,7 C 6,3 km/h (2 Bft) 100 %
13.06.2018 02:57 12,7 C 82 % 1011,9 hPa 0,0 l/m 0,0 km/h (0 Bft) W-NW 289 9,7 C 0,0 km/h (0 Bft) 100 %
13.06.2018 02:58 12,7 C 82 % 1011,8 hPa 0,0 l/m 0,7 km/h (0 Bft) W 277 9,7 C 3,1 km/h (1 Bft) 100 %
13.06.2018 02:59 12,7 C 82 % 1011,8 hPa 0,0 l/m 0,7 km/h (0 Bft) W 275 9,7 C 3,1 km/h (1 Bft) 100 %
13.06.2018 03:00 12,7 C 82 % 1011,8 hPa 0,0 l/m 0,7 km/h (0 Bft) W 276 9,7 C 3,1 km/h (1 Bft) 100 %
13.06.2018 03:01 12,6 C 82 % 1011,8 hPa 0,0 l/m 4,2 km/h (1 Bft) W-NW 297 9,6 C 9,4 km/h (2 Bft) 96 %
13.06.2018 03:02 12,6 C 82 % 1011,8 hPa 0,0 l/m 3,4 km/h (1 Bft) W-NW 287 9,6 C 9,4 km/h (2 Bft) 100 %
13.06.2018 03:03 12,6 C 82 % 1011,8 hPa 0,0 l/m 1,7 km/h (1 Bft) W-NW 285 9,6 C 3,1 km/h (1 Bft) 100 %
13.06.2018 03:04 12,6 C 82 % 1011,7 hPa 0,0 l/m 0,8 km/h (0 Bft) W 281 9,6 C 3,1 km/h (1 Bft) 100 %
13.06.2018 03:05 12,6 C 83 % 1011,7 hPa 0,0 l/m 0,3 km/h (0 Bft) W-NW 287 9,8 C 3,1 km/h (1 Bft) 96 %
13.06.2018 03:06 12,6 C 83 % 1011,8 hPa 0,0 l/m 0,9 km/h (0 Bft) NW 309 9,8 C 3,1 km/h (1 Bft) 96 %
13.06.2018 03:07 12,6 C 83 % 1011,7 hPa 0,0 l/m 0,5 km/h (0 Bft) W-NW 301 9,8 C 3,1 km/h (1 Bft) 100 %
13.06.2018 03:08 12,6 C 83 % 1011,7 hPa 0,0 l/m 0,1 km/h (0 Bft) NW 306 9,8 C 3,1 km/h (1 Bft) 96 %
13.06.2018 03:09 12,6 C 83 % 1011,7 hPa 0,0 l/m 1,2 km/h (1 Bft) W-NW 296 9,8 C 6,3 km/h (2 Bft) 100 %
13.06.2018 03:10 12,6 C 83 % 1011,7 hPa 0,0 l/m 1,7 km/h (1 Bft) NW 309 9,8 C 3,1 km/h (1 Bft) 96 %
13.06.2018 03:11 12,6 C 83 % 1011,7 hPa 0,0 l/m 0,4 km/h (0 Bft) W-NW 297 9,8 C 3,1 km/h (1 Bft) 96 %
13.06.2018 03:12 12,6 C 83 % 1011,7 hPa 0,0 l/m 0,4 km/h (0 Bft) W-NW 300 9,8 C 3,1 km/h (1 Bft) 100 %
13.06.2018 03:13 12,6 C 83 % 1011,7 hPa 0,0 l/m 1,8 km/h (1 Bft) W-NW 293 9,8 C 3,1 km/h (1 Bft) 96 %
13.06.2018 03:14 12,6 C 83 % 1011,7 hPa 0,0 l/m 0,3 km/h (0 Bft) W 271 9,8 C 3,1 km/h (1 Bft) 100 %
13.06.2018 03:15 12,6 C 83 % 1011,7 hPa 0,0 l/m 1,5 km/h (1 Bft) W-NW 295 9,8 C 3,1 km/h (1 Bft) 96 %
13.06.2018 03:16 12,6 C 83 % 1011,8 hPa 0,0 l/m 0,0 km/h (0 Bft) W-NW 295 9,8 C 0,0 km/h (0 Bft) 100 %
13.06.2018 03:17 12,6 C 83 % 1011,8 hPa 0,0 l/m 0,5 km/h (0 Bft) W-NW 291 9,8 C 3,1 km/h (1 Bft) 96 %
13.06.2018 03:18 12,6 C 83 % 1011,8 hPa 0,0 l/m 0,8 km/h (0 Bft) W-NW 298 9,8 C 3,1 km/h (1 Bft) 100 %
13.06.2018 03:19 12,6 C 83 % 1011,7 hPa 0,0 l/m 2,1 km/h (1 Bft) W-NW 294 9,8 C 3,1 km/h (1 Bft) 100 %
13.06.2018 03:20 12,6 C 83 % 1011,7 hPa 0,0 l/m 3,1 km/h (1 Bft) W 278 9,8 C 6,3 km/h (2 Bft) 100 %
13.06.2018 03:21 12,6 C 83 % 1011,8 hPa 0,0 l/m 2,2 km/h (1 Bft) W-NW 299 9,8 C 6,3 km/h (2 Bft) 100 %
13.06.2018 03:22 12,6 C 83 % 1011,7 hPa 0,0 l/m 1,8 km/h (1 Bft) W-NW 284 9,8 C 6,3 km/h (2 Bft) 100 %
13.06.2018 03:23 12,6 C 83 % 1011,7 hPa 0,0 l/m 0,1 km/h (0 Bft) W 277 9,8 C 3,1 km/h (1 Bft) 100 %
13.06.2018 03:24 12,6 C 83 % 1011,7 hPa 0,0 l/m 1,2 km/h (1 Bft) W-NW 295 9,8 C 3,1 km/h (1 Bft) 100 %
13.06.2018 03:25 12,6 C 83 % 1011,7 hPa 0,0 l/m 0,0 km/h (0 Bft) W-NW 295 9,8 C 0,0 km/h (0 Bft) 100 %
13.06.2018 03:26 12,6 C 83 % 1011,6 hPa 0,0 l/m 0,1 km/h (0 Bft) W-NW 295 9,8 C 3,1 km/h (1 Bft) 100 %
13.06.2018 03:27 12,6 C 83 % 1011,6 hPa 0,0 l/m 0,1 km/h (0 Bft) W-NW 290 9,8 C 3,1 km/h (1 Bft) 100 %
13.06.2018 03:28 12,6 C 83 % 1011,6 hPa 0,0 l/m 1,0 km/h (0 Bft) W 259 9,8 C 6,3 km/h (2 Bft) 100 %
13.06.2018 03:29 12,6 C 83 % 1011,6 hPa 0,0 l/m 0,1 km/h (0 Bft) W 259 9,8 C 3,1 km/h (1 Bft) 100 %
13.06.2018 03:30 12,6 C 83 % 1011,6 hPa 0,0 l/m 0,0 km/h (0 Bft) W 278 9,8 C 0,0 km/h (0 Bft) 100 %
13.06.2018 03:31 12,6 C 83 % 1011,5 hPa 0,0 l/m 0,0 km/h (0 Bft) W 278 9,8 C 0,0 km/h (0 Bft) 100 %
13.06.2018 03:32 12,6 C 83 % 1011,5 hPa 0,0 l/m 0,3 km/h (0 Bft) W 278 9,8 C 3,1 km/h (1 Bft) 100 %
13.06.2018 03:33 12,6 C 83 % 1011,5 hPa 0,0 l/m 1,6 km/h (1 Bft) W-NW 302 9,8 C 6,3 km/h (2 Bft) 100 %
13.06.2018 03:34 12,6 C 83 % 1011,5 hPa 0,0 l/m 1,8 km/h (1 Bft) W 272 9,8 C 6,3 km/h (2 Bft) 100 %
13.06.2018 03:35 12,6 C 83 % 1011,5 hPa 0,0 l/m 0,9 km/h (0 Bft) W 276 9,8 C 3,1 km/h (1 Bft) 100 %
13.06.2018 03:36 12,6 C 83 % 1011,5 hPa 0,0 l/m 2,8 km/h (1 Bft) W 270 9,8 C 6,3 km/h (2 Bft) 100 %
13.06.2018 03:37 12,6 C 83 % 1011,5 hPa 0,0 l/m 3,7 km/h (1 Bft) W-NW 295 9,8 C 6,3 km/h (2 Bft) 100 %
13.06.2018 03:38 12,6 C 83 % 1011,5 hPa 0,0 l/m 2,2 km/h (1 Bft) W 261 9,8 C 9,4 km/h (2 Bft) 100 %
13.06.2018 03:39 12,6 C 83 % 1011,5 hPa 0,0 l/m 4,2 km/h (1 Bft) NW 305 9,8 C 15,7 km/h (3 Bft) 100 %
13.06.2018 03:40 12,6 C 83 % 1011,5 hPa 0,0 l/m 1,1 km/h (1 Bft) SW 222 9,8 C 3,1 km/h (1 Bft) 100 %
13.06.2018 03:41 12,6 C 83 % 1011,5 hPa 0,0 l/m 2,4 km/h (1 Bft) NW 304 9,8 C 9,4 km/h (2 Bft) 100 %
13.06.2018 03:42 12,6 C 83 % 1011,5 hPa 0,0 l/m 1,3 km/h (1 Bft) W-NW 286 9,8 C 6,3 km/h (2 Bft) 100 %
13.06.2018 03:43 12,6 C 83 % 1011,5 hPa 0,0 l/m 2,0 km/h (1 Bft) NW 310 9,8 C 3,1 km/h (1 Bft) 100 %
13.06.2018 03:44 12,6 C 84 % 1011,5 hPa 0,0 l/m 1,7 km/h (1 Bft) W 278 10,0 C 6,3 km/h (2 Bft) 100 %
13.06.2018 03:45 12,6 C 84 % 1011,5 hPa 0,0 l/m 0,8 km/h (0 Bft) W-NW 294 10,0 C 3,1 km/h (1 Bft) 100 %
13.06.2018 03:46 12,6 C 84 % 1011,5 hPa 0,0 l/m 0,5 km/h (0 Bft) NW 307 10,0 C 3,1 km/h (1 Bft) 100 %
13.06.2018 03:47 12,6 C 84 % 1011,5 hPa 0,0 l/m 0,0 km/h (0 Bft) NW 306 10,0 C 0,0 km/h (0 Bft) 100 %
13.06.2018 03:48 12,6 C 84 % 1011,5 hPa 0,0 l/m 3,7 km/h (1 Bft) W-NW 300 10,0 C 6,3 km/h (2 Bft) 100 %
13.06.2018 03:49 12,5 C 84 % 1011,5 hPa 0,0 l/m 1,8 km/h (1 Bft) W 269 9,9 C 6,3 km/h (2 Bft) 100 %
13.06.2018 03:50 12,6 C 84 % 1011,5 hPa 0,0 l/m 0,0 km/h (0 Bft) W 269 10,0 C 0,0 km/h (0 Bft) 100 %
13.06.2018 03:51 12,5 C 84 % 1011,5 hPa 0,0 l/m 1,0 km/h (0 Bft) W-NW 285 9,9 C 6,3 km/h (2 Bft) 100 %
13.06.2018 03:52 12,5 C 84 % 1011,5 hPa 0,0 l/m 0,7 km/h (0 Bft) NW 306 9,9 C 3,1 km/h (1 Bft) 100 %
13.06.2018 03:53 12,5 C 84 % 1011,5 hPa 0,0 l/m 1,2 km/h (1 Bft) W 275 9,9 C 3,1 km/h (1 Bft) 100 %
13.06.2018 03:54 12,5 C 84 % 1011,5 hPa 0,0 l/m 0,1 km/h (0 Bft) W 275 9,9 C 3,1 km/h (1 Bft) 100 %
13.06.2018 03:55 12,5 C 84 % 1011,5 hPa 0,0 l/m 0,7 km/h (0 Bft) W-NW 289 9,9 C 3,1 km/h (1 Bft) 100 %
13.06.2018 03:56 12,5 C 84 % 1011,4 hPa 0,0 l/m 1,3 km/h (1 Bft) W 264 9,9 C 3,1 km/h (1 Bft) 100 %
13.06.2018 03:57 12,5 C 84 % 1011,4 hPa 0,0 l/m 0,0 km/h (0 Bft) W 264 9,9 C 0,0 km/h (0 Bft) 100 %
13.06.2018 03:58 12,5 C 84 % 1011,5 hPa 0,0 l/m 0,3 km/h (0 Bft) W-NW 297 9,9 C 3,1 km/h (1 Bft) 100 %
13.06.2018 03:59 12,5 C 84 % 1011,5 hPa 0,0 l/m 0,0 km/h (0 Bft) W-NW 297 9,9 C 0,0 km/h (0 Bft) 100 %
13.06.2018 04:00 12,5 C 84 % 1011,5 hPa 0,0 l/m 0,0 km/h (0 Bft) W-NW 296 9,9 C 0,0 km/h (0 Bft) 100 %
13.06.2018 04:01 12,5 C 84 % 1011,6 hPa 0,0 l/m 4,3 km/h (1 Bft) W-NW 290 9,9 C 9,4 km/h (2 Bft) 100 %
13.06.2018 04:02 12,5 C 84 % 1011,5 hPa 0,0 l/m 5,0 km/h (1 Bft) W-NW 293 9,9 C 6,3 km/h (2 Bft) 100 %
13.06.2018 04:03 12,5 C 84 % 1011,6 hPa 0,0 l/m 2,0 km/h (1 Bft) W-SW 255 9,9 C 6,3 km/h (2 Bft) 100 %
13.06.2018 04:04 12,5 C 84 % 1011,5 hPa 0,0 l/m 1,7 km/h (1 Bft) W-NW 299 9,9 C 9,4 km/h (2 Bft) 100 %
13.06.2018 04:05 12,5 C 84 % 1011,5 hPa 0,0 l/m 4,1 km/h (1 Bft) W-NW 292 9,9 C 9,4 km/h (2 Bft) 100 %
13.06.2018 04:06 12,5 C 84 % 1011,6 hPa 0,0 l/m 1,4 km/h (1 Bft) W-SW 251 9,9 C 6,3 km/h (2 Bft) 100 %
13.06.2018 04:07 12,5 C 84 % 1011,6 hPa 0,0 l/m 0,0 km/h (0 Bft) W-SW 251 9,9 C 0,0 km/h (0 Bft) 100 %
13.06.2018 04:08 12,4 C 84 % 1011,6 hPa 0,0 l/m 0,5 km/h (0 Bft) SW 236 9,8 C 3,1 km/h (1 Bft) 100 %
13.06.2018 04:09 12,4 C 84 % 1011,6 hPa 0,0 l/m 0,5 km/h (0 Bft) W-SW 244 9,8 C 3,1 km/h (1 Bft) 100 %
13.06.2018 04:10 12,4 C 85 % 1011,6 hPa 0,0 l/m 2,5 km/h (1 Bft) W 266 9,9 C 9,4 km/h (2 Bft) 100 %
13.06.2018 04:11 12,4 C 85 % 1011,6 hPa 0,0 l/m 0,1 km/h (0 Bft) N-NW 345 9,9 C 3,1 km/h (1 Bft) 97 %
13.06.2018 04:12 12,4 C 85 % 1011,5 hPa 0,0 l/m 1,4 km/h (1 Bft) NW 312 9,9 C 6,3 km/h (2 Bft) 100 %
13.06.2018 04:13 12,4 C 85 % 1011,5 hPa 0,0 l/m 0,0 km/h (0 Bft) NW 311 9,9 C 0,0 km/h (0 Bft) 100 %
13.06.2018 04:14 12,4 C 85 % 1011,6 hPa 0,0 l/m 0,0 km/h (0 Bft) NW 311 9,9 C 0,0 km/h (0 Bft) 100 %
13.06.2018 04:15 12,4 C 85 % 1011,6 hPa 0,0 l/m 2,5 km/h (1 Bft) W-NW 302 9,9 C 6,3 km/h (2 Bft) 100 %
13.06.2018 04:16 12,4 C 85 % 1011,6 hPa 0,0 l/m 1,0 km/h (0 Bft) W-NW 297 9,9 C 3,1 km/h (1 Bft) 100 %
13.06.2018 04:17 12,4 C 85 % 1011,6 hPa 0,0 l/m 3,5 km/h (1 Bft) W-NW 285 9,9 C 6,3 km/h (2 Bft) 100 %
13.06.2018 04:18 12,4 C 85 % 1011,6 hPa 0,0 l/m 4,4 km/h (1 Bft) SW 236 9,9 C 9,4 km/h (2 Bft) 96 %
13.06.2018 04:19 12,4 C 85 % 1011,6 hPa 0,0 l/m 4,2 km/h (1 Bft) SW 219 9,9 C 9,4 km/h (2 Bft) 100 %
13.06.2018 04:20 12,4 C 85 % 1011,6 hPa 0,0 l/m 0,2 km/h (0 Bft) SW 220 9,9 C 3,1 km/h (1 Bft) 97 %
13.06.2018 04:21 12,4 C 85 % 1011,6 hPa 0,0 l/m 0,2 km/h (0 Bft) SW 219 9,9 C 3,1 km/h (1 Bft) 96 %
13.06.2018 04:22 12,4 C 85 % 1011,6 hPa 0,0 l/m 0,5 km/h (0 Bft) W-NW 295 9,9 C 3,1 km/h (1 Bft) 100 %
13.06.2018 04:23 12,4 C 85 % 1011,6 hPa 0,0 l/m 0,0 km/h (0 Bft) SW 231 9,9 C 0,0 km/h (0 Bft) 96 %
13.06.2018 04:24 12,4 C 85 % 1011,6 hPa 0,0 l/m 0,3 km/h (0 Bft) W 274 9,9 C 3,1 km/h (1 Bft) 96 %
13.06.2018 04:25 12,4 C 85 % 1011,6 hPa 0,0 l/m 0,1 km/h (0 Bft) W 274 9,9 C 3,1 km/h (1 Bft) 100 %
13.06.2018 04:26 12,4 C 85 % 1011,5 hPa 0,0 l/m 1,3 km/h (1 Bft) W-SW 245 9,9 C 6,3 km/h (2 Bft) 96 %
13.06.2018 04:27 12,4 C 85 % 1011,5 hPa 0,0 l/m 2,7 km/h (1 Bft) W-NW 299 9,9 C 6,3 km/h (2 Bft) 100 %
13.06.2018 04:28 12,4 C 85 % 1011,6 hPa 0,0 l/m 1,2 km/h (1 Bft) NW 306 9,9 C 3,1 km/h (1 Bft) 96 %
13.06.2018 04:29 12,4 C 85 % 1011,5 hPa 0,0 l/m 1,2 km/h (1 Bft) SW 236 9,9 C 3,1 km/h (1 Bft) 100 %
13.06.2018 04:30 12,4 C 85 % 1011,6 hPa 0,0 l/m 1,4 km/h (1 Bft) W 259 9,9 C 3,1 km/h (1 Bft) 100 %
13.06.2018 04:31 12,4 C 85 % 1011,5 hPa 0,0 l/m 0,1 km/h (0 Bft) W 264 9,9 C 3,1 km/h (1 Bft) 100 %
13.06.2018 04:32 12,4 C 85 % 1011,5 hPa 0,0 l/m 0,2 km/h (0 Bft) W-NW 292 9,9 C 3,1 km/h (1 Bft) 100 %
13.06.2018 04:33 12,3 C 85 % 1011,5 hPa 0,0 l/m 2,2 km/h (1 Bft) W-NW 292 9,9 C 6,3 km/h (2 Bft) 100 %
13.06.2018 04:34 12,4 C 85 % 1011,5 hPa 0,0 l/m 1,1 km/h (1 Bft) W-NW 298 9,9 C 3,1 km/h (1 Bft) 100 %
13.06.2018 04:35 12,4 C 85 % 1011,5 hPa 0,0 l/m 1,3 km/h (1 Bft) N 354 9,9 C 3,1 km/h (1 Bft) 100 %
13.06.2018 04:36 12,4 C 85 % 1011,5 hPa 0,0 l/m 2,9 km/h (1 Bft) W 267 9,9 C 6,3 km/h (2 Bft) 100 %
13.06.2018 04:37 12,3 C 85 % 1011,5 hPa 0,0 l/m 6,5 km/h (2 Bft) W-NW 298 9,9 C 9,4 km/h (2 Bft) 100 %
13.06.2018 04:38 12,4 C 85 % 1011,5 hPa 0,0 l/m 1,7 km/h (1 Bft) W 271 9,9 C 6,3 km/h (2 Bft) 100 %
13.06.2018 04:39 12,4 C 85 % 1011,5 hPa 0,0 l/m 5,0 km/h (1 Bft) W-SW 254 9,9 C 9,4 km/h (2 Bft) 100 %
13.06.2018 04:40 12,3 C 85 % 1011,5 hPa 0,0 l/m 5,0 km/h (1 Bft) SW 228 9,9 C 9,4 km/h (2 Bft) 100 %
13.06.2018 04:41 12,3 C 85 % 1011,6 hPa 0,0 l/m 2,4 km/h (1 Bft) W-SW 238 9,9 C 6,3 km/h (2 Bft) 100 %
13.06.2018 04:42 12,4 C 85 % 1011,6 hPa 0,0 l/m 0,5 km/h (0 Bft) W-SW 242 9,9 C 3,1 km/h (1 Bft) 100 %
13.06.2018 04:43 12,3 C 85 % 1011,6 hPa 0,0 l/m 0,0 km/h (0 Bft) W-SW 242 9,9 C 0,0 km/h (0 Bft) 100 %
13.06.2018 04:44 12,3 C 85 % 1011,5 hPa 0,0 l/m 0,0 km/h (0 Bft) W-SW 245 9,9 C 0,0 km/h (0 Bft) 100 %
13.06.2018 04:45 12,3 C 85 % 1011,5 hPa 0,0 l/m 0,3 km/h (0 Bft) NW 307 9,9 C 3,1 km/h (1 Bft) 100 %
13.06.2018 04:46 12,3 C 85 % 1011,5 hPa 0,0 l/m 2,0 km/h (1 Bft) NW 316 9,9 C 3,1 km/h (1 Bft) 100 %
13.06.2018 04:47 12,3 C 85 % 1011,5 hPa 0,0 l/m 0,4 km/h (0 Bft) W-SW 242 9,9 C 3,1 km/h (1 Bft) 100 %
13.06.2018 04:48 12,3 C 85 % 1011,5 hPa 0,0 l/m 2,6 km/h (1 Bft) W-NW 293 9,9 C 6,3 km/h (2 Bft) 100 %
13.06.2018 04:49 12,3 C 85 % 1011,5 hPa 0,0 l/m 1,7 km/h (1 Bft) SW 220 9,9 C 6,3 km/h (2 Bft) 100 %
13.06.2018 04:50 12,3 C 85 % 1011,5 hPa 0,0 l/m 0,4 km/h (0 Bft) W 278 9,9 C 3,1 km/h (1 Bft) 100 %
13.06.2018 04:51 12,3 C 86 % 1011,5 hPa 0,0 l/m 0,2 km/h (0 Bft) W 278 10,0 C 3,1 km/h (1 Bft) 100 %
13.06.2018 04:52 12,3 C 85 % 1011,5 hPa 0,0 l/m 0,0 km/h (0 Bft) W 278 9,9 C 0,0 km/h (0 Bft) 100 %
13.06.2018 04:53 12,3 C 86 % 1011,5 hPa 0,0 l/m 1,6 km/h (1 Bft) NW 307 10,0 C 3,1 km/h (1 Bft) 100 %
13.06.2018 04:54 12,3 C 86 % 1011,5 hPa 0,0 l/m 0,0 km/h (0 Bft) W-SW 247 10,0 C 0,0 km/h (0 Bft) 100 %
13.06.2018 04:55 12,3 C 86 % 1011,5 hPa 0,0 l/m 0,3 km/h (0 Bft) SW 236 10,0 C 3,1 km/h (1 Bft) 100 %
13.06.2018 04:56 12,3 C 86 % 1011,6 hPa 0,0 l/m 0,1 km/h (0 Bft) SW 236 10,0 C 3,1 km/h (1 Bft) 100 %
13.06.2018 04:57 12,3 C 86 % 1011,6 hPa 0,0 l/m 0,0 km/h (0 Bft) SW 236 10,0 C 0,0 km/h (0 Bft) 100 %
13.06.2018 04:58 12,3 C 86 % 1011,6 hPa 0,0 l/m 2,4 km/h (1 Bft) W-SW 238 10,0 C 6,3 km/h (2 Bft) 100 %
13.06.2018 04:59 12,3 C 86 % 1011,6 hPa 0,0 l/m 0,3 km/h (0 Bft) W 259 10,0 C 3,1 km/h (1 Bft) 100 %
13.06.2018 05:00 12,3 C 86 % 1011,6 hPa 0,0 l/m 0,2 km/h (0 Bft) W-NW 289 10,0 C 3,1 km/h (1 Bft) 100 %
13.06.2018 05:01 12,3 C 86 % 1011,5 hPa 0,0 l/m 0,7 km/h (0 Bft) W-NW 291 10,0 C 3,1 km/h (1 Bft) 100 %
13.06.2018 05:02 12,3 C 86 % 1011,6 hPa 0,0 l/m 2,5 km/h (1 Bft) W 266 10,0 C 9,4 km/h (2 Bft) 100 %
13.06.2018 05:03 12,3 C 86 % 1011,6 hPa 0,0 l/m 2,2 km/h (1 Bft) W-NW 293 10,0 C 6,3 km/h (2 Bft) 100 %
13.06.2018 05:04 12,3 C 86 % 1011,6 hPa 0,0 l/m 1,8 km/h (1 Bft) W-NW 292 10,0 C 6,3 km/h (2 Bft) 100 %
13.06.2018 05:05 12,3 C 86 % 1011,6 hPa 0,0 l/m 1,0 km/h (0 Bft) W-SW 258 10,0 C 3,1 km/h (1 Bft) 100 %
13.06.2018 05:06 12,3 C 86 % 1011,6 hPa 0,0 l/m 0,5 km/h (0 Bft) W 271 10,0 C 3,1 km/h (1 Bft) 100 %
13.06.2018 05:07 12,3 C 86 % 1011,6 hPa 0,0 l/m 0,1 km/h (0 Bft) W-SW 252 10,0 C 3,1 km/h (1 Bft) 100 %
13.06.2018 05:08 12,3 C 86 % 1011,6 hPa 0,0 l/m 0,1 km/h (0 Bft) W-SW 252 10,0 C 3,1 km/h (1 Bft) 100 %
13.06.2018 05:09 12,3 C 86 % 1011,6 hPa 0,0 l/m 1,9 km/h (1 Bft) W 272 10,0 C 6,3 km/h (2 Bft) 100 %
13.06.2018 05:10 12,2 C 86 % 1011,6 hPa 0,0 l/m 2,8 km/h (1 Bft) W-NW 288 9,9 C 6,3 km/h (2 Bft) 100 %
13.06.2018 05:11 12,2 C 86 % 1011,7 hPa 0,0 l/m 0,9 km/h (0 Bft) W-NW 288 9,9 C 6,3 km/h (2 Bft) 100 %
13.06.2018 05:12 12,3 C 86 % 1011,8 hPa 0,0 l/m 0,1 km/h (0 Bft) W-NW 288 10,0 C 3,1 km/h (1 Bft) 100 %
13.06.2018 05:13 12,2 C 86 % 1011,7 hPa 0,0 l/m 2,1 km/h (1 Bft) W-SW 238 9,9 C 6,3 km/h (2 Bft) 100 %
13.06.2018 05:14 12,3 C 86 % 1011,8 hPa 0,0 l/m 5,1 km/h (1 Bft) W-NW 297 10,0 C 9,4 km/h (2 Bft) 100 %
13.06.2018 05:15 12,3 C 86 % 1011,8 hPa 0,0 l/m 1,4 km/h (1 Bft) W-NW 293 10,0 C 6,3 km/h (2 Bft) 100 %
13.06.2018 05:16 12,3 C 86 % 1011,8 hPa 0,0 l/m 0,7 km/h (0 Bft) W-NW 293 10,0 C 6,3 km/h (2 Bft) 100 %
13.06.2018 05:17 12,3 C 86 % 1011,8 hPa 0,0 l/m 0,0 km/h (0 Bft) W-NW 293 10,0 C 0,0 km/h (0 Bft) 100 %
13.06.2018 05:18 12,3 C 86 % 1011,8 hPa 0,0 l/m 0,3 km/h (0 Bft) W 279 10,0 C 3,1 km/h (1 Bft) 100 %
13.06.2018 05:19 12,3 C 86 % 1011,7 hPa 0,0 l/m 0,5 km/h (0 Bft) W 277 10,0 C 3,1 km/h (1 Bft) 100 %
13.06.2018 05:20 12,3 C 86 % 1011,6 hPa 0,0 l/m 0,1 km/h (0 Bft) N 4 10,0 C 3,1 km/h (1 Bft) 100 %
13.06.2018 05:21 12,3 C 86 % 1011,7 hPa 0,0 l/m 0,1 km/h (0 Bft) SO 139 10,0 C 3,1 km/h (1 Bft) 100 %
13.06.2018 05:22 12,3 C 86 % 1011,6 hPa 0,0 l/m 0,9 km/h (0 Bft) O-NO 61 10,0 C 3,1 km/h (1 Bft) 100 %
13.06.2018 05:23 12,3 C 86 % 1011,6 hPa 0,0 l/m 0,0 km/h (0 Bft) O-NO 61 10,0 C 0,0 km/h (0 Bft) 100 %
13.06.2018 05:24 12,3 C 86 % 1011,6 hPa 0,0 l/m 0,4 km/h (0 Bft) W-SW 242 10,0 C 3,1 km/h (1 Bft) 96 %
13.06.2018 05:25 12,3 C 86 % 1011,6 hPa 0,0 l/m 3,1 km/h (1 Bft) W-NW 295 10,0 C 6,3 km/h (2 Bft) 100 %
13.06.2018 05:26 12,3 C 86 % 1011,7 hPa 0,0 l/m 2,6 km/h (1 Bft) W-NW 289 10,0 C 9,4 km/h (2 Bft) 100 %
13.06.2018 05:27 12,3 C 86 % 1011,7 hPa 0,0 l/m 1,4 km/h (1 Bft) W-SW 252 10,0 C 3,1 km/h (1 Bft) 100 %
13.06.2018 05:28 12,3 C 86 % 1011,7 hPa 0,0 l/m 0,5 km/h (0 Bft) W 271 10,0 C 6,3 km/h (2 Bft) 100 %
13.06.2018 05:29 12,3 C 86 % 1011,8 hPa 0,0 l/m 2,1 km/h (1 Bft) W-NW 291 10,0 C 3,1 km/h (1 Bft) 96 %
13.06.2018 05:30 12,3 C 86 % 1011,8 hPa 0,0 l/m 0,5 km/h (0 Bft) W-NW 291 10,0 C 3,1 km/h (1 Bft) 100 %
13.06.2018 05:31 12,3 C 86 % 1011,8 hPa 0,0 l/m 0,0 km/h (0 Bft) W-NW 291 10,0 C 0,0 km/h (0 Bft) 96 %
13.06.2018 05:32 12,3 C 86 % 1011,8 hPa 0,0 l/m 0,0 km/h (0 Bft) W 268 10,0 C 0,0 km/h (0 Bft) 100 %
13.06.2018 05:33 12,3 C 86 % 1011,7 hPa 0,0 l/m 0,0 km/h (0 Bft) W 268 10,0 C 0,0 km/h (0 Bft) 96 %
13.06.2018 05:34 12,3 C 86 % 1011,7 hPa 0,0 l/m 0,0 km/h (0 Bft) W 262 10,0 C 0,0 km/h (0 Bft) 96 %
13.06.2018 05:35 12,3 C 86 % 1011,7 hPa 0,0 l/m 1,0 km/h (0 Bft) W 281 10,0 C 6,3 km/h (2 Bft) 100 %
13.06.2018 05:36 12,3 C 86 % 1011,7 hPa 0,0 l/m 0,8 km/h (0 Bft) W-NW 288 10,0 C 3,1 km/h (1 Bft) 96 %
13.06.2018 05:37 12,3 C 86 % 1011,7 hPa 0,0 l/m 0,2 km/h (0 Bft) W-NW 288 10,0 C 3,1 km/h (1 Bft) 100 %
13.06.2018 05:38 12,3 C 86 % 1011,7 hPa 0,0 l/m 0,0 km/h (0 Bft) W-NW 288 10,0 C 0,0 km/h (0 Bft) 96 %
13.06.2018 05:39 12,3 C 86 % 1011,7 hPa 0,0 l/m 0,7 km/h (0 Bft) W-NW 289 10,0 C 3,1 km/h (1 Bft) 100 %
13.06.2018 05:40 12,3 C 86 % 1011,7 hPa 0,0 l/m 0,1 km/h (0 Bft) NO 41 10,0 C 3,1 km/h (1 Bft) 96 %
13.06.2018 05:41 12,3 C 86 % 1011,7 hPa 0,0 l/m 0,7 km/h (0 Bft) W-NW 284 10,0 C 3,1 km/h (1 Bft) 100 %
13.06.2018 05:42 12,3 C 86 % 1011,7 hPa 0,0 l/m 0,4 km/h (0 Bft) SW 225 10,0 C 3,1 km/h (1 Bft) 100 %
13.06.2018 05:43 12,3 C 86 % 1011,8 hPa 0,0 l/m 0,0 km/h (0 Bft) W-SW 256 10,0 C 0,0 km/h (0 Bft) 100 %
13.06.2018 05:44 12,3 C 86 % 1011,7 hPa 0,0 l/m 0,1 km/h (0 Bft) W-SW 256 10,0 C 3,1 km/h (1 Bft) 100 %
13.06.2018 05:45 12,3 C 86 % 1011,7 hPa 0,0 l/m 0,7 km/h (0 Bft) W 276 10,0 C 3,1 km/h (1 Bft) 100 %
13.06.2018 05:46 12,3 C 86 % 1011,7 hPa 0,0 l/m 2,0 km/h (1 Bft) W-NW 284 10,0 C 3,1 km/h (1 Bft) 100 %
13.06.2018 05:47 12,3 C 86 % 1011,7 hPa 0,0 l/m 0,0 km/h (0 Bft) W-NW 284 10,0 C 0,0 km/h (0 Bft) 100 %
13.06.2018 05:48 12,3 C 86 % 1011,7 hPa 0,0 l/m 0,0 km/h (0 Bft) W-NW 284 10,0 C 0,0 km/h (0 Bft) 100 %
13.06.2018 05:49 12,3 C 86 % 1011,8 hPa 0,0 l/m 0,1 km/h (0 Bft) W-NW 284 10,0 C 3,1 km/h (1 Bft) 100 %
13.06.2018 05:50 12,3 C 86 % 1011,7 hPa 0,0 l/m 0,0 km/h (0 Bft) W-NW 284 10,0 C 0,0 km/h (0 Bft) 100 %
13.06.2018 05:51 12,3 C 86 % 1011,7 hPa 0,0 l/m 0,0 km/h (0 Bft) W-NW 284 10,0 C 0,0 km/h (0 Bft) 100 %
13.06.2018 05:52 12,3 C 86 % 1011,7 hPa 0,0 l/m 0,0 km/h (0 Bft) W-NW 283 10,0 C 0,0 km/h (0 Bft) 100 %
13.06.2018 05:53 12,3 C 86 % 1011,7 hPa 0,0 l/m 0,0 km/h (0 Bft) W 280 10,0 C 0,0 km/h (0 Bft) 100 %
13.06.2018 05:54 12,3 C 86 % 1011,7 hPa 0,0 l/m 0,0 km/h (0 Bft) W 280 10,0 C 0,0 km/h (0 Bft) 100 %
13.06.2018 05:55 12,3 C 86 % 1011,7 hPa 0,0 l/m 0,0 km/h (0 Bft) W 280 10,0 C 0,0 km/h (0 Bft) 100 %
13.06.2018 05:56 12,3 C 87 % 1011,7 hPa 0,0 l/m 0,0 km/h (0 Bft) W 278 10,2 C 0,0 km/h (0 Bft) 100 %
13.06.2018 05:57 12,3 C 87 % 1011,7 hPa 0,0 l/m 0,0 km/h (0 Bft) W 278 10,2 C 0,0 km/h (0 Bft) 100 %
13.06.2018 05:58 12,3 C 87 % 1011,7 hPa 0,0 l/m 0,0 km/h (0 Bft) W 278 10,2 C 0,0 km/h (0 Bft) 100 %
13.06.2018 05:59 12,3 C 87 % 1011,7 hPa 0,0 l/m 0,0 km/h (0 Bft) W 278 10,2 C 0,0 km/h (0 Bft) 100 %
13.06.2018 06:00 12,3 C 87 % 1011,7 hPa 0,0 l/m 1,0 km/h (0 Bft) W-SW 256 10,2 C 3,1 km/h (1 Bft) 100 %
13.06.2018 06:01 12,3 C 87 % 1011,7 hPa 0,0 l/m 0,0 km/h (0 Bft) W-SW 257 10,2 C 0,0 km/h (0 Bft) 100 %
13.06.2018 06:02 12,3 C 87 % 1011,8 hPa 0,0 l/m 1,8 km/h (1 Bft) W-SW 254 10,2 C 3,1 km/h (1 Bft) 100 %
13.06.2018 06:03 12,3 C 87 % 1011,8 hPa 0,0 l/m 3,6 km/h (1 Bft) NW 304 10,2 C 9,4 km/h (2 Bft) 100 %
13.06.2018 06:04 12,3 C 87 % 1011,8 hPa 0,0 l/m 0,0 km/h (0 Bft) NW 304 10,2 C 0,0 km/h (0 Bft) 100 %
13.06.2018 06:05 12,3 C 87 % 1011,8 hPa 0,0 l/m 2,0 km/h (1 Bft) W 262 10,2 C 3,1 km/h (1 Bft) 100 %
13.06.2018 06:06 12,3 C 87 % 1011,8 hPa 0,0 l/m 0,4 km/h (0 Bft) W 264 10,2 C 3,1 km/h (1 Bft) 100 %
13.06.2018 06:07 12,3 C 87 % 1011,8 hPa 0,0 l/m 0,3 km/h (0 Bft) N-NW 333 10,2 C 3,1 km/h (1 Bft) 100 %
13.06.2018 06:08 12,3 C 87 % 1011,8 hPa 0,0 l/m 0,3 km/h (0 Bft) W 267 10,2 C 3,1 km/h (1 Bft) 100 %
13.06.2018 06:09 12,3 C 87 % 1011,8 hPa 0,0 l/m 1,9 km/h (1 Bft) NW 314 10,2 C 9,4 km/h (2 Bft) 100 %
13.06.2018 06:10 12,3 C 86 % 1011,8 hPa 0,0 l/m 2,5 km/h (1 Bft) W-NW 285 10,0 C 9,4 km/h (2 Bft) 100 %
13.06.2018 06:11 12,3 C 86 % 1011,8 hPa 0,0 l/m 3,6 km/h (1 Bft) W 277 10,0 C 9,4 km/h (2 Bft) 100 %
13.06.2018 06:12 12,3 C 86 % 1011,8 hPa 0,0 l/m 0,5 km/h (0 Bft) W-NW 288 10,0 C 3,1 km/h (1 Bft) 100 %
13.06.2018 06:13 12,3 C 86 % 1011,8 hPa 0,0 l/m 0,4 km/h (0 Bft) O-NO 64 10,0 C 3,1 km/h (1 Bft) 100 %
13.06.2018 06:14 12,3 C 86 % 1011,8 hPa 0,0 l/m 5,2 km/h (1 Bft) N-NW 337 10,0 C 15,7 km/h (3 Bft) 100 %
13.06.2018 06:15 12,3 C 85 % 1011,8 hPa 0,0 l/m 7,9 km/h (2 Bft) W-NW 293 9,9 C 12,6 km/h (3 Bft) 100 %
13.06.2018 06:16 12,3 C 85 % 1011,8 hPa 0,0 l/m 2,0 km/h (1 Bft) O-NO 60 9,9 C 3,1 km/h (1 Bft) 100 %
13.06.2018 06:17 12,3 C 85 % 1011,8 hPa 0,0 l/m 0,1 km/h (0 Bft) O 83 9,9 C 3,1 km/h (1 Bft) 100 %
13.06.2018 06:18 12,3 C 85 % 1011,7 hPa 0,0 l/m 0,3 km/h (0 Bft) NO 40 9,9 C 3,1 km/h (1 Bft) 100 %
13.06.2018 06:19 12,4 C 85 % 1011,7 hPa 0,0 l/m 1,8 km/h (1 Bft) W 280 9,9 C 6,3 km/h (2 Bft) 100 %
13.06.2018 06:20 12,4 C 85 % 1011,7 hPa 0,0 l/m 4,1 km/h (1 Bft) W 273 9,9 C 9,4 km/h (2 Bft) 100 %
13.06.2018 06:21 12,4 C 85 % 1011,7 hPa 0,0 l/m 2,7 km/h (1 Bft) W 266 9,9 C 6,3 km/h (2 Bft) 100 %
13.06.2018 06:22 12,4 C 85 % 1011,8 hPa 0,0 l/m 2,7 km/h (1 Bft) W-NW 293 9,9 C 6,3 km/h (2 Bft) 100 %
13.06.2018 06:23 12,4 C 85 % 1011,8 hPa 0,0 l/m 0,7 km/h (0 Bft) NW 320 9,9 C 3,1 km/h (1 Bft) 100 %
13.06.2018 06:24 12,4 C 85 % 1011,8 hPa 0,0 l/m 4,2 km/h (1 Bft) W-NW 286 9,9 C 6,3 km/h (2 Bft) 100 %
13.06.2018 06:25 12,4 C 84 % 1011,8 hPa 0,0 l/m 4,6 km/h (1 Bft) W-NW 288 9,8 C 12,6 km/h (3 Bft) 100 %
13.06.2018 06:26 12,4 C 84 % 1011,8 hPa 0,0 l/m 3,5 km/h (1 Bft) O 80 9,8 C 9,4 km/h (2 Bft) 100 %
13.06.2018 06:27 12,4 C 84 % 1011,8 hPa 0,0 l/m 0,1 km/h (0 Bft) O 94 9,8 C 3,1 km/h (1 Bft) 100 %
13.06.2018 06:28 12,4 C 84 % 1011,8 hPa 0,0 l/m 1,1 km/h (1 Bft) SW 224 9,8 C 3,1 km/h (1 Bft) 100 %
13.06.2018 06:29 12,4 C 84 % 1011,8 hPa 0,0 l/m 6,3 km/h (2 Bft) W-NW 285 9,8 C 12,6 km/h (3 Bft) 100 %
13.06.2018 06:30 12,4 C 84 % 1011,8 hPa 0,0 l/m 4,6 km/h (1 Bft) N 2 9,8 C 12,6 km/h (3 Bft) 100 %
13.06.2018 06:31 12,4 C 84 % 1011,8 hPa 0,0 l/m 0,6 km/h (0 Bft) W-SW 246 9,8 C 3,1 km/h (1 Bft) 100 %
13.06.2018 06:32 12,4 C 84 % 1011,8 hPa 0,0 l/m 4,0 km/h (1 Bft) S 182 9,8 C 12,6 km/h (3 Bft) 100 %
13.06.2018 06:33 12,4 C 83 % 1011,8 hPa 0,0 l/m 6,6 km/h (2 Bft) W-SW 240 9,6 C 15,7 km/h (3 Bft) 96 %
13.06.2018 06:34 12,4 C 83 % 1011,8 hPa 0,0 l/m 3,9 km/h (1 Bft) NW 307 9,6 C 9,4 km/h (2 Bft) 100 %
13.06.2018 06:35 12,4 C 83 % 1011,8 hPa 0,0 l/m 1,4 km/h (1 Bft) W-SW 238 9,6 C 6,3 km/h (2 Bft) 100 %
13.06.2018 06:36 12,4 C 83 % 1011,9 hPa 0,0 l/m 1,2 km/h (1 Bft) N-NW 333 9,6 C 6,3 km/h (2 Bft) 100 %
13.06.2018 06:37 12,4 C 83 % 1011,8 hPa 0,0 l/m 6,1 km/h (2 Bft) W-NW 302 9,6 C 12,6 km/h (3 Bft) 100 %
13.06.2018 06:38 12,4 C 83 % 1011,9 hPa 0,0 l/m 4,6 km/h (1 Bft) W-SW 239 9,6 C 9,4 km/h (2 Bft) 96 %
13.06.2018 06:39 12,4 C 83 % 1011,9 hPa 0,0 l/m 3,7 km/h (1 Bft) W 270 9,6 C 12,6 km/h (3 Bft) 96 %
13.06.2018 06:40 12,4 C 83 % 1011,9 hPa 0,0 l/m 4,6 km/h (1 Bft) W-NW 295 9,6 C 9,4 km/h (2 Bft) 100 %
13.06.2018 06:41 12,4 C 83 % 1011,9 hPa 0,0 l/m 3,7 km/h (1 Bft) W-SW 250 9,6 C 6,3 km/h (2 Bft) 97 %
13.06.2018 06:42 12,4 C 83 % 1011,9 hPa 0,0 l/m 7,7 km/h (2 Bft) W-NW 295 9,6 C 15,7 km/h (3 Bft) 100 %
13.06.2018 06:43 12,4 C 83 % 1011,9 hPa 0,0 l/m 4,3 km/h (1 Bft) W-SW 254 9,6 C 9,4 km/h (2 Bft) 97 %
13.06.2018 06:44 12,4 C 83 % 1011,9 hPa 0,0 l/m 3,1 km/h (1 Bft) W-NW 283 9,6 C 9,4 km/h (2 Bft) 100 %
13.06.2018 06:45 12,4 C 84 % 1011,9 hPa 0,0 l/m 2,5 km/h (1 Bft) W-NW 284 9,8 C 3,1 km/h (1 Bft) 96 %
13.06.2018 06:46 12,4 C 84 % 1011,9 hPa 0,0 l/m 0,7 km/h (0 Bft) SW 233 9,8 C 3,1 km/h (1 Bft) 96 %
13.06.2018 06:47 12,4 C 84 % 1011,9 hPa 0,0 l/m 3,3 km/h (1 Bft) W 259 9,8 C 6,3 km/h (2 Bft) 100 %
13.06.2018 06:48 12,4 C 84 % 1011,9 hPa 0,0 l/m 4,1 km/h (1 Bft) O-NO 64 9,8 C 9,4 km/h (2 Bft) 96 %
13.06.2018 06:49 12,4 C 84 % 1011,9 hPa 0,0 l/m 3,1 km/h (1 Bft) W 279 9,8 C 9,4 km/h (2 Bft) 100 %
13.06.2018 06:50 12,4 C 84 % 1011,8 hPa 0,0 l/m 5,8 km/h (2 Bft) W 279 9,8 C 12,6 km/h (3 Bft) 96 %
13.06.2018 06:51 12,4 C 83 % 1011,8 hPa 0,0 l/m 4,0 km/h (1 Bft) SW 219 9,6 C 9,4 km/h (2 Bft) 100 %
13.06.2018 06:52 12,4 C 84 % 1011,9 hPa 0,0 l/m 0,0 km/h (0 Bft) SW 219 9,8 C 0,0 km/h (0 Bft) 100 %
13.06.2018 06:53 12,4 C 84 % 1011,9 hPa 0,0 l/m 0,4 km/h (0 Bft) NW 308 9,8 C 6,3 km/h (2 Bft) 100 %
13.06.2018 06:54 12,4 C 84 % 1011,9 hPa 0,0 l/m 2,4 km/h (1 Bft) SW 235 9,8 C 6,3 km/h (2 Bft) 100 %
13.06.2018 06:55 12,4 C 84 % 1011,9 hPa 0,0 l/m 1,0 km/h (0 Bft) W-SW 250 9,8 C 6,3 km/h (2 Bft) 100 %
13.06.2018 06:56 12,4 C 84 % 1011,9 hPa 0,0 l/m 1,5 km/h (1 Bft) NO 34 9,8 C 3,1 km/h (1 Bft) 100 %
13.06.2018 06:57 12,4 C 84 % 1011,8 hPa 0,0 l/m 0,6 km/h (0 Bft) NO 41 9,8 C 3,1 km/h (1 Bft) 100 %
13.06.2018 06:58 12,4 C 84 % 1011,8 hPa 0,0 l/m 2,4 km/h (1 Bft) W 278 9,8 C 6,3 km/h (2 Bft) 99 %
13.06.2018 06:59 12,5 C 84 % 1011,9 hPa 0,0 l/m 1,6 km/h (1 Bft) W 275 9,9 C 6,3 km/h (2 Bft) 99 %
13.06.2018 07:00 12,5 C 84 % 1011,9 hPa 0,0 l/m 0,7 km/h (0 Bft) O-NO 58 9,9 C 3,1 km/h (1 Bft) 100 %
13.06.2018 07:01 12,5 C 84 % 1011,9 hPa 0,0 l/m 1,7 km/h (1 Bft) SW 233 9,9 C 6,3 km/h (2 Bft) 100 %
13.06.2018 07:02 12,5 C 83 % 1012,0 hPa 0,0 l/m 8,4 km/h (2 Bft) W-SW 256 9,7 C 15,7 km/h (3 Bft) 94 %
13.06.2018 07:03 12,5 C 83 % 1012,0 hPa 0,0 l/m 8,7 km/h (2 Bft) W-SW 241 9,7 C 18,8 km/h (3 Bft) 96 %
13.06.2018 07:04 12,5 C 83 % 1012,0 hPa 0,0 l/m 2,2 km/h (1 Bft) W-NW 286 9,7 C 6,3 km/h (2 Bft) 100 %
13.06.2018 07:05 12,5 C 83 % 1012,0 hPa 0,0 l/m 1,9 km/h (1 Bft) NW 309 9,7 C 6,3 km/h (2 Bft) 100 %
13.06.2018 07:06 12,5 C 83 % 1012,0 hPa 0,0 l/m 5,6 km/h (1 Bft) N-NW 328 9,7 C 12,6 km/h (3 Bft) 97 %
13.06.2018 07:07 12,5 C 83 % 1012,0 hPa 0,0 l/m 3,8 km/h (1 Bft) W 271 9,7 C 9,4 km/h (2 Bft) 96 %
13.06.2018 07:08 12,5 C 83 % 1012,1 hPa 0,0 l/m 3,8 km/h (1 Bft) O 90 9,7 C 9,4 km/h (2 Bft) 100 %
13.06.2018 07:09 12,5 C 83 % 1012,1 hPa 0,0 l/m 4,1 km/h (1 Bft) W-SW 240 9,7 C 12,6 km/h (3 Bft) 100 %
13.06.2018 07:10 12,5 C 83 % 1012,0 hPa 0,0 l/m 4,3 km/h (1 Bft) W 280 9,7 C 12,6 km/h (3 Bft) 88 %
13.06.2018 07:11 12,5 C 83 % 1012,1 hPa 0,0 l/m 7,2 km/h (2 Bft) W-NW 300 9,7 C 15,7 km/h (3 Bft) 100 %
13.06.2018 07:12 12,5 C 83 % 1012,1 hPa 0,0 l/m 3,0 km/h (1 Bft) W-NW 290 9,7 C 6,3 km/h (2 Bft) 96 %
13.06.2018 07:13 12,5 C 83 % 1012,1 hPa 0,0 l/m 3,0 km/h (1 Bft) SW 221 9,7 C 6,3 km/h (2 Bft) 100 %
13.06.2018 07:14 12,5 C 83 % 1012,2 hPa 0,0 l/m 0,0 km/h (0 Bft) SW 227 9,7 C 0,0 km/h (0 Bft) 100 %
13.06.2018 07:15 12,5 C 83 % 1012,1 hPa 0,0 l/m 1,6 km/h (1 Bft) NO 46 9,7 C 6,3 km/h (2 Bft) 100 %
13.06.2018 07:16 12,5 C 83 % 1012,2 hPa 0,0 l/m 6,5 km/h (2 Bft) W-NW 291 9,7 C 12,6 km/h (3 Bft) 100 %
13.06.2018 07:17 12,5 C 83 % 1012,2 hPa 0,0 l/m 1,6 km/h (1 Bft) S-SW 210 9,7 C 6,3 km/h (2 Bft) 100 %
13.06.2018 07:18 12,5 C 83 % 1012,2 hPa 0,0 l/m 6,4 km/h (2 Bft) W 273 9,7 C 18,8 km/h (3 Bft) 96 %
13.06.2018 07:19 12,5 C 83 % 1012,2 hPa 0,0 l/m 1,3 km/h (1 Bft) W-NW 282 9,7 C 6,3 km/h (2 Bft) 100 %
13.06.2018 07:20 12,5 C 82 % 1012,2 hPa 0,0 l/m 7,8 km/h (2 Bft) W-SW 241 9,5 C 22,0 km/h (4 Bft) 100 %
13.06.2018 07:21 12,5 C 82 % 1012,1 hPa 0,0 l/m 4,4 km/h (1 Bft) W-NW 284 9,5 C 9,4 km/h (2 Bft) 100 %
13.06.2018 07:22 12,5 C 82 % 1012,2 hPa 0,0 l/m 2,2 km/h (1 Bft) W-SW 254 9,5 C 9,4 km/h (2 Bft) 96 %
13.06.2018 07:23 12,5 C 83 % 1012,2 hPa 0,0 l/m 0,0 km/h (0 Bft) W-SW 258 9,7 C 0,0 km/h (0 Bft) 100 %
13.06.2018 07:24 12,5 C 83 % 1012,2 hPa 0,0 l/m 4,7 km/h (1 Bft) SW 229 9,7 C 12,6 km/h (3 Bft) 92 %
13.06.2018 07:25 12,5 C 83 % 1012,2 hPa 0,0 l/m 0,3 km/h (0 Bft) NW 307 9,7 C 3,1 km/h (1 Bft) 100 %
13.06.2018 07:26 12,5 C 83 % 1012,2 hPa 0,0 l/m 1,7 km/h (1 Bft) SW 221 9,7 C 6,3 km/h (2 Bft) 100 %
13.06.2018 07:27 12,6 C 83 % 1012,2 hPa 0,0 l/m 1,1 km/h (1 Bft) SW 229 9,8 C 3,1 km/h (1 Bft) 100 %
13.06.2018 07:28 12,6 C 82 % 1012,2 hPa 0,0 l/m 2,8 km/h (1 Bft) N-NW 340 9,6 C 9,4 km/h (2 Bft) 100 %
13.06.2018 07:29 12,6 C 82 % 1012,2 hPa 0,0 l/m 0,4 km/h (0 Bft) N 7 9,6 C 3,1 km/h (1 Bft) 96 %
13.06.2018 07:30 12,6 C 81 % 1012,2 hPa 0,0 l/m 4,7 km/h (1 Bft) W-NW 295 9,4 C 9,4 km/h (2 Bft) 100 %
13.06.2018 07:31 12,6 C 81 % 1012,2 hPa 0,0 l/m 5,5 km/h (1 Bft) W 274 9,4 C 15,7 km/h (3 Bft) 100 %
13.06.2018 07:32 12,6 C 81 % 1012,2 hPa 0,0 l/m 2,7 km/h (1 Bft) W-NW 289 9,4 C 6,3 km/h (2 Bft) 100 %
13.06.2018 07:33 12,6 C 81 % 1012,2 hPa 0,0 l/m 2,0 km/h (1 Bft) W 262 9,4 C 6,3 km/h (2 Bft) 100 %
13.06.2018 07:34 12,6 C 80 % 1012,2 hPa 0,0 l/m 4,1 km/h (1 Bft) W-NW 297 9,2 C 12,6 km/h (3 Bft) 100 %
13.06.2018 07:35 12,6 C 80 % 1012,2 hPa 0,0 l/m 9,0 km/h (2 Bft) O 91 9,2 C 15,7 km/h (3 Bft) 82 %
13.06.2018 07:36 12,6 C 79 % 1012,2 hPa 0,0 l/m 3,3 km/h (1 Bft) W-SW 253 9,1 C 6,3 km/h (2 Bft) 100 %
13.06.2018 07:37 12,6 C 79 % 1012,2 hPa 0,0 l/m 2,2 km/h (1 Bft) O-NO 67 9,1 C 6,3 km/h (2 Bft) 100 %
13.06.2018 07:38 12,6 C 79 % 1012,2 hPa 0,0 l/m 4,4 km/h (1 Bft) W 276 9,1 C 15,7 km/h (3 Bft) 96 %
13.06.2018 07:39 12,6 C 79 % 1012,2 hPa 0,0 l/m 6,8 km/h (2 Bft) W-NW 291 9,1 C 12,6 km/h (3 Bft) 96 %
13.06.2018 07:40 12,6 C 79 % 1012,2 hPa 0,0 l/m 8,3 km/h (2 Bft) W-NW 285 9,1 C 18,8 km/h (3 Bft) 100 %
13.06.2018 07:41 12,6 C 79 % 1012,3 hPa 0,0 l/m 5,2 km/h (1 Bft) W-NW 300 9,1 C 12,6 km/h (3 Bft) 100 %
13.06.2018 07:42 12,6 C 79 % 1012,2 hPa 0,0 l/m 6,1 km/h (2 Bft) NW 311 9,1 C 15,7 km/h (3 Bft) 96 %
13.06.2018 07:43 12,6 C 79 % 1012,2 hPa 0,0 l/m 2,8 km/h (1 Bft) W 272 9,1 C 9,4 km/h (2 Bft) 100 %
13.06.2018 07:44 12,6 C 79 % 1012,3 hPa 0,0 l/m 1,6 km/h (1 Bft) W-SW 257 9,1 C 6,3 km/h (2 Bft) 94 %
13.06.2018 07:45 12,6 C 79 % 1012,3 hPa 0,0 l/m 6,1 km/h (2 Bft) W-NW 302 9,1 C 18,8 km/h (3 Bft) 99 %
13.06.2018 07:46 12,6 C 79 % 1012,3 hPa 0,0 l/m 2,4 km/h (1 Bft) N-NO 24 9,1 C 6,3 km/h (2 Bft) 100 %
13.06.2018 07:47 12,6 C 79 % 1012,3 hPa 0,0 l/m 1,9 km/h (1 Bft) NW 316 9,1 C 6,3 km/h (2 Bft) 93 %
13.06.2018 07:48 12,6 C 79 % 1012,3 hPa 0,0 l/m 2,0 km/h (1 Bft) W 265 9,1 C 15,7 km/h (3 Bft) 96 %
13.06.2018 07:49 12,6 C 79 % 1012,3 hPa 0,0 l/m 5,5 km/h (1 Bft) S 171 9,1 C 15,7 km/h (3 Bft) 96 %
13.06.2018 07:50 12,6 C 79 % 1012,3 hPa 0,0 l/m 3,5 km/h (1 Bft) W-NW 284 9,1 C 9,4 km/h (2 Bft) 100 %
13.06.2018 07:51 12,6 C 79 % 1012,3 hPa 0,0 l/m 3,4 km/h (1 Bft) W-SW 252 9,1 C 9,4 km/h (2 Bft) 96 %
13.06.2018 07:52 12,7 C 79 % 1012,3 hPa 0,0 l/m 2,2 km/h (1 Bft) S-SW 198 9,2 C 6,3 km/h (2 Bft) 96 %
13.06.2018 07:53 12,7 C 79 % 1012,3 hPa 0,0 l/m 1,6 km/h (1 Bft) NW 318 9,2 C 6,3 km/h (2 Bft) 100 %
13.06.2018 07:54 12,7 C 79 % 1012,4 hPa 0,0 l/m 3,5 km/h (1 Bft) W 263 9,2 C 6,3 km/h (2 Bft) 100 %
13.06.2018 07:55 12,7 C 78 % 1012,3 hPa 0,0 l/m 6,6 km/h (2 Bft) W-NW 298 9,0 C 12,6 km/h (3 Bft) 97 %
13.06.2018 07:56 12,7 C 78 % 1012,3 hPa 0,0 l/m 4,4 km/h (1 Bft) W-NW 302 9,0 C 12,6 km/h (3 Bft) 96 %
13.06.2018 07:57 12,7 C 78 % 1012,3 hPa 0,0 l/m 1,1 km/h (1 Bft) W 267 9,0 C 6,3 km/h (2 Bft) 100 %
13.06.2018 07:58 12,7 C 78 % 1012,3 hPa 0,0 l/m 4,2 km/h (1 Bft) W-NW 293 9,0 C 9,4 km/h (2 Bft) 96 %
13.06.2018 07:59 12,7 C 78 % 1012,3 hPa 0,0 l/m 0,0 km/h (0 Bft) W 268 9,0 C 0,0 km/h (0 Bft) 100 %
13.06.2018 08:00 12,7 C 78 % 1012,3 hPa 0,0 l/m 0,0 km/h (0 Bft) S-SW 195 9,0 C 0,0 km/h (0 Bft) 100 %
13.06.2018 08:01 12,7 C 78 % 1012,3 hPa 0,0 l/m 0,2 km/h (0 Bft) NO 53 9,0 C 3,1 km/h (1 Bft) 100 %
13.06.2018 08:02 12,7 C 78 % 1012,3 hPa 0,0 l/m 1,3 km/h (1 Bft) W 262 9,0 C 3,1 km/h (1 Bft) 100 %
13.06.2018 08:03 12,7 C 78 % 1012,3 hPa 0,0 l/m 2,2 km/h (1 Bft) W-NW 289 9,0 C 6,3 km/h (2 Bft) 100 %
13.06.2018 08:04 12,7 C 78 % 1012,4 hPa 0,0 l/m 0,0 km/h (0 Bft) W-SW 244 9,0 C 0,0 km/h (0 Bft) 100 %
13.06.2018 08:05 12,8 C 78 % 1012,4 hPa 0,0 l/m 1,4 km/h (1 Bft) W-NW 297 9,1 C 3,1 km/h (1 Bft) 100 %
13.06.2018 08:06 12,8 C 78 % 1012,3 hPa 0,0 l/m 0,6 km/h (0 Bft) W-NW 288 9,1 C 3,1 km/h (1 Bft) 100 %
13.06.2018 08:07 12,8 C 78 % 1012,4 hPa 0,0 l/m 5,0 km/h (1 Bft) O 96 9,1 C 6,3 km/h (2 Bft) 100 %
13.06.2018 08:08 12,8 C 78 % 1012,4 hPa 0,0 l/m 6,6 km/h (2 Bft) NW 304 9,1 C 12,6 km/h (3 Bft) 100 %
13.06.2018 08:09 12,8 C 78 % 1012,4 hPa 0,0 l/m 3,8 km/h (1 Bft) N 8 9,1 C 9,4 km/h (2 Bft) 100 %
13.06.2018 08:10 12,8 C 78 % 1012,5 hPa 0,0 l/m 2,0 km/h (1 Bft) W-NW 300 9,1 C 6,3 km/h (2 Bft) 100 %
13.06.2018 08:11 12,8 C 78 % 1012,5 hPa 0,0 l/m 1,6 km/h (1 Bft) NW 321 9,1 C 6,3 km/h (2 Bft) 100 %
13.06.2018 08:12 12,8 C 78 % 1012,5 hPa 0,0 l/m 1,6 km/h (1 Bft) NO 38 9,1 C 6,3 km/h (2 Bft) 100 %
13.06.2018 08:13 12,8 C 78 % 1012,5 hPa 0,0 l/m 4,4 km/h (1 Bft) W 275 9,1 C 18,8 km/h (3 Bft) 100 %
13.06.2018 08:14 12,9 C 78 % 1012,6 hPa 0,0 l/m 3,9 km/h (1 Bft) W-NW 294 9,2 C 12,6 km/h (3 Bft) 100 %
13.06.2018 08:15 12,9 C 77 % 1012,6 hPa 0,0 l/m 12,0 km/h (2 Bft) NO 49 9,0 C 18,8 km/h (3 Bft) 100 %
13.06.2018 08:16 12,9 C 77 % 1012,6 hPa 0,0 l/m 0,9 km/h (0 Bft) S-SO 150 9,0 C 6,3 km/h (2 Bft) 100 %
13.06.2018 08:17 12,9 C 77 % 1012,6 hPa 0,0 l/m 2,1 km/h (1 Bft) W 266 9,0 C 9,4 km/h (2 Bft) 92 %
13.06.2018 08:18 12,9 C 77 % 1012,6 hPa 0,0 l/m 4,6 km/h (1 Bft) W-NW 293 9,0 C 9,4 km/h (2 Bft) 100 %
13.06.2018 08:19 12,9 C 77 % 1012,6 hPa 0,0 l/m 3,9 km/h (1 Bft) W 278 9,0 C 9,4 km/h (2 Bft) 100 %
13.06.2018 08:20 12,9 C 77 % 1012,6 hPa 0,0 l/m 0,9 km/h (0 Bft) NO 39 9,0 C 6,3 km/h (2 Bft) 100 %
13.06.2018 08:21 13,0 C 78 % 1012,6 hPa 0,0 l/m 0,1 km/h (0 Bft) W-NW 282 9,3 C 3,1 km/h (1 Bft) 100 %
13.06.2018 08:22 13,0 C 78 % 1012,5 hPa 0,0 l/m 2,5 km/h (1 Bft) S-SO 160 9,3 C 3,1 km/h (1 Bft) 100 %
13.06.2018 08:23 13,0 C 77 % 1012,6 hPa 0,0 l/m 3,5 km/h (1 Bft) NO 51 9,1 C 12,6 km/h (3 Bft) 100 %
13.06.2018 08:24 13,1 C 77 % 1012,6 hPa 0,0 l/m 2,6 km/h (1 Bft) W 281 9,2 C 6,3 km/h (2 Bft) 100 %
13.06.2018 08:25 13,1 C 77 % 1012,6 hPa 0,0 l/m 4,3 km/h (1 Bft) NW 306 9,2 C 9,4 km/h (2 Bft) 100 %
13.06.2018 08:26 13,1 C 77 % 1012,6 hPa 0,0 l/m 5,2 km/h (1 Bft) W-NW 302 9,2 C 15,7 km/h (3 Bft) 100 %
13.06.2018 08:27 13,1 C 77 % 1012,6 hPa 0,0 l/m 1,6 km/h (1 Bft) W 280 9,2 C 6,3 km/h (2 Bft) 100 %
13.06.2018 08:28 13,1 C 78 % 1012,6 hPa 0,0 l/m 4,4 km/h (1 Bft) S-SO 151 9,4 C 9,4 km/h (2 Bft) 100 %
13.06.2018 08:29 13,1 C 78 % 1012,6 hPa 0,0 l/m 0,0 km/h (0 Bft) S-SO 153 9,4 C 0,0 km/h (0 Bft) 100 %
13.06.2018 08:30 13,1 C 78 % 1012,6 hPa 0,0 l/m 1,8 km/h (1 Bft) W-NW 285 9,4 C 6,3 km/h (2 Bft) 100 %
13.06.2018 08:31 13,1 C 78 % 1012,6 hPa 0,0 l/m 5,4 km/h (1 Bft) W-SW 253 9,4 C 9,4 km/h (2 Bft) 100 %
13.06.2018 08:32 13,1 C 77 % 1012,6 hPa 0,0 l/m 5,8 km/h (2 Bft) W 269 9,2 C 12,6 km/h (3 Bft) 100 %
13.06.2018 08:39 13,2 C 78 % 1012,7 hPa 0,0 l/m 2,9 km/h (1 Bft) W-SW 245 9,4 C 6,3 km/h (2 Bft) 92 %
13.06.2018 08:40 13,2 C 78 % 1012,6 hPa 0,0 l/m 6,3 km/h (2 Bft) W-NW 299 9,4 C 9,4 km/h (2 Bft) 100 %
13.06.2018 08:41 13,2 C 78 % 1012,7 hPa 0,0 l/m 3,3 km/h (1 Bft) N-NO 18 9,4 C 9,4 km/h (2 Bft) 100 %
13.06.2018 08:42 13,2 C 77 % 1012,7 hPa 0,0 l/m 4,7 km/h (1 Bft) NW 306 9,3 C 9,4 km/h (2 Bft) 100 %
13.06.2018 08:43 13,2 C 78 % 1012,7 hPa 0,0 l/m 6,6 km/h (2 Bft) S-SW 200 9,4 C 15,7 km/h (3 Bft) 100 %
13.06.2018 08:44 13,2 C 78 % 1012,8 hPa 0,0 l/m 2,1 km/h (1 Bft) N-NO 14 9,4 C 9,4 km/h (2 Bft) 100 %
13.06.2018 08:45 13,2 C 78 % 1012,7 hPa 0,0 l/m 1,7 km/h (1 Bft) N-NW 340 9,4 C 6,3 km/h (2 Bft) 100 %
13.06.2018 08:46 13,2 C 78 % 1012,7 hPa 0,0 l/m 1,0 km/h (0 Bft) O-NO 72 9,4 C 6,3 km/h (2 Bft) 100 %
13.06.2018 08:47 13,2 C 77 % 1012,7 hPa 0,0 l/m 9,2 km/h (2 Bft) W-SW 243 9,3 C 18,8 km/h (3 Bft) 100 %
13.06.2018 08:48 13,2 C 76 % 1012,7 hPa 0,0 l/m 7,2 km/h (2 Bft) W-SW 245 9,1 C 15,7 km/h (3 Bft) 100 %
13.06.2018 08:49 13,2 C 76 % 1012,7 hPa 0,0 l/m 5,5 km/h (1 Bft) W 281 9,1 C 15,7 km/h (3 Bft) 96 %
13.06.2018 08:50 13,2 C 76 % 1012,7 hPa 0,0 l/m 2,4 km/h (1 Bft) W 274 9,1 C 6,3 km/h (2 Bft) 100 %
13.06.2018 08:51 13,2 C 76 % 1012,7 hPa 0,0 l/m 3,8 km/h (1 Bft) W-NW 295 9,1 C 12,6 km/h (3 Bft) 96 %
13.06.2018 08:52 13,1 C 76 % 1012,7 hPa 0,0 l/m 6,7 km/h (2 Bft) SW 217 9,0 C 12,6 km/h (3 Bft) 96 %
13.06.2018 08:53 13,1 C 76 % 1012,7 hPa 0,0 l/m 3,0 km/h (1 Bft) W-SW 245 9,0 C 6,3 km/h (2 Bft) 100 %
13.06.2018 08:54 13,1 C 77 % 1012,6 hPa 0,0 l/m 0,4 km/h (0 Bft) NW 314 9,2 C 3,1 km/h (1 Bft) 100 %
13.06.2018 08:55 13,2 C 77 % 1012,6 hPa 0,0 l/m 5,3 km/h (1 Bft) W-NW 286 9,3 C 12,6 km/h (3 Bft) 96 %
13.06.2018 08:56 13,2 C 76 % 1012,7 hPa 0,0 l/m 5,9 km/h (2 Bft) W-NW 290 9,1 C 12,6 km/h (3 Bft) 100 %
13.06.2018 08:57 13,1 C 76 % 1012,6 hPa 0,0 l/m 8,0 km/h (2 Bft) W-NW 302 9,0 C 12,6 km/h (3 Bft) 96 %
13.06.2018 08:58 13,1 C 76 % 1012,7 hPa 0,0 l/m 1,7 km/h (1 Bft) S-SW 212 9,0 C 6,3 km/h (2 Bft) 96 %
13.06.2018 08:59 13,1 C 77 % 1012,7 hPa 0,0 l/m 0,5 km/h (0 Bft) W-SW 255 9,2 C 3,1 km/h (1 Bft) 100 %
13.06.2018 09:00 13,1 C 77 % 1012,7 hPa 0,0 l/m 0,8 km/h (0 Bft) SW 231 9,2 C 3,1 km/h (1 Bft) 96 %
13.06.2018 09:01 13,1 C 77 % 1012,7 hPa 0,0 l/m 2,0 km/h (1 Bft) SW 233 9,2 C 6,3 km/h (2 Bft) 100 %
13.06.2018 09:02 13,1 C 77 % 1012,7 hPa 0,0 l/m 3,0 km/h (1 Bft) W 265 9,2 C 15,7 km/h (3 Bft) 96 %
13.06.2018 09:03 13,1 C 77 % 1012,7 hPa 0,0 l/m 6,1 km/h (2 Bft) W 273 9,2 C 18,8 km/h (3 Bft) 96 %
13.06.2018 09:04 13,1 C 76 % 1012,8 hPa 0,0 l/m 5,2 km/h (1 Bft) W-NW 299 9,0 C 9,4 km/h (2 Bft) 96 %
13.06.2018 09:05 13,1 C 76 % 1012,7 hPa 0,0 l/m 8,0 km/h (2 Bft) NW 309 9,0 C 15,7 km/h (3 Bft) 100 %
13.06.2018 09:06 13,1 C 76 % 1012,8 hPa 0,0 l/m 6,7 km/h (2 Bft) W 275 9,0 C 12,6 km/h (3 Bft) 100 %
13.06.2018 09:07 13,0 C 76 % 1012,8 hPa 0,0 l/m 6,0 km/h (2 Bft) W 266 8,9 C 12,6 km/h (3 Bft) 100 %
13.06.2018 09:08 13,0 C 76 % 1012,8 hPa 0,0 l/m 7,1 km/h (2 Bft) W-NW 295 8,9 C 12,6 km/h (3 Bft) 100 %
13.06.2018 09:09 12,9 C 77 % 1012,8 hPa 0,0 l/m 7,1 km/h (2 Bft) NW 307 9,0 C 12,6 km/h (3 Bft) 100 %
13.06.2018 09:10 12,9 C 77 % 1012,8 hPa 0,0 l/m 8,3 km/h (2 Bft) NW 326 9,0 C 12,6 km/h (3 Bft) 100 %
13.06.2018 09:11 12,9 C 77 % 1012,9 hPa 0,0 l/m 3,6 km/h (1 Bft) W 281 9,0 C 6,3 km/h (2 Bft) 100 %
13.06.2018 09:12 12,9 C 78 % 1012,9 hPa 0,0 l/m 1,6 km/h (1 Bft) W-NW 295 9,2 C 3,1 km/h (1 Bft) 100 %
13.06.2018 09:13 12,9 C 78 % 1012,9 hPa 0,0 l/m 0,5 km/h (0 Bft) W 276 9,2 C 3,1 km/h (1 Bft) 100 %
13.06.2018 09:14 12,9 C 78 % 1012,9 hPa 0,0 l/m 1,0 km/h (0 Bft) W-NW 290 9,2 C 3,1 km/h (1 Bft) 100 %
13.06.2018 09:15 12,8 C 79 % 1012,9 hPa 0,0 l/m 7,8 km/h (2 Bft) W 265 9,2 C 18,8 km/h (3 Bft) 100 %
13.06.2018 09:16 12,8 C 79 % 1012,9 hPa 0,0 l/m 5,6 km/h (1 Bft) SW 233 9,2 C 12,6 km/h (3 Bft) 100 %
13.06.2018 09:17 12,8 C 80 % 1013,0 hPa 0,0 l/m 1,9 km/h (1 Bft) W 273 9,4 C 3,1 km/h (1 Bft) 100 %
13.06.2018 09:18 12,7 C 80 % 1013,0 hPa 0,0 l/m 3,4 km/h (1 Bft) W-SW 241 9,3 C 15,7 km/h (3 Bft) 100 %
13.06.2018 09:19 12,7 C 80 % 1013,0 hPa 0,0 l/m 10,2 km/h (2 Bft) W 262 9,3 C 18,8 km/h (3 Bft) 96 %
13.06.2018 09:20 12,6 C 80 % 1013,0 hPa 0,0 l/m 7,2 km/h (2 Bft) W-NW 303 9,2 C 15,7 km/h (3 Bft) 96 %
13.06.2018 09:21 12,6 C 80 % 1013,0 hPa 0,0 l/m 10,4 km/h (2 Bft) W 275 9,2 C 15,7 km/h (3 Bft) 81 %
13.06.2018 09:22 12,6 C 80 % 1013,0 hPa 0,0 l/m 0,9 km/h (0 Bft) N-NO 14 9,2 C 6,3 km/h (2 Bft) 100 %
13.06.2018 09:23 12,6 C 81 % 1013,0 hPa 0,0 l/m 2,0 km/h (1 Bft) W-SW 243 9,4 C 6,3 km/h (2 Bft) 92 %
13.06.2018 09:24 12,5 C 80 % 1013,0 hPa 0,0 l/m 9,4 km/h (2 Bft) W-NW 287 9,1 C 15,7 km/h (3 Bft) 100 %
13.06.2018 09:25 12,5 C 80 % 1013,0 hPa 0,0 l/m 4,4 km/h (1 Bft) NW 306 9,1 C 12,6 km/h (3 Bft) 100 %
13.06.2018 09:26 12,5 C 80 % 1012,9 hPa 0,0 l/m 7,7 km/h (2 Bft) NW 309 9,1 C 9,4 km/h (2 Bft) 88 %
13.06.2018 09:27 12,5 C 80 % 1012,9 hPa 0,0 l/m 6,3 km/h (2 Bft) SW 230 9,1 C 9,4 km/h (2 Bft) 100 %
13.06.2018 09:28 12,5 C 81 % 1012,9 hPa 0,0 l/m 0,0 km/h (0 Bft) O-NO 63 9,3 C 0,0 km/h (0 Bft) 96 %
13.06.2018 09:29 12,6 C 81 % 1012,9 hPa 0,0 l/m 1,7 km/h (1 Bft) W-NW 297 9,4 C 6,3 km/h (2 Bft) 98 %
13.06.2018 09:30 12,6 C 81 % 1012,9 hPa 0,0 l/m 1,9 km/h (1 Bft) SW 231 9,4 C 3,1 km/h (1 Bft) 100 %
13.06.2018 09:31 12,6 C 81 % 1012,9 hPa 0,0 l/m 0,8 km/h (0 Bft) W 267 9,4 C 3,1 km/h (1 Bft) 100 %
13.06.2018 09:32 12,6 C 81 % 1012,9 hPa 0,0 l/m 1,7 km/h (1 Bft) W-NW 293 9,4 C 3,1 km/h (1 Bft) 100 %
13.06.2018 09:33 12,7 C 81 % 1012,9 hPa 0,0 l/m 4,6 km/h (1 Bft) W-NW 288 9,5 C 9,4 km/h (2 Bft) 100 %
13.06.2018 09:34 12,7 C 80 % 1012,9 hPa 0,0 l/m 4,8 km/h (1 Bft) W-NW 297 9,3 C 12,6 km/h (3 Bft) 100 %
13.06.2018 09:35 12,7 C 79 % 1012,9 hPa 0,0 l/m 3,9 km/h (1 Bft) O-NO 58 9,2 C 6,3 km/h (2 Bft) 100 %
13.06.2018 09:36 12,7 C 80 % 1012,9 hPa 0,0 l/m 3,5 km/h (1 Bft) W 263 9,3 C 12,6 km/h (3 Bft) 100 %
13.06.2018 09:37 12,8 C 79 % 1012,9 hPa 0,0 l/m 4,2 km/h (1 Bft) W-SW 249 9,2 C 12,6 km/h (3 Bft) 100 %
13.06.2018 09:38 12,8 C 79 % 1012,8 hPa 0,0 l/m 2,7 km/h (1 Bft) N 4 9,2 C 6,3 km/h (2 Bft) 100 %
13.06.2018 09:39 12,8 C 79 % 1012,8 hPa 0,0 l/m 0,9 km/h (0 Bft) W-NW 293 9,2 C 3,1 km/h (1 Bft) 100 %
13.06.2018 09:40 12,9 C 80 % 1012,9 hPa 0,0 l/m 1,9 km/h (1 Bft) NO 38 9,5 C 3,1 km/h (1 Bft) 100 %
13.06.2018 09:41 12,9 C 79 % 1012,8 hPa 0,0 l/m 1,3 km/h (1 Bft) SW 215 9,3 C 6,3 km/h (2 Bft) 100 %
13.06.2018 09:42 13,0 C 79 % 1012,9 hPa 0,0 l/m 3,5 km/h (1 Bft) SO 146 9,4 C 9,4 km/h (2 Bft) 100 %
13.06.2018 09:43 13,0 C 79 % 1012,8 hPa 0,0 l/m 2,7 km/h (1 Bft) W-SW 256 9,4 C 9,4 km/h (2 Bft) 100 %
13.06.2018 09:44 13,1 C 79 % 1012,9 hPa 0,0 l/m 2,5 km/h (1 Bft) N-NO 21 9,5 C 6,3 km/h (2 Bft) 100 %
13.06.2018 09:45 13,1 C 79 % 1012,8 hPa 0,0 l/m 0,1 km/h (0 Bft) W 260 9,5 C 3,1 km/h (1 Bft) 100 %
13.06.2018 09:46 13,2 C 78 % 1012,8 hPa 0,0 l/m 3,4 km/h (1 Bft) O 81 9,4 C 9,4 km/h (2 Bft) 100 %
13.06.2018 09:47 13,2 C 78 % 1012,8 hPa 0,0 l/m 2,2 km/h (1 Bft) O 99 9,4 C 6,3 km/h (2 Bft) 100 %
13.06.2018 09:48 13,3 C 78 % 1012,9 hPa 0,0 l/m 3,4 km/h (1 Bft) W-NW 287 9,5 C 12,6 km/h (3 Bft) 100 %
13.06.2018 09:49 13,3 C 78 % 1012,8 hPa 0,0 l/m 6,3 km/h (2 Bft) W-NW 285 9,5 C 9,4 km/h (2 Bft) 100 %
13.06.2018 09:50 13,4 C 77 % 1012,8 hPa 0,0 l/m 1,6 km/h (1 Bft) O 96 9,5 C 6,3 km/h (2 Bft) 100 %
13.06.2018 09:51 13,4 C 77 % 1012,8 hPa 0,0 l/m 1,6 km/h (1 Bft) N-NO 31 9,5 C 3,1 km/h (1 Bft) 100 %
13.06.2018 09:52 13,5 C 77 % 1012,8 hPa 0,0 l/m 2,7 km/h (1 Bft) O 97 9,5 C 6,3 km/h (2 Bft) 100 %
13.06.2018 09:53 13,6 C 77 % 1012,8 hPa 0,0 l/m 1,8 km/h (1 Bft) SW 214 9,6 C 3,1 km/h (1 Bft) 100 %
13.06.2018 09:54 13,6 C 77 % 1012,9 hPa 0,0 l/m 0,1 km/h (0 Bft) W 264 9,6 C 3,1 km/h (1 Bft) 96 %
13.06.2018 09:55 13,7 C 77 % 1012,9 hPa 0,0 l/m 2,0 km/h (1 Bft) NW 308 9,7 C 6,3 km/h (2 Bft) 96 %
13.06.2018 09:56 13,7 C 75 % 1012,9 hPa 0,0 l/m 6,7 km/h (2 Bft) W-NW 295 9,3 C 15,7 km/h (3 Bft) 96 %
13.06.2018 09:57 13,8 C 76 % 1012,9 hPa 0,0 l/m 2,9 km/h (1 Bft) NW 321 9,6 C 6,3 km/h (2 Bft) 100 %
13.06.2018 09:58 13,8 C 75 % 1012,9 hPa 0,0 l/m 7,3 km/h (2 Bft) O 98 9,4 C 12,6 km/h (3 Bft) 100 %
13.06.2018 09:59 13,8 C 75 % 1012,9 hPa 0,0 l/m 2,1 km/h (1 Bft) W 277 9,4 C 6,3 km/h (2 Bft) 96 %
13.06.2018 10:00 13,9 C 76 % 1012,9 hPa 0,0 l/m 8,2 km/h (2 Bft) SO 136 9,7 C 22,0 km/h (4 Bft) 100 %
13.06.2018 10:01 13,9 C 75 % 1012,9 hPa 0,0 l/m 7,5 km/h (2 Bft) NW 311 9,5 C 12,6 km/h (3 Bft) 96 %
13.06.2018 10:02 13,9 C 75 % 1012,9 hPa 0,0 l/m 6,1 km/h (2 Bft) W-NW 294 9,5 C 25,1 km/h (4 Bft) 100 %
13.06.2018 10:03 13,9 C 74 % 1012,9 hPa 0,0 l/m 7,7 km/h (2 Bft) NW 314 9,3 C 18,8 km/h (3 Bft) 96 %
13.06.2018 10:04 13,9 C 75 % 1012,9 hPa 0,0 l/m 1,4 km/h (1 Bft) S-SW 202 9,5 C 6,3 km/h (2 Bft) 100 %
13.06.2018 10:05 14,0 C 75 % 1012,9 hPa 0,0 l/m 4,2 km/h (1 Bft) NO 52 9,6 C 12,6 km/h (3 Bft) 96 %
13.06.2018 10:06 14,0 C 74 % 1012,9 hPa 0,0 l/m 6,0 km/h (2 Bft) O-NO 75 9,4 C 15,7 km/h (3 Bft) 96 %
13.06.2018 10:07 14,1 C 74 % 1012,9 hPa 0,0 l/m 5,1 km/h (1 Bft) S-SW 200 9,5 C 12,6 km/h (3 Bft) 100 %
13.06.2018 10:08 14,1 C 73 % 1012,9 hPa 0,0 l/m 7,3 km/h (2 Bft) W-NW 300 9,3 C 18,8 km/h (3 Bft) 100 %
13.06.2018 10:09 14,1 C 74 % 1012,9 hPa 0,0 l/m 5,9 km/h (2 Bft) W-NW 292 9,5 C 9,4 km/h (2 Bft) 100 %
13.06.2018 10:10 14,0 C 74 % 1012,9 hPa 0,0 l/m 2,6 km/h (1 Bft) W-NW 302 9,4 C 6,3 km/h (2 Bft) 100 %
13.06.2018 10:11 14,0 C 74 % 1012,9 hPa 0,0 l/m 0,7 km/h (0 Bft) S-SO 152 9,4 C 3,1 km/h (1 Bft) 100 %
13.06.2018 10:12 14,0 C 74 % 1012,9 hPa 0,0 l/m 1,2 km/h (1 Bft) O-NO 59 9,4 C 3,1 km/h (1 Bft) 100 %
13.06.2018 10:13 14,0 C 74 % 1012,9 hPa 0,0 l/m 2,5 km/h (1 Bft) W 274 9,4 C 9,4 km/h (2 Bft) 100 %
13.06.2018 10:14 14,0 C 74 % 1012,9 hPa 0,0 l/m 2,7 km/h (1 Bft) NO 34 9,4 C 12,6 km/h (3 Bft) 100 %
13.06.2018 10:15 14,0 C 74 % 1012,9 hPa 0,0 l/m 2,5 km/h (1 Bft) W-NW 300 9,4 C 9,4 km/h (2 Bft) 100 %
13.06.2018 10:16 14,0 C 74 % 1012,9 hPa 0,0 l/m 1,3 km/h (1 Bft) W 264 9,4 C 3,1 km/h (1 Bft) 100 %
13.06.2018 10:17 14,0 C 74 % 1012,8 hPa 0,0 l/m 3,4 km/h (1 Bft) W-SW 248 9,4 C 9,4 km/h (2 Bft) 100 %
13.06.2018 10:18 14,0 C 75 % 1012,9 hPa 0,0 l/m 1,0 km/h (0 Bft) W-NW 288 9,6 C 3,1 km/h (1 Bft) 100 %
13.06.2018 10:19 14,0 C 74 % 1012,9 hPa 0,0 l/m 0,1 km/h (0 Bft) W-SW 252 9,4 C 3,1 km/h (1 Bft) 100 %
13.06.2018 10:20 14,1 C 76 % 1012,8 hPa 0,0 l/m 3,7 km/h (1 Bft) SW 231 9,9 C 9,4 km/h (2 Bft) 88 %
13.06.2018 10:21 14,1 C 75 % 1012,9 hPa 0,0 l/m 7,1 km/h (2 Bft) W-NW 299 9,7 C 15,7 km/h (3 Bft) 100 %
13.06.2018 10:22 14,0 C 75 % 1012,9 hPa 0,0 l/m 8,8 km/h (2 Bft) W-NW 295 9,6 C 15,7 km/h (3 Bft) 100 %
13.06.2018 10:23 14,0 C 74 % 1012,9 hPa 0,0 l/m 2,7 km/h (1 Bft) W 274 9,4 C 9,4 km/h (2 Bft) 100 %
13.06.2018 10:24 13,9 C 75 % 1012,9 hPa 0,0 l/m 5,1 km/h (1 Bft) W-NW 300 9,5 C 9,4 km/h (2 Bft) 100 %
13.06.2018 10:25 13,9 C 74 % 1012,9 hPa 0,0 l/m 2,2 km/h (1 Bft) S-SW 198 9,3 C 6,3 km/h (2 Bft) 100 %
13.06.2018 10:26 13,9 C 75 % 1013,0 hPa 0,0 l/m 1,3 km/h (1 Bft) SO 141 9,5 C 6,3 km/h (2 Bft) 100 %
13.06.2018 10:27 13,9 C 74 % 1013,0 hPa 0,0 l/m 5,6 km/h (1 Bft) NO 44 9,3 C 18,8 km/h (3 Bft) 100 %
13.06.2018 10:28 13,9 C 74 % 1013,0 hPa 0,0 l/m 3,7 km/h (1 Bft) NW 304 9,3 C 9,4 km/h (2 Bft) 100 %
13.06.2018 10:29 13,9 C 74 % 1013,0 hPa 0,0 l/m 4,7 km/h (1 Bft) W 271 9,3 C 9,4 km/h (2 Bft) 100 %
13.06.2018 10:30 13,9 C 75 % 1013,0 hPa 0,0 l/m 0,7 km/h (0 Bft) SW 227 9,5 C 3,1 km/h (1 Bft) 100 %
13.06.2018 10:31 13,9 C 75 % 1013,0 hPa 0,0 l/m 3,5 km/h (1 Bft) W-NW 293 9,5 C 9,4 km/h (2 Bft) 100 %
13.06.2018 10:32 13,9 C 76 % 1013,0 hPa 0,0 l/m 1,0 km/h (0 Bft) W-NW 291 9,7 C 6,3 km/h (2 Bft) 100 %
13.06.2018 10:33 13,9 C 75 % 1013,0 hPa 0,0 l/m 1,9 km/h (1 Bft) W-NW 288 9,5 C 9,4 km/h (2 Bft) 99 %
13.06.2018 10:34 13,9 C 75 % 1013,0 hPa 0,0 l/m 1,6 km/h (1 Bft) W-NW 283 9,5 C 6,3 km/h (2 Bft) 100 %
13.06.2018 10:35 13,9 C 75 % 1013,0 hPa 0,0 l/m 0,8 km/h (0 Bft) O-SO 110 9,5 C 3,1 km/h (1 Bft) 100 %
13.06.2018 10:36 13,9 C 76 % 1013,0 hPa 0,0 l/m 3,7 km/h (1 Bft) NO 56 9,7 C 6,3 km/h (2 Bft) 100 %
13.06.2018 10:37 14,0 C 75 % 1012,9 hPa 0,0 l/m 3,7 km/h (1 Bft) W-NW 283 9,6 C 6,3 km/h (2 Bft) 100 %
13.06.2018 10:38 14,0 C 75 % 1013,0 hPa 0,0 l/m 1,4 km/h (1 Bft) NW 306 9,6 C 3,1 km/h (1 Bft) 100 %
13.06.2018 10:39 14,1 C 74 % 1012,9 hPa 0,0 l/m 5,9 km/h (2 Bft) N-NO 20 9,5 C 12,6 km/h (3 Bft) 100 %
13.06.2018 10:40 14,1 C 75 % 1012,9 hPa 0,0 l/m 5,8 km/h (2 Bft) W-NW 299 9,7 C 12,6 km/h (3 Bft) 100 %
13.06.2018 10:41 14,1 C 75 % 1012,9 hPa 0,0 l/m 2,0 km/h (1 Bft) W-SW 255 9,7 C 6,3 km/h (2 Bft) 100 %
13.06.2018 10:42 14,1 C 75 % 1012,9 hPa 0,0 l/m 3,0 km/h (1 Bft) SW 236 9,7 C 9,4 km/h (2 Bft) 100 %
13.06.2018 10:43 14,2 C 76 % 1012,9 hPa 0,0 l/m 1,1 km/h (1 Bft) W-SW 249 10,0 C 6,3 km/h (2 Bft) 100 %
13.06.2018 10:44 14,2 C 75 % 1012,9 hPa 0,0 l/m 6,3 km/h (2 Bft) SW 217 9,8 C 15,7 km/h (3 Bft) 100 %
13.06.2018 10:45 14,2 C 74 % 1012,9 hPa 0,0 l/m 9,6 km/h (2 Bft) W-NW 300 9,6 C 18,8 km/h (3 Bft) 100 %
13.06.2018 10:46 14,2 C 74 % 1013,0 hPa 0,0 l/m 11,0 km/h (2 Bft) W-SW 250 9,6 C 22,0 km/h (4 Bft) 100 %
13.06.2018 10:47 14,2 C 75 % 1013,0 hPa 0,0 l/m 5,8 km/h (2 Bft) W-SW 258 9,8 C 9,4 km/h (2 Bft) 100 %
13.06.2018 10:48 14,3 C 75 % 1012,9 hPa 0,0 l/m 6,3 km/h (2 Bft) W 268 9,9 C 15,7 km/h (3 Bft) 100 %
13.06.2018 10:49 14,2 C 73 % 1012,9 hPa 0,0 l/m 6,3 km/h (2 Bft) NW 314 9,4 C 12,6 km/h (3 Bft) 100 %
13.06.2018 10:50 14,3 C 73 % 1012,9 hPa 0,0 l/m 1,9 km/h (1 Bft) W-NW 291 9,5 C 6,3 km/h (2 Bft) 100 %
13.06.2018 10:51 14,2 C 73 % 1012,9 hPa 0,0 l/m 1,6 km/h (1 Bft) W-NW 298 9,4 C 3,1 km/h (1 Bft) 100 %
13.06.2018 10:52 14,3 C 74 % 1012,9 hPa 0,0 l/m 4,2 km/h (1 Bft) W-NW 284 9,7 C 9,4 km/h (2 Bft) 100 %
13.06.2018 10:53 14,3 C 74 % 1012,9 hPa 0,0 l/m 7,1 km/h (2 Bft) W-SW 252 9,7 C 12,6 km/h (3 Bft) 100 %
13.06.2018 10:54 14,3 C 73 % 1012,9 hPa 0,0 l/m 11,8 km/h (2 Bft) N-NW 339 9,5 C 34,5 km/h (5 Bft) 100 %
13.06.2018 10:55 14,3 C 72 % 1012,9 hPa 0,0 l/m 2,4 km/h (1 Bft) SW 217 9,3 C 9,4 km/h (2 Bft) 100 %
13.06.2018 10:56 14,3 C 71 % 1012,9 hPa 0,0 l/m 8,1 km/h (2 Bft) NW 306 9,1 C 18,8 km/h (3 Bft) 96 %
13.06.2018 10:57 14,3 C 72 % 1013,0 hPa 0,0 l/m 5,5 km/h (1 Bft) SW 221 9,3 C 18,8 km/h (3 Bft) 93 %
13.06.2018 10:58 14,3 C 72 % 1013,0 hPa 0,0 l/m 8,0 km/h (2 Bft) O-NO 62 9,3 C 25,1 km/h (4 Bft) 100 %
13.06.2018 10:59 14,3 C 72 % 1013,0 hPa 0,0 l/m 1,7 km/h (1 Bft) O-NO 66 9,3 C 6,3 km/h (2 Bft) 96 %
13.06.2018 11:00 14,3 C 72 % 1012,9 hPa 0,0 l/m 2,0 km/h (1 Bft) O 82 9,3 C 6,3 km/h (2 Bft) 96 %
13.06.2018 11:01 14,3 C 72 % 1013,0 hPa 0,0 l/m 5,5 km/h (1 Bft) W-NW 300 9,3 C 9,4 km/h (2 Bft) 100 %
13.06.2018 11:02 14,4 C 73 % 1013,0 hPa 0,0 l/m 5,4 km/h (1 Bft) W-SW 247 9,6 C 9,4 km/h (2 Bft) 92 %
13.06.2018 11:03 14,4 C 74 % 1013,0 hPa 0,0 l/m 2,6 km/h (1 Bft) NW 311 9,8 C 3,1 km/h (1 Bft) 100 %
13.06.2018 11:04 14,4 C 72 % 1012,9 hPa 0,0 l/m 5,5 km/h (1 Bft) NW 306 9,4 C 9,4 km/h (2 Bft) 97 %
13.06.2018 11:05 14,4 C 72 % 1013,0 hPa 0,0 l/m 2,4 km/h (1 Bft) W-NW 288 9,4 C 6,3 km/h (2 Bft) 100 %
13.06.2018 11:06 14,4 C 73 % 1013,0 hPa 0,0 l/m 0,3 km/h (0 Bft) W 268 9,6 C 3,1 km/h (1 Bft) 94 %
13.06.2018 11:07 14,4 C 73 % 1012,9 hPa 0,0 l/m 2,5 km/h (1 Bft) S-SW 195 9,6 C 6,3 km/h (2 Bft) 97 %
13.06.2018 11:08 14,4 C 73 % 1013,0 hPa 0,0 l/m 1,4 km/h (1 Bft) W 280 9,6 C 3,1 km/h (1 Bft) 100 %
13.06.2018 11:09 14,4 C 72 % 1013,0 hPa 0,0 l/m 7,7 km/h (2 Bft) W-NW 288 9,4 C 15,7 km/h (3 Bft) 100 %
13.06.2018 11:10 14,4 C 72 % 1013,0 hPa 0,0 l/m 7,8 km/h (2 Bft) W-NW 286 9,4 C 9,4 km/h (2 Bft) 100 %
13.06.2018 11:11 14,3 C 72 % 1013,0 hPa 0,0 l/m 1,4 km/h (1 Bft) W-SW 243 9,3 C 6,3 km/h (2 Bft) 99 %
13.06.2018 11:12 14,3 C 73 % 1013,0 hPa 0,0 l/m 7,9 km/h (2 Bft) SW 233 9,5 C 15,7 km/h (3 Bft) 100 %
13.06.2018 11:13 14,3 C 72 % 1013,0 hPa 0,0 l/m 5,0 km/h (1 Bft) W 260 9,3 C 9,4 km/h (2 Bft) 100 %
13.06.2018 11:14 14,3 C 73 % 1013,0 hPa 0,0 l/m 4,1 km/h (1 Bft) W-NW 289 9,5 C 9,4 km/h (2 Bft) 100 %
13.06.2018 11:15 14,2 C 73 % 1013,0 hPa 0,0 l/m 2,2 km/h (1 Bft) W-SW 238 9,4 C 6,3 km/h (2 Bft) 100 %
13.06.2018 11:16 14,2 C 73 % 1013,1 hPa 0,0 l/m 3,3 km/h (1 Bft) W-SW 253 9,4 C 9,4 km/h (2 Bft) 100 %
13.06.2018 11:17 14,2 C 74 % 1013,1 hPa 0,0 l/m 1,0 km/h (0 Bft) W 262 9,6 C 3,1 km/h (1 Bft) 100 %
13.06.2018 11:18 14,2 C 74 % 1013,1 hPa 0,0 l/m 2,4 km/h (1 Bft) SW 228 9,6 C 3,1 km/h (1 Bft) 100 %
13.06.2018 11:19 14,2 C 74 % 1013,1 hPa 0,0 l/m 0,7 km/h (0 Bft) W-SW 238 9,6 C 3,1 km/h (1 Bft) 100 %
13.06.2018 11:20 14,2 C 74 % 1013,0 hPa 0,0 l/m 1,6 km/h (1 Bft) W 278 9,6 C 3,1 km/h (1 Bft) 100 %
13.06.2018 11:21 14,2 C 74 % 1013,1 hPa 0,0 l/m 1,2 km/h (1 Bft) W 261 9,6 C 3,1 km/h (1 Bft) 100 %
13.06.2018 11:22 14,2 C 75 % 1013,1 hPa 0,0 l/m 5,1 km/h (1 Bft) W 270 9,8 C 9,4 km/h (2 Bft) 100 %
13.06.2018 11:23 14,2 C 75 % 1013,1 hPa 0,0 l/m 4,6 km/h (1 Bft) W-SW 238 9,8 C 6,3 km/h (2 Bft) 100 %
13.06.2018 11:24 14,2 C 75 % 1013,1 hPa 0,0 l/m 2,4 km/h (1 Bft) O-NO 74 9,8 C 6,3 km/h (2 Bft) 100 %
13.06.2018 11:25 14,2 C 74 % 1013,1 hPa 0,0 l/m 5,0 km/h (1 Bft) W-NW 287 9,6 C 12,6 km/h (3 Bft) 100 %
13.06.2018 11:26 14,1 C 73 % 1013,1 hPa 0,0 l/m 7,3 km/h (2 Bft) N-NO 12 9,3 C 18,8 km/h (3 Bft) 100 %
13.06.2018 11:27 14,1 C 73 % 1013,1 hPa 0,0 l/m 9,7 km/h (2 Bft) NW 308 9,3 C 15,7 km/h (3 Bft) 100 %
13.06.2018 11:28 14,1 C 73 % 1013,1 hPa 0,0 l/m 5,4 km/h (1 Bft) W-NW 286 9,3 C 12,6 km/h (3 Bft) 100 %
13.06.2018 11:29 14,1 C 73 % 1013,1 hPa 0,0 l/m 6,7 km/h (2 Bft) O-NO 77 9,3 C 12,6 km/h (3 Bft) 100 %
13.06.2018 11:30 14,0 C 73 % 1013,1 hPa 0,0 l/m 6,6 km/h (2 Bft) O-NO 72 9,2 C 15,7 km/h (3 Bft) 100 %
13.06.2018 11:31 13,9 C 74 % 1013,1 hPa 0,0 l/m 5,8 km/h (2 Bft) W-SW 254 9,3 C 12,6 km/h (3 Bft) 100 %
13.06.2018 11:32 13,9 C 74 % 1013,2 hPa 0,0 l/m 3,5 km/h (1 Bft) W 273 9,3 C 12,6 km/h (3 Bft) 100 %
13.06.2018 11:33 13,9 C 74 % 1013,1 hPa 0,0 l/m 4,3 km/h (1 Bft) NW 311 9,3 C 15,7 km/h (3 Bft) 100 %
13.06.2018 11:34 13,9 C 74 % 1013,2 hPa 0,0 l/m 0,3 km/h (0 Bft) W-NW 288 9,3 C 6,3 km/h (2 Bft) 100 %
13.06.2018 11:35 13,9 C 75 % 1013,1 hPa 0,0 l/m 1,9 km/h (1 Bft) W 269 9,5 C 6,3 km/h (2 Bft) 100 %
13.06.2018 11:36 13,9 C 75 % 1013,1 hPa 0,0 l/m 1,9 km/h (1 Bft) SW 221 9,5 C 3,1 km/h (1 Bft) 100 %
13.06.2018 11:37 13,9 C 75 % 1013,2 hPa 0,0 l/m 3,5 km/h (1 Bft) N 351 9,5 C 9,4 km/h (2 Bft) 100 %
13.06.2018 11:38 13,9 C 75 % 1013,2 hPa 0,0 l/m 4,7 km/h (1 Bft) W 278 9,5 C 18,8 km/h (3 Bft) 100 %
13.06.2018 11:39 13,9 C 75 % 1013,1 hPa 0,0 l/m 6,3 km/h (2 Bft) W-NW 284 9,5 C 12,6 km/h (3 Bft) 100 %
13.06.2018 11:40 13,8 C 75 % 1013,1 hPa 0,0 l/m 0,2 km/h (0 Bft) W-NW 297 9,4 C 3,1 km/h (1 Bft) 100 %
13.06.2018 11:41 13,9 C 75 % 1013,2 hPa 0,0 l/m 0,2 km/h (0 Bft) W 276 9,5 C 3,1 km/h (1 Bft) 100 %
13.06.2018 11:42 13,9 C 76 % 1013,1 hPa 0,0 l/m 5,5 km/h (1 Bft) W-SW 255 9,7 C 12,6 km/h (3 Bft) 100 %
13.06.2018 11:43 13,9 C 76 % 1013,2 hPa 0,0 l/m 0,8 km/h (0 Bft) W-SW 254 9,7 C 6,3 km/h (2 Bft) 100 %
13.06.2018 11:44 13,9 C 76 % 1013,2 hPa 0,0 l/m 6,0 km/h (2 Bft) SW 219 9,7 C 6,3 km/h (2 Bft) 100 %
13.06.2018 11:45 13,9 C 76 % 1013,1 hPa 0,0 l/m 6,7 km/h (2 Bft) W 278 9,7 C 9,4 km/h (2 Bft) 100 %
13.06.2018 11:46 13,9 C 76 % 1013,2 hPa 0,0 l/m 3,5 km/h (1 Bft) W-NW 295 9,7 C 9,4 km/h (2 Bft) 100 %
13.06.2018 11:47 13,9 C 76 % 1013,2 hPa 0,0 l/m 0,6 km/h (0 Bft) W-NW 291 9,7 C 6,3 km/h (2 Bft) 100 %
13.06.2018 11:48 13,9 C 76 % 1013,1 hPa 0,0 l/m 2,0 km/h (1 Bft) NW 310 9,7 C 6,3 km/h (2 Bft) 100 %
13.06.2018 11:49 13,9 C 76 % 1013,2 hPa 0,0 l/m 9,7 km/h (2 Bft) W-NW 286 9,7 C 22,0 km/h (4 Bft) 100 %
13.06.2018 11:50 13,9 C 76 % 1013,2 hPa 0,0 l/m 14,9 km/h (3 Bft) W 266 9,7 C 22,0 km/h (4 Bft) 100 %
13.06.2018 11:51 13,9 C 76 % 1013,2 hPa 0,0 l/m 3,7 km/h (1 Bft) SW 222 9,7 C 9,4 km/h (2 Bft) 100 %
13.06.2018 11:52 13,8 C 77 % 1013,2 hPa 0,0 l/m 9,7 km/h (2 Bft) W-SW 252 9,8 C 15,7 km/h (3 Bft) 100 %
13.06.2018 11:53 13,8 C 77 % 1013,2 hPa 0,0 l/m 10,7 km/h (2 Bft) W-NW 285 9,8 C 22,0 km/h (4 Bft) 100 %
13.06.2018 11:54 13,8 C 77 % 1013,2 hPa 0,0 l/m 8,3 km/h (2 Bft) W-NW 297 9,8 C 12,6 km/h (3 Bft) 100 %
13.06.2018 11:55 13,7 C 77 % 1013,2 hPa 0,0 l/m 11,1 km/h (2 Bft) SW 229 9,7 C 18,8 km/h (3 Bft) 100 %
13.06.2018 11:57 13,7 C 78 % 1013,2 hPa 0,0 l/m 9,4 km/h (2 Bft) W-SW 239 9,9 C 15,7 km/h (3 Bft) 95 %
13.06.2018 11:58 13,7 C 78 % 1013,3 hPa 0,0 l/m 9,4 km/h (2 Bft) W-NW 297 9,9 C 18,8 km/h (3 Bft) 97 %
13.06.2018 11:59 13,7 C 78 % 1013,3 hPa 0,0 l/m 8,1 km/h (2 Bft) W-NW 299 9,9 C 25,1 km/h (4 Bft) 96 %
13.06.2018 12:00 13,6 C 79 % 1013,3 hPa 0,0 l/m 5,9 km/h (2 Bft) W-NW 285 10,0 C 18,8 km/h (3 Bft) 100 %
13.06.2018 12:01 13,6 C 79 % 1013,3 hPa 0,0 l/m 5,2 km/h (1 Bft) O-NO 75 10,0 C 9,4 km/h (2 Bft) 96 %
13.06.2018 12:02 13,6 C 78 % 1013,3 hPa 0,0 l/m 7,2 km/h (2 Bft) W-NW 297 9,8 C 15,7 km/h (3 Bft) 100 %
13.06.2018 12:03 13,6 C 79 % 1013,3 hPa 0,0 l/m 6,1 km/h (2 Bft) W-NW 300 10,0 C 15,7 km/h (3 Bft) 96 %
13.06.2018 12:04 13,6 C 79 % 1013,4 hPa 0,0 l/m 12,3 km/h (3 Bft) W-NW 289 10,0 C 28,2 km/h (4 Bft) 100 %
13.06.2018 12:05 13,6 C 79 % 1013,4 hPa 0,0 l/m 9,3 km/h (2 Bft) SW 217 10,0 C 18,8 km/h (3 Bft) 96 %
13.06.2018 12:06 13,6 C 79 % 1013,4 hPa 0,0 l/m 5,5 km/h (1 Bft) W-NW 302 10,0 C 12,6 km/h (3 Bft) 100 %
13.06.2018 12:07 13,6 C 79 % 1013,4 hPa 0,0 l/m 11,2 km/h (2 Bft) SW 226 10,0 C 18,8 km/h (3 Bft) 96 %
13.06.2018 12:08 13,6 C 80 % 1013,4 hPa 0,0 l/m 8,2 km/h (2 Bft) NW 304 10,2 C 15,7 km/h (3 Bft) 96 %
13.06.2018 12:09 13,5 C 80 % 1013,4 hPa 0,0 l/m 10,8 km/h (2 Bft) W-SW 238 10,1 C 18,8 km/h (3 Bft) 100 %
13.06.2018 12:10 13,5 C 80 % 1013,4 hPa 0,0 l/m 11,3 km/h (2 Bft) W-NW 302 10,1 C 18,8 km/h (3 Bft) 96 %
13.06.2018 12:12 13,4 C 80 % 1013,4 hPa 0,0 l/m 9,7 km/h (2 Bft) NW 309 10,0 C 25,1 km/h (4 Bft) 100 %
13.06.2018 12:13 13,3 C 80 % 1013,4 hPa 0,0 l/m 4,9 km/h (1 Bft) NW 311 9,9 C 9,4 km/h (2 Bft) 96 %
13.06.2018 12:14 13,3 C 81 % 1013,4 hPa 0,0 l/m 4,2 km/h (1 Bft) NW 310 10,1 C 9,4 km/h (2 Bft) 100 %
13.06.2018 12:15 13,2 C 81 % 1013,4 hPa 0,0 l/m 7,4 km/h (2 Bft) W-NW 303 10,0 C 12,6 km/h (3 Bft) 100 %
13.06.2018 12:16 13,2 C 81 % 1013,4 hPa 0,0 l/m 3,5 km/h (1 Bft) W 275 10,0 C 9,4 km/h (2 Bft) 100 %
13.06.2018 12:17 13,2 C 82 % 1013,4 hPa 0,0 l/m 5,2 km/h (1 Bft) SW 231 10,2 C 9,4 km/h (2 Bft) 100 %
13.06.2018 12:18 13,2 C 82 % 1013,4 hPa 0,0 l/m 3,3 km/h (1 Bft) SW 233 10,2 C 9,4 km/h (2 Bft) 100 %
13.06.2018 12:19 13,2 C 83 % 1013,5 hPa 0,0 l/m 3,3 km/h (1 Bft) NW 308 10,4 C 9,4 km/h (2 Bft) 100 %
13.06.2018 12:20 13,2 C 83 % 1013,5 hPa 0,0 l/m 5,2 km/h (1 Bft) NW 307 10,4 C 15,7 km/h (3 Bft) 100 %
13.06.2018 12:21 13,2 C 83 % 1013,5 hPa 0,0 l/m 4,1 km/h (1 Bft) S-SW 193 10,4 C 9,4 km/h (2 Bft) 100 %
13.06.2018 12:22 13,2 C 83 % 1013,5 hPa 0,0 l/m 2,5 km/h (1 Bft) W-SW 239 10,4 C 15,7 km/h (3 Bft) 100 %
13.06.2018 12:23 13,2 C 83 % 1013,5 hPa 0,0 l/m 6,3 km/h (2 Bft) W-NW 295 10,4 C 12,6 km/h (3 Bft) 100 %
13.06.2018 12:24 13,3 C 83 % 1013,5 hPa 0,0 l/m 2,7 km/h (1 Bft) W 259 10,5 C 9,4 km/h (2 Bft) 100 %
13.06.2018 12:25 13,3 C 83 % 1013,5 hPa 0,0 l/m 6,3 km/h (2 Bft) NW 309 10,5 C 15,7 km/h (3 Bft) 96 %
13.06.2018 12:27 13,4 C 83 % 1013,5 hPa 0,0 l/m 4,1 km/h (1 Bft) W-SW 248 10,6 C 9,4 km/h (2 Bft) 100 %
13.06.2018 12:28 13,4 C 82 % 1013,5 hPa 0,0 l/m 2,4 km/h (1 Bft) W-NW 297 10,4 C 6,3 km/h (2 Bft) 100 %
13.06.2018 12:29 13,4 C 82 % 1013,5 hPa 0,0 l/m 6,9 km/h (2 Bft) W-NW 283 10,4 C 12,6 km/h (3 Bft) 100 %
13.06.2018 12:30 13,4 C 83 % 1013,5 hPa 0,0 l/m 1,8 km/h (1 Bft) W 262 10,6 C 3,1 km/h (1 Bft) 100 %
13.06.2018 12:32 13,6 C 83 % 1013,5 hPa 0,0 l/m 5,4 km/h (1 Bft) W-NW 303 10,8 C 9,4 km/h (2 Bft) 100 %
13.06.2018 12:33 13,6 C 82 % 1013,5 hPa 0,0 l/m 5,9 km/h (2 Bft) W 276 10,6 C 9,4 km/h (2 Bft) 100 %
13.06.2018 12:34 13,7 C 82 % 1013,5 hPa 0,0 l/m 5,6 km/h (1 Bft) W 267 10,7 C 12,6 km/h (3 Bft) 100 %
13.06.2018 12:35 13,7 C 81 % 1013,5 hPa 0,0 l/m 6,9 km/h (2 Bft) W-NW 299 10,5 C 15,7 km/h (3 Bft) 100 %
13.06.2018 12:36 13,8 C 80 % 1013,5 hPa 0,0 l/m 7,7 km/h (2 Bft) W-NW 283 10,4 C 15,7 km/h (3 Bft) 100 %
13.06.2018 12:37 13,8 C 79 % 1013,5 hPa 0,0 l/m 9,8 km/h (2 Bft) W-NW 286 10,2 C 15,7 km/h (3 Bft) 100 %
13.06.2018 12:38 13,8 C 80 % 1013,5 hPa 0,0 l/m 3,5 km/h (1 Bft) W-NW 283 10,4 C 9,4 km/h (2 Bft) 75 %
13.06.2018 12:39 13,8 C 80 % 1013,5 hPa 0,0 l/m 4,6 km/h (1 Bft) W 264 10,4 C 9,4 km/h (2 Bft) 100 %
13.06.2018 12:40 13,9 C 80 % 1013,5 hPa 0,0 l/m 3,5 km/h (1 Bft) SW 233 10,5 C 6,3 km/h (2 Bft) 100 %
13.06.2018 12:42 13,9 C 80 % 1013,5 hPa 0,0 l/m 3,2 km/h (1 Bft) W 276 10,5 C 12,6 km/h (3 Bft) 100 %
13.06.2018 12:43 14,0 C 80 % 1013,5 hPa 0,0 l/m 4,9 km/h (1 Bft) SW 233 10,6 C 9,4 km/h (2 Bft) 100 %
13.06.2018 12:44 14,1 C 79 % 1013,5 hPa 0,0 l/m 0,6 km/h (0 Bft) N-NW 336 10,5 C 3,1 km/h (1 Bft) 100 %
13.06.2018 12:45 14,1 C 79 % 1013,5 hPa 0,0 l/m 4,1 km/h (1 Bft) W 279 10,5 C 6,3 km/h (2 Bft) 100 %
13.06.2018 12:46 14,1 C 79 % 1013,5 hPa 0,0 l/m 5,9 km/h (2 Bft) W-NW 297 10,5 C 9,4 km/h (2 Bft) 96 %
13.06.2018 12:47 14,1 C 79 % 1013,5 hPa 0,0 l/m 1,8 km/h (1 Bft) N 359 10,5 C 3,1 km/h (1 Bft) 100 %
13.06.2018 12:48 14,1 C 79 % 1013,5 hPa 0,0 l/m 0,1 km/h (0 Bft) S-SW 212 10,5 C 3,1 km/h (1 Bft) 100 %
13.06.2018 12:49 14,2 C 80 % 1013,4 hPa 0,0 l/m 0,9 km/h (0 Bft) W-NW 295 10,8 C 3,1 km/h (1 Bft) 100 %
13.06.2018 12:50 14,2 C 79 % 1013,4 hPa 0,0 l/m 1,2 km/h (1 Bft) W-NW 286 10,6 C 6,3 km/h (2 Bft) 88 %
13.06.2018 12:51 14,2 C 79 % 1013,4 hPa 0,0 l/m 0,3 km/h (0 Bft) W-NW 288 10,6 C 3,1 km/h (1 Bft) 100 %
13.06.2018 12:52 14,2 C 78 % 1013,5 hPa 0,0 l/m 1,4 km/h (1 Bft) NO 45 10,4 C 6,3 km/h (2 Bft) 100 %
13.06.2018 12:53 14,2 C 78 % 1013,5 hPa 0,0 l/m 4,2 km/h (1 Bft) W-NW 301 10,4 C 12,6 km/h (3 Bft) 96 %
13.06.2018 12:54 14,2 C 77 % 1013,5 hPa 0,0 l/m 7,3 km/h (2 Bft) W-NW 289 10,2 C 15,7 km/h (3 Bft) 96 %
13.06.2018 12:55 14,2 C 78 % 1013,5 hPa 0,0 l/m 4,6 km/h (1 Bft) W-NW 300 10,4 C 15,7 km/h (3 Bft) 96 %
13.06.2018 12:56 14,2 C 78 % 1013,5 hPa 0,0 l/m 6,6 km/h (2 Bft) W-NW 290 10,4 C 12,6 km/h (3 Bft) 100 %
13.06.2018 12:57 14,1 C 77 % 1013,5 hPa 0,0 l/m 6,9 km/h (2 Bft) W-SW 240 10,1 C 12,6 km/h (3 Bft) 100 %
13.06.2018 12:58 14,1 C 78 % 1013,5 hPa 0,0 l/m 1,8 km/h (1 Bft) N-NO 27 10,3 C 6,3 km/h (2 Bft) 100 %
13.06.2018 12:59 14,1 C 78 % 1013,5 hPa 0,0 l/m 5,3 km/h (1 Bft) W 264 10,3 C 9,4 km/h (2 Bft) 96 %
13.06.2018 13:00 14,1 C 78 % 1013,6 hPa 0,0 l/m 2,1 km/h (1 Bft) NW 318 10,3 C 6,3 km/h (2 Bft) 97 %
13.06.2018 13:01 14,1 C 78 % 1013,5 hPa 0,0 l/m 9,4 km/h (2 Bft) NW 324 10,3 C 12,6 km/h (3 Bft) 92 %
13.06.2018 13:02 14,1 C 78 % 1013,6 hPa 0,0 l/m 1,6 km/h (1 Bft) W 270 10,3 C 6,3 km/h (2 Bft) 100 %
13.06.2018 13:03 14,1 C 78 % 1013,6 hPa 0,0 l/m 0,7 km/h (0 Bft) SW 221 10,3 C 3,1 km/h (1 Bft) 96 %
13.06.2018 13:04 14,1 C 79 % 1013,6 hPa 0,0 l/m 1,6 km/h (1 Bft) NW 309 10,5 C 3,1 km/h (1 Bft) 96 %
13.06.2018 13:05 14,2 C 78 % 1013,6 hPa 0,0 l/m 0,4 km/h (0 Bft) W 274 10,4 C 3,1 km/h (1 Bft) 100 %
13.06.2018 13:07 14,3 C 78 % 1013,5 hPa 0,0 l/m 2,2 km/h (1 Bft) SW 214 10,5 C 9,4 km/h (2 Bft) 98 %
13.06.2018 13:08 14,3 C 79 % 1013,5 hPa 0,0 l/m 1,0 km/h (0 Bft) NO 42 10,7 C 6,3 km/h (2 Bft) 100 %
13.06.2018 13:09 14,4 C 79 % 1013,5 hPa 0,0 l/m 0,0 km/h (0 Bft) NO 44 10,8 C 0,0 km/h (0 Bft) 100 %
13.06.2018 13:10 14,4 C 78 % 1013,5 hPa 0,0 l/m 3,3 km/h (1 Bft) NW 305 10,6 C 12,6 km/h (3 Bft) 100 %
13.06.2018 13:11 14,4 C 79 % 1013,6 hPa 0,0 l/m 0,0 km/h (0 Bft) NW 308 10,8 C 0,0 km/h (0 Bft) 100 %
13.06.2018 13:12 14,5 C 79 % 1013,6 hPa 0,0 l/m 1,8 km/h (1 Bft) W-NW 295 10,9 C 3,1 km/h (1 Bft) 100 %
13.06.2018 13:13 14,5 C 78 % 1013,7 hPa 0,0 l/m 4,1 km/h (1 Bft) W-SW 247 10,7 C 6,3 km/h (2 Bft) 92 %
13.06.2018 13:14 14,4 C 78 % 1013,6 hPa 0,0 l/m 6,5 km/h (2 Bft) W-SW 252 10,6 C 12,6 km/h (3 Bft) 100 %
13.06.2018 13:15 14,4 C 77 % 1013,6 hPa 0,0 l/m 7,1 km/h (2 Bft) W-NW 294 10,4 C 12,6 km/h (3 Bft) 100 %
13.06.2018 13:16 14,3 C 78 % 1013,7 hPa 0,0 l/m 3,7 km/h (1 Bft) O-NO 58 10,5 C 9,4 km/h (2 Bft) 100 %
13.06.2018 13:17 14,3 C 78 % 1013,6 hPa 0,0 l/m 0,1 km/h (0 Bft) N-NW 341 10,5 C 3,1 km/h (1 Bft) 100 %
13.06.2018 13:18 14,3 C 78 % 1013,7 hPa 0,0 l/m 1,2 km/h (1 Bft) W-SW 254 10,5 C 3,1 km/h (1 Bft) 100 %
13.06.2018 13:19 14,2 C 78 % 1013,6 hPa 0,0 l/m 2,2 km/h (1 Bft) W 271 10,4 C 6,3 km/h (2 Bft) 100 %
13.06.2018 13:20 14,2 C 78 % 1013,7 hPa 0,0 l/m 7,8 km/h (2 Bft) NW 326 10,4 C 15,7 km/h (3 Bft) 100 %
13.06.2018 13:21 14,2 C 78 % 1013,7 hPa 0,0 l/m 8,2 km/h (2 Bft) SW 224 10,4 C 15,7 km/h (3 Bft) 100 %
13.06.2018 13:22 14,1 C 77 % 1013,7 hPa 0,0 l/m 11,9 km/h (2 Bft) W-NW 295 10,1 C 25,1 km/h (4 Bft) 91 %
13.06.2018 13:23 14,0 C 77 % 1013,6 hPa 0,0 l/m 6,3 km/h (2 Bft) S 169 10,0 C 9,4 km/h (2 Bft) 100 %
13.06.2018 13:24 14,0 C 77 % 1013,7 hPa 0,0 l/m 9,7 km/h (2 Bft) SW 220 10,0 C 18,8 km/h (3 Bft) 92 %
13.06.2018 13:25 13,9 C 77 % 1013,6 hPa 0,0 l/m 4,1 km/h (1 Bft) W-NW 286 9,9 C 12,6 km/h (3 Bft) 100 %
13.06.2018 13:26 13,9 C 77 % 1013,6 hPa 0,0 l/m 9,7 km/h (2 Bft) W-NW 294 9,9 C 22,0 km/h (4 Bft) 100 %
13.06.2018 13:27 13,9 C 77 % 1013,7 hPa 0,0 l/m 11,9 km/h (2 Bft) W 271 9,9 C 18,8 km/h (3 Bft) 100 %
13.06.2018 13:28 13,8 C 77 % 1013,7 hPa 0,0 l/m 5,6 km/h (1 Bft) W-SW 247 9,8 C 15,7 km/h (3 Bft) 100 %
13.06.2018 13:29 13,8 C 77 % 1013,7 hPa 0,0 l/m 5,3 km/h (1 Bft) W 271 9,8 C 12,6 km/h (3 Bft) 100 %
13.06.2018 13:30 13,8 C 77 % 1013,6 hPa 0,0 l/m 7,2 km/h (2 Bft) W 264 9,8 C 22,0 km/h (4 Bft) 100 %
13.06.2018 13:31 13,8 C 76 % 1013,6 hPa 0,0 l/m 8,6 km/h (2 Bft) W 271 9,6 C 15,7 km/h (3 Bft) 100 %
13.06.2018 13:32 13,7 C 76 % 1013,6 hPa 0,0 l/m 10,0 km/h (2 Bft) SW 235 9,5 C 22,0 km/h (4 Bft) 100 %
13.06.2018 13:33 13,7 C 76 % 1013,6 hPa 0,0 l/m 9,4 km/h (2 Bft) NW 307 9,5 C 15,7 km/h (3 Bft) 96 %
13.06.2018 13:34 13,7 C 77 % 1013,6 hPa 0,0 l/m 6,6 km/h (2 Bft) W-NW 282 9,7 C 12,6 km/h (3 Bft) 100 %
13.06.2018 13:35 13,7 C 76 % 1013,6 hPa 0,0 l/m 7,6 km/h (2 Bft) W-NW 285 9,5 C 12,6 km/h (3 Bft) 100 %
13.06.2018 13:37 13,7 C 77 % 1013,7 hPa 0,0 l/m 4,8 km/h (1 Bft) W 269 9,7 C 12,6 km/h (3 Bft) 100 %
13.06.2018 13:38 13,7 C 77 % 1013,7 hPa 0,0 l/m 7,6 km/h (2 Bft) W 280 9,7 C 9,4 km/h (2 Bft) 100 %
13.06.2018 13:39 13,7 C 76 % 1013,7 hPa 0,0 l/m 5,2 km/h (1 Bft) W-NW 300 9,5 C 9,4 km/h (2 Bft) 100 %
13.06.2018 13:40 13,7 C 76 % 1013,7 hPa 0,0 l/m 2,8 km/h (1 Bft) NW 307 9,5 C 3,1 km/h (1 Bft) 100 %
13.06.2018 13:41 13,7 C 77 % 1013,7 hPa 0,0 l/m 3,7 km/h (1 Bft) W-SW 257 9,7 C 9,4 km/h (2 Bft) 100 %
13.06.2018 13:42 13,7 C 77 % 1013,7 hPa 0,0 l/m 4,2 km/h (1 Bft) W-NW 303 9,7 C 12,6 km/h (3 Bft) 100 %
13.06.2018 13:43 13,7 C 76 % 1013,6 hPa 0,0 l/m 10,3 km/h (2 Bft) SW 231 9,5 C 15,7 km/h (3 Bft) 100 %
13.06.2018 13:44 13,7 C 76 % 1013,7 hPa 0,0 l/m 4,3 km/h (1 Bft) W-NW 291 9,5 C 9,4 km/h (2 Bft) 100 %
13.06.2018 13:45 13,7 C 76 % 1013,8 hPa 0,0 l/m 4,6 km/h (1 Bft) SW 231 9,5 C 9,4 km/h (2 Bft) 96 %
13.06.2018 13:47 13,7 C 76 % 1013,7 hPa 0,0 l/m 4,6 km/h (1 Bft) W-SW 253 9,5 C 12,6 km/h (3 Bft) 100 %
13.06.2018 13:48 13,7 C 76 % 1013,7 hPa 0,0 l/m 3,1 km/h (1 Bft) NW 309 9,5 C 6,3 km/h (2 Bft) 100 %
13.06.2018 13:49 13,7 C 76 % 1013,8 hPa 0,0 l/m 0,5 km/h (0 Bft) W-NW 303 9,5 C 3,1 km/h (1 Bft) 100 %
13.06.2018 13:50 13,7 C 76 % 1013,8 hPa 0,0 l/m 2,5 km/h (1 Bft) W 262 9,5 C 9,4 km/h (2 Bft) 100 %
13.06.2018 13:51 13,8 C 77 % 1013,7 hPa 0,0 l/m 1,0 km/h (0 Bft) SW 229 9,8 C 3,1 km/h (1 Bft) 100 %
13.06.2018 13:52 13,8 C 78 % 1013,8 hPa 0,0 l/m 0,1 km/h (0 Bft) W-SW 256 10,0 C 3,1 km/h (1 Bft) 96 %
13.06.2018 13:53 13,9 C 78 % 1013,7 hPa 0,0 l/m 0,8 km/h (0 Bft) W-SW 246 10,1 C 3,1 km/h (1 Bft) 96 %
13.06.2018 13:54 13,9 C 77 % 1013,8 hPa 0,0 l/m 0,5 km/h (0 Bft) W 269 9,9 C 3,1 km/h (1 Bft) 94 %
13.06.2018 13:55 14,0 C 77 % 1013,7 hPa 0,0 l/m 5,4 km/h (1 Bft) W 269 10,0 C 12,6 km/h (3 Bft) 100 %
13.06.2018 13:56 14,0 C 76 % 1013,7 hPa 0,0 l/m 7,8 km/h (2 Bft) W 265 9,8 C 15,7 km/h (3 Bft) 96 %
13.06.2018 13:57 14,1 C 75 % 1013,8 hPa 0,0 l/m 1,7 km/h (1 Bft) W-NW 293 9,7 C 6,3 km/h (2 Bft) 100 %
13.06.2018 13:58 14,1 C 76 % 1013,7 hPa 0,0 l/m 2,9 km/h (1 Bft) W 277 9,9 C 9,4 km/h (2 Bft) 96 %
13.06.2018 13:59 14,1 C 76 % 1013,7 hPa 0,0 l/m 5,5 km/h (1 Bft) NW 304 9,9 C 12,6 km/h (3 Bft) 100 %
13.06.2018 14:00 14,1 C 75 % 1013,7 hPa 0,0 l/m 7,7 km/h (2 Bft) NW 307 9,7 C 12,6 km/h (3 Bft) 96 %
13.06.2018 14:02 14,1 C 75 % 1013,7 hPa 0,0 l/m 2,0 km/h (1 Bft) W-SW 248 9,7 C 6,3 km/h (2 Bft) 98 %
13.06.2018 14:03 14,1 C 76 % 1013,7 hPa 0,0 l/m 0,6 km/h (0 Bft) W-NW 290 9,9 C 3,1 km/h (1 Bft) 93 %
13.06.2018 14:04 14,2 C 77 % 1013,7 hPa 0,0 l/m 2,0 km/h (1 Bft) SW 232 10,2 C 9,4 km/h (2 Bft) 100 %
13.06.2018 14:05 14,2 C 76 % 1013,7 hPa 0,0 l/m 7,0 km/h (2 Bft) W-NW 290 10,0 C 22,0 km/h (4 Bft) 96 %
13.06.2018 14:06 14,2 C 75 % 1013,7 hPa 0,0 l/m 8,0 km/h (2 Bft) W 269 9,8 C 15,7 km/h (3 Bft) 100 %
13.06.2018 14:07 14,2 C 74 % 1013,6 hPa 0,0 l/m 7,3 km/h (2 Bft) W 269 9,6 C 15,7 km/h (3 Bft) 93 %
13.06.2018 14:08 14,2 C 74 % 1013,7 hPa 0,0 l/m 8,0 km/h (2 Bft) W 277 9,6 C 12,6 km/h (3 Bft) 100 %
13.06.2018 14:09 14,2 C 75 % 1013,6 hPa 0,0 l/m 2,5 km/h (1 Bft) SW 236 9,8 C 12,6 km/h (3 Bft) 100 %
13.06.2018 14:10 14,2 C 75 % 1013,7 hPa 0,0 l/m 3,5 km/h (1 Bft) NW 305 9,8 C 6,3 km/h (2 Bft) 100 %
13.06.2018 14:11 14,2 C 75 % 1013,6 hPa 0,0 l/m 3,0 km/h (1 Bft) W-SW 252 9,8 C 6,3 km/h (2 Bft) 100 %
13.06.2018 14:12 14,3 C 76 % 1013,7 hPa 0,0 l/m 5,9 km/h (2 Bft) W-NW 282 10,1 C 15,7 km/h (3 Bft) 100 %
13.06.2018 14:13 14,3 C 76 % 1013,6 hPa 0,0 l/m 1,1 km/h (1 Bft) W-SW 258 10,1 C 3,1 km/h (1 Bft) 100 %
13.06.2018 14:14 14,4 C 75 % 1013,6 hPa 0,0 l/m 6,5 km/h (2 Bft) W-NW 286 10,0 C 12,6 km/h (3 Bft) 100 %
13.06.2018 14:15 14,4 C 75 % 1013,6 hPa 0,0 l/m 7,2 km/h (2 Bft) W-NW 293 10,0 C 15,7 km/h (3 Bft) 100 %
13.06.2018 14:17 14,4 C 74 % 1013,7 hPa 0,0 l/m 5,6 km/h (1 Bft) SW 224 9,8 C 12,6 km/h (3 Bft) 100 %
13.06.2018 14:18 14,4 C 75 % 1013,7 hPa 0,0 l/m 9,4 km/h (2 Bft) W 266 10,0 C 12,6 km/h (3 Bft) 100 %
13.06.2018 14:19 14,4 C 75 % 1013,6 hPa 0,0 l/m 10,1 km/h (2 Bft) NW 307 10,0 C 15,7 km/h (3 Bft) 100 %
13.06.2018 14:20 14,4 C 75 % 1013,6 hPa 0,0 l/m 8,9 km/h (2 Bft) W-NW 300 10,0 C 15,7 km/h (3 Bft) 100 %
13.06.2018 14:21 14,4 C 74 % 1013,7 hPa 0,0 l/m 4,6 km/h (1 Bft) W-NW 290 9,8 C 15,7 km/h (3 Bft) 100 %
13.06.2018 14:22 14,4 C 74 % 1013,6 hPa 0,0 l/m 2,7 km/h (1 Bft) W 272 9,8 C 9,4 km/h (2 Bft) 100 %
13.06.2018 14:23 14,4 C 74 % 1013,6 hPa 0,0 l/m 2,9 km/h (1 Bft) NO 42 9,8 C 9,4 km/h (2 Bft) 100 %
13.06.2018 14:24 14,4 C 74 % 1013,6 hPa 0,0 l/m 5,2 km/h (1 Bft) NO 52 9,8 C 12,6 km/h (3 Bft) 100 %
13.06.2018 14:25 14,4 C 74 % 1013,6 hPa 0,0 l/m 1,7 km/h (1 Bft) O 99 9,8 C 9,4 km/h (2 Bft) 100 %
13.06.2018 14:26 14,5 C 73 % 1013,6 hPa 0,0 l/m 7,1 km/h (2 Bft) NO 47 9,7 C 15,7 km/h (3 Bft) 91 %
13.06.2018 14:27 14,5 C 72 % 1013,6 hPa 0,0 l/m 6,1 km/h (2 Bft) O-NO 67 9,5 C 15,7 km/h (3 Bft) 100 %
13.06.2018 14:28 14,5 C 72 % 1013,6 hPa 0,0 l/m 1,7 km/h (1 Bft) O-NO 60 9,5 C 6,3 km/h (2 Bft) 100 %
13.06.2018 14:29 14,4 C 72 % 1013,6 hPa 0,0 l/m 2,7 km/h (1 Bft) NW 319 9,4 C 9,4 km/h (2 Bft) 100 %
13.06.2018 14:30 14,4 C 73 % 1013,7 hPa 0,0 l/m 0,1 km/h (0 Bft) N-NW 342 9,6 C 3,1 km/h (1 Bft) 100 %
13.06.2018 14:32 14,4 C 73 % 1013,7 hPa 0,0 l/m 4,1 km/h (1 Bft) S-SO 147 9,6 C 15,7 km/h (3 Bft) 100 %
13.06.2018 14:33 14,4 C 72 % 1013,7 hPa 0,0 l/m 3,0 km/h (1 Bft) W 273 9,4 C 9,4 km/h (2 Bft) 100 %
13.06.2018 14:34 14,4 C 71 % 1013,7 hPa 0,0 l/m 8,2 km/h (2 Bft) W-NW 289 9,2 C 15,7 km/h (3 Bft) 100 %
13.06.2018 14:35 14,4 C 72 % 1013,7 hPa 0,0 l/m 3,5 km/h (1 Bft) W 278 9,4 C 12,6 km/h (3 Bft) 97 %
13.06.2018 14:36 14,4 C 72 % 1013,7 hPa 0,0 l/m 7,0 km/h (2 Bft) W-NW 292 9,4 C 15,7 km/h (3 Bft) 100 %
13.06.2018 14:37 14,4 C 72 % 1013,7 hPa 0,0 l/m 1,8 km/h (1 Bft) W-NW 290 9,4 C 6,3 km/h (2 Bft) 100 %
13.06.2018 14:38 14,4 C 72 % 1013,6 hPa 0,0 l/m 7,3 km/h (2 Bft) W-SW 248 9,4 C 18,8 km/h (3 Bft) 100 %
13.06.2018 14:39 14,4 C 72 % 1013,6 hPa 0,0 l/m 4,1 km/h (1 Bft) W-SW 240 9,4 C 15,7 km/h (3 Bft) 100 %
13.06.2018 14:40 14,4 C 73 % 1013,6 hPa 0,0 l/m 1,7 km/h (1 Bft) NO 42 9,6 C 9,4 km/h (2 Bft) 100 %
13.06.2018 14:41 14,4 C 72 % 1013,6 hPa 0,0 l/m 5,9 km/h (2 Bft) W 262 9,4 C 18,8 km/h (3 Bft) 100 %
13.06.2018 14:42 14,4 C 73 % 1013,6 hPa 0,0 l/m 1,7 km/h (1 Bft) W-NW 290 9,6 C 3,1 km/h (1 Bft) 100 %
13.06.2018 14:43 14,4 C 73 % 1013,6 hPa 0,0 l/m 2,9 km/h (1 Bft) W-SW 239 9,6 C 6,3 km/h (2 Bft) 96 %
13.06.2018 14:44 14,4 C 73 % 1013,6 hPa 0,0 l/m 4,4 km/h (1 Bft) N-NW 347 9,6 C 9,4 km/h (2 Bft) 100 %
13.06.2018 14:45 14,4 C 73 % 1013,6 hPa 0,0 l/m 0,6 km/h (0 Bft) W 280 9,6 C 3,1 km/h (1 Bft) 100 %
13.06.2018 14:46 14,4 C 73 % 1013,6 hPa 0,0 l/m 10,5 km/h (2 Bft) NO 35 9,6 C 25,1 km/h (4 Bft) 100 %
13.06.2018 14:47 14,4 C 73 % 1013,6 hPa 0,0 l/m 2,4 km/h (1 Bft) O-NO 65 9,6 C 6,3 km/h (2 Bft) 100 %
13.06.2018 14:48 14,5 C 73 % 1013,7 hPa 0,0 l/m 4,4 km/h (1 Bft) N 352 9,7 C 6,3 km/h (2 Bft) 96 %
13.06.2018 14:49 14,5 C 73 % 1013,6 hPa 0,0 l/m 2,8 km/h (1 Bft) NO 49 9,7 C 6,3 km/h (2 Bft) 100 %
13.06.2018 14:50 14,5 C 74 % 1013,7 hPa 0,0 l/m 0,8 km/h (0 Bft) O-NO 66 9,9 C 3,1 km/h (1 Bft) 100 %
13.06.2018 14:51 14,6 C 75 % 1013,6 hPa 0,0 l/m 0,5 km/h (0 Bft) O 89 10,2 C 3,1 km/h (1 Bft) 96 %
13.06.2018 14:52 14,6 C 74 % 1013,7 hPa 0,0 l/m 1,0 km/h (0 Bft) SO 127 10,0 C 3,1 km/h (1 Bft) 96 %
13.06.2018 14:53 14,6 C 73 % 1013,6 hPa 0,0 l/m 0,6 km/h (0 Bft) NO 48 9,8 C 3,1 km/h (1 Bft) 93 %
13.06.2018 14:54 14,6 C 73 % 1013,7 hPa 0,0 l/m 3,0 km/h (1 Bft) W 268 9,8 C 6,3 km/h (2 Bft) 96 %
13.06.2018 14:55 14,6 C 72 % 1013,7 hPa 0,0 l/m 3,0 km/h (1 Bft) SW 223 9,6 C 6,3 km/h (2 Bft) 96 %
13.06.2018 14:56 14,6 C 74 % 1013,6 hPa 0,0 l/m 0,1 km/h (0 Bft) O 84 10,0 C 3,1 km/h (1 Bft) 100 %
13.06.2018 14:57 14,6 C 74 % 1013,6 hPa 0,0 l/m 1,3 km/h (1 Bft) O 99 10,0 C 3,1 km/h (1 Bft) 97 %
13.06.2018 14:58 14,6 C 74 % 1013,6 hPa 0,0 l/m 0,0 km/h (0 Bft) O-SO 103 10,0 C 0,0 km/h (0 Bft) 100 %
13.06.2018 14:59 14,6 C 74 % 1013,6 hPa 0,0 l/m 0,1 km/h (0 Bft) O-SO 103 10,0 C 3,1 km/h (1 Bft) 96 %
13.06.2018 15:00 14,6 C 73 % 1013,6 hPa 0,0 l/m 0,3 km/h (0 Bft) O 100 9,8 C 3,1 km/h (1 Bft) 100 %
13.06.2018 15:01 14,7 C 74 % 1013,6 hPa 0,0 l/m 0,0 km/h (0 Bft) O 100 10,1 C 0,0 km/h (0 Bft) 96 %
13.06.2018 15:02 14,7 C 74 % 1013,6 hPa 0,0 l/m 0,8 km/h (0 Bft) W 271 10,1 C 3,1 km/h (1 Bft) 96 %
13.06.2018 15:03 14,7 C 74 % 1013,6 hPa 0,0 l/m 0,0 km/h (0 Bft) S-SW 196 10,1 C 0,0 km/h (0 Bft) 100 %
13.06.2018 15:04 14,7 C 74 % 1013,5 hPa 0,0 l/m 0,0 km/h (0 Bft) S-SO 152 10,1 C 0,0 km/h (0 Bft) 96 %
13.06.2018 15:05 14,7 C 74 % 1013,6 hPa 0,0 l/m 2,2 km/h (1 Bft) W 279 10,1 C 9,4 km/h (2 Bft) 100 %
13.06.2018 15:06 14,6 C 73 % 1013,6 hPa 0,0 l/m 7,5 km/h (2 Bft) W 264 9,8 C 12,6 km/h (3 Bft) 100 %
13.06.2018 15:07 14,6 C 74 % 1013,5 hPa 0,0 l/m 1,8 km/h (1 Bft) W-SW 257 10,0 C 6,3 km/h (2 Bft) 100 %
13.06.2018 15:08 14,6 C 75 % 1013,6 hPa 0,0 l/m 2,4 km/h (1 Bft) W 278 10,2 C 6,3 km/h (2 Bft) 100 %
13.06.2018 15:09 14,6 C 75 % 1013,6 hPa 0,0 l/m 2,4 km/h (1 Bft) NW 309 10,2 C 6,3 km/h (2 Bft) 100 %
13.06.2018 15:10 14,6 C 74 % 1013,6 hPa 0,0 l/m 5,9 km/h (2 Bft) S-SW 212 10,0 C 9,4 km/h (2 Bft) 100 %
13.06.2018 15:11 14,6 C 75 % 1013,6 hPa 0,0 l/m 3,3 km/h (1 Bft) W-NW 300 10,2 C 9,4 km/h (2 Bft) 100 %
13.06.2018 15:12 14,6 C 75 % 1013,6 hPa 0,0 l/m 3,8 km/h (1 Bft) W-NW 297 10,2 C 9,4 km/h (2 Bft) 100 %
13.06.2018 15:13 14,6 C 75 % 1013,6 hPa 0,0 l/m 2,3 km/h (1 Bft) W-NW 292 10,2 C 6,3 km/h (2 Bft) 100 %
13.06.2018 15:14 14,6 C 76 % 1013,6 hPa 0,0 l/m 2,5 km/h (1 Bft) NW 323 10,4 C 6,3 km/h (2 Bft) 100 %
13.06.2018 15:15 14,6 C 75 % 1013,6 hPa 0,0 l/m 2,9 km/h (1 Bft) W-SW 255 10,2 C 6,3 km/h (2 Bft) 100 %
13.06.2018 15:16 14,6 C 75 % 1013,6 hPa 0,0 l/m 0,8 km/h (0 Bft) W-SW 251 10,2 C 3,1 km/h (1 Bft) 96 %
13.06.2018 15:17 14,6 C 75 % 1013,6 hPa 0,0 l/m 3,0 km/h (1 Bft) NW 311 10,2 C 6,3 km/h (2 Bft) 100 %
13.06.2018 15:18 14,6 C 76 % 1013,6 hPa 0,0 l/m 0,1 km/h (0 Bft) W-NW 301 10,4 C 3,1 km/h (1 Bft) 100 %
13.06.2018 15:19 14,6 C 74 % 1013,6 hPa 0,0 l/m 1,4 km/h (1 Bft) N-NW 329 10,0 C 6,3 km/h (2 Bft) 100 %
13.06.2018 15:20 14,6 C 75 % 1013,6 hPa 0,0 l/m 0,7 km/h (0 Bft) W 273 10,2 C 6,3 km/h (2 Bft) 100 %
13.06.2018 15:22 14,6 C 74 % 1013,6 hPa 0,0 l/m 6,6 km/h (2 Bft) NW 323 10,0 C 12,6 km/h (3 Bft) 100 %
13.06.2018 15:23 14,6 C 75 % 1013,6 hPa 0,0 l/m 6,3 km/h (2 Bft) NW 306 10,2 C 9,4 km/h (2 Bft) 100 %
13.06.2018 15:24 14,5 C 75 % 1013,7 hPa 0,0 l/m 5,5 km/h (1 Bft) NW 306 10,1 C 9,4 km/h (2 Bft) 100 %
13.06.2018 15:25 14,5 C 75 % 1013,7 hPa 0,0 l/m 2,9 km/h (1 Bft) W 267 10,1 C 9,4 km/h (2 Bft) 100 %
13.06.2018 15:27 14,4 C 76 % 1013,7 hPa 0,0 l/m 3,3 km/h (1 Bft) W-NW 290 10,2 C 9,4 km/h (2 Bft) 100 %
13.06.2018 15:28 14,4 C 75 % 1013,7 hPa 0,0 l/m 4,0 km/h (1 Bft) W-NW 290 10,0 C 6,3 km/h (2 Bft) 100 %
13.06.2018 15:29 14,4 C 75 % 1013,7 hPa 0,0 l/m 1,8 km/h (1 Bft) SW 233 10,0 C 6,3 km/h (2 Bft) 100 %
13.06.2018 15:30 14,4 C 76 % 1013,7 hPa 0,0 l/m 3,5 km/h (1 Bft) W-NW 291 10,2 C 12,6 km/h (3 Bft) 100 %
13.06.2018 15:31 14,4 C 75 % 1013,8 hPa 0,0 l/m 7,2 km/h (2 Bft) W-NW 302 10,0 C 12,6 km/h (3 Bft) 100 %
13.06.2018 15:32 14,4 C 76 % 1013,8 hPa 0,0 l/m 9,9 km/h (2 Bft) W 278 10,2 C 15,7 km/h (3 Bft) 100 %
13.06.2018 15:33 14,3 C 76 % 1013,9 hPa 0,0 l/m 1,7 km/h (1 Bft) W-NW 292 10,1 C 3,1 km/h (1 Bft) 100 %
13.06.2018 15:34 14,3 C 76 % 1013,9 hPa 0,0 l/m 0,1 km/h (0 Bft) W 269 10,1 C 3,1 km/h (1 Bft) 100 %
13.06.2018 15:35 14,3 C 76 % 1013,9 hPa 0,0 l/m 3,4 km/h (1 Bft) W 265 10,1 C 9,4 km/h (2 Bft) 100 %
13.06.2018 15:36 14,3 C 75 % 1013,8 hPa 0,0 l/m 8,2 km/h (2 Bft) W-SW 242 9,9 C 15,7 km/h (3 Bft) 100 %
13.06.2018 15:37 14,3 C 75 % 1013,8 hPa 0,0 l/m 6,1 km/h (2 Bft) W-NW 294 9,9 C 15,7 km/h (3 Bft) 100 %
13.06.2018 15:38 14,3 C 75 % 1013,9 hPa 0,0 l/m 3,9 km/h (1 Bft) NW 309 9,9 C 6,3 km/h (2 Bft) 100 %
13.06.2018 15:39 14,3 C 75 % 1013,9 hPa 0,0 l/m 7,9 km/h (2 Bft) W-SW 255 9,9 C 15,7 km/h (3 Bft) 100 %
13.06.2018 15:40 14,3 C 75 % 1013,9 hPa 0,0 l/m 15,2 km/h (3 Bft) S-SW 200 9,9 C 28,2 km/h (4 Bft) 100 %
13.06.2018 15:42 14,2 C 75 % 1014,0 hPa 0,0 l/m 7,2 km/h (2 Bft) N-NW 337 9,8 C 15,7 km/h (3 Bft) 100 %
13.06.2018 15:43 14,2 C 75 % 1014,0 hPa 0,0 l/m 4,3 km/h (1 Bft) SW 235 9,8 C 12,6 km/h (3 Bft) 100 %
13.06.2018 15:44 14,2 C 75 % 1013,9 hPa 0,0 l/m 4,5 km/h (1 Bft) W-NW 299 9,8 C 9,4 km/h (2 Bft) 100 %
13.06.2018 15:45 14,2 C 75 % 1013,9 hPa 0,0 l/m 9,4 km/h (2 Bft) NW 309 9,8 C 15,7 km/h (3 Bft) 100 %
13.06.2018 15:46 14,2 C 74 % 1014,0 hPa 0,0 l/m 8,9 km/h (2 Bft) W 269 9,6 C 18,8 km/h (3 Bft) 100 %
13.06.2018 15:47 14,2 C 74 % 1014,0 hPa 0,0 l/m 6,1 km/h (2 Bft) W-NW 294 9,6 C 15,7 km/h (3 Bft) 100 %
13.06.2018 15:48 14,2 C 73 % 1014,0 hPa 0,0 l/m 8,6 km/h (2 Bft) N-NW 329 9,4 C 15,7 km/h (3 Bft) 100 %
13.06.2018 15:49 14,2 C 72 % 1014,0 hPa 0,0 l/m 9,2 km/h (2 Bft) W 280 9,2 C 18,8 km/h (3 Bft) 100 %
13.06.2018 15:50 14,2 C 72 % 1014,0 hPa 0,0 l/m 4,9 km/h (1 Bft) W-SW 243 9,2 C 9,4 km/h (2 Bft) 100 %
13.06.2018 15:52 14,2 C 72 % 1014,0 hPa 0,0 l/m 8,0 km/h (2 Bft) NW 319 9,2 C 18,8 km/h (3 Bft) 100 %
13.06.2018 15:53 14,2 C 72 % 1014,0 hPa 0,0 l/m 6,5 km/h (2 Bft) W 281 9,2 C 12,6 km/h (3 Bft) 100 %
13.06.2018 15:54 14,2 C 72 % 1014,0 hPa 0,0 l/m 3,7 km/h (1 Bft) W 269 9,2 C 9,4 km/h (2 Bft) 96 %
13.06.2018 15:55 14,2 C 72 % 1013,9 hPa 0,0 l/m 4,3 km/h (1 Bft) W-NW 285 9,2 C 9,4 km/h (2 Bft) 100 %
13.06.2018 15:56 14,2 C 72 % 1014,0 hPa 0,0 l/m 2,2 km/h (1 Bft) W-SW 255 9,2 C 9,4 km/h (2 Bft) 96 %
13.06.2018 15:57 14,3 C 72 % 1013,9 hPa 0,0 l/m 5,0 km/h (1 Bft) SW 221 9,3 C 9,4 km/h (2 Bft) 100 %
13.06.2018 15:58 14,3 C 72 % 1014,0 hPa 0,0 l/m 3,6 km/h (1 Bft) W-NW 290 9,3 C 9,4 km/h (2 Bft) 96 %
13.06.2018 15:59 14,3 C 72 % 1014,0 hPa 0,0 l/m 6,8 km/h (2 Bft) W-NW 291 9,3 C 15,7 km/h (3 Bft) 100 %
13.06.2018 16:00 14,3 C 72 % 1014,0 hPa 0,0 l/m 6,7 km/h (2 Bft) W-SW 252 9,3 C 12,6 km/h (3 Bft) 96 %
13.06.2018 16:01 14,3 C 72 % 1013,9 hPa 0,0 l/m 6,0 km/h (2 Bft) NO 41 9,3 C 12,6 km/h (3 Bft) 96 %
13.06.2018 16:02 14,3 C 72 % 1013,9 hPa 0,0 l/m 6,4 km/h (2 Bft) W-NW 290 9,3 C 15,7 km/h (3 Bft) 100 %
13.06.2018 16:03 14,4 C 72 % 1013,9 hPa 0,0 l/m 10,1 km/h (2 Bft) W 273 9,4 C 15,7 km/h (3 Bft) 100 %
13.06.2018 16:04 14,4 C 72 % 1013,9 hPa 0,0 l/m 7,1 km/h (2 Bft) W-NW 287 9,4 C 15,7 km/h (3 Bft) 96 %
13.06.2018 16:05 14,4 C 71 % 1013,9 hPa 0,0 l/m 8,2 km/h (2 Bft) NW 311 9,2 C 25,1 km/h (4 Bft) 100 %
13.06.2018 16:06 14,4 C 71 % 1013,9 hPa 0,0 l/m 9,7 km/h (2 Bft) W-NW 290 9,2 C 22,0 km/h (4 Bft) 100 %
13.06.2018 16:07 14,4 C 71 % 1014,0 hPa 0,0 l/m 7,2 km/h (2 Bft) NW 309 9,2 C 15,7 km/h (3 Bft) 100 %
13.06.2018 16:08 14,4 C 71 % 1013,9 hPa 0,0 l/m 2,0 km/h (1 Bft) W-NW 288 9,2 C 9,4 km/h (2 Bft) 100 %
13.06.2018 16:09 14,4 C 71 % 1013,9 hPa 0,0 l/m 8,6 km/h (2 Bft) W-NW 295 9,2 C 15,7 km/h (3 Bft) 100 %
13.06.2018 16:10 14,4 C 71 % 1013,9 hPa 0,0 l/m 1,7 km/h (1 Bft) S-SW 206 9,2 C 6,3 km/h (2 Bft) 100 %
13.06.2018 16:11 14,4 C 71 % 1013,9 hPa 0,0 l/m 2,2 km/h (1 Bft) N-NO 14 9,2 C 6,3 km/h (2 Bft) 100 %
13.06.2018 16:12 14,5 C 71 % 1013,9 hPa 0,0 l/m 2,5 km/h (1 Bft) W 260 9,3 C 6,3 km/h (2 Bft) 100 %
13.06.2018 16:13 14,6 C 71 % 1013,9 hPa 0,0 l/m 2,9 km/h (1 Bft) NW 307 9,4 C 9,4 km/h (2 Bft) 100 %
13.06.2018 16:14 14,6 C 71 % 1013,9 hPa 0,0 l/m 6,1 km/h (2 Bft) W-SW 257 9,4 C 15,7 km/h (3 Bft) 100 %
13.06.2018 16:15 14,7 C 71 % 1013,9 hPa 0,0 l/m 5,5 km/h (1 Bft) W-NW 285 9,5 C 9,4 km/h (2 Bft) 100 %
13.06.2018 16:16 14,7 C 71 % 1013,9 hPa 0,0 l/m 7,4 km/h (2 Bft) W-NW 295 9,5 C 12,6 km/h (3 Bft) 100 %
13.06.2018 16:17 14,7 C 70 % 1013,9 hPa 0,0 l/m 9,9 km/h (2 Bft) SW 224 9,3 C 18,8 km/h (3 Bft) 100 %
13.06.2018 16:18 14,7 C 70 % 1013,9 hPa 0,0 l/m 7,5 km/h (2 Bft) W-SW 255 9,3 C 15,7 km/h (3 Bft) 100 %
13.06.2018 16:19 14,8 C 70 % 1013,9 hPa 0,0 l/m 2,6 km/h (1 Bft) W-NW 286 9,4 C 6,3 km/h (2 Bft) 100 %
13.06.2018 16:20 14,9 C 70 % 1013,9 hPa 0,0 l/m 2,0 km/h (1 Bft) W-SW 253 9,5 C 9,4 km/h (2 Bft) 100 %
13.06.2018 16:22 15,0 C 70 % 1013,9 hPa 0,0 l/m 4,1 km/h (1 Bft) W-NW 288 9,6 C 9,4 km/h (2 Bft) 100 %
13.06.2018 16:23 15,1 C 69 % 1013,9 hPa 0,0 l/m 8,8 km/h (2 Bft) W-NW 298 9,5 C 18,8 km/h (3 Bft) 100 %
13.06.2018 16:24 15,1 C 69 % 1013,9 hPa 0,0 l/m 0,2 km/h (0 Bft) W-SW 249 9,5 C 3,1 km/h (1 Bft) 100 %
13.06.2018 16:25 15,2 C 69 % 1013,8 hPa 0,0 l/m 4,4 km/h (1 Bft) W-NW 283 9,6 C 15,7 km/h (3 Bft) 100 %
13.06.2018 16:27 15,3 C 67 % 1013,8 hPa 0,0 l/m 9,0 km/h (2 Bft) N-NW 347 9,2 C 18,8 km/h (3 Bft) 100 %
13.06.2018 16:28 15,4 C 68 % 1013,8 hPa 0,0 l/m 8,3 km/h (2 Bft) W 280 9,5 C 12,6 km/h (3 Bft) 100 %
13.06.2018 16:29 15,4 C 65 % 1013,9 hPa 0,0 l/m 5,7 km/h (1 Bft) W 274 8,9 C 9,4 km/h (2 Bft) 100 %
13.06.2018 16:30 15,5 C 65 % 1013,9 hPa 0,0 l/m 7,5 km/h (2 Bft) W-SW 248 8,9 C 12,6 km/h (3 Bft) 100 %
13.06.2018 16:31 15,6 C 66 % 1013,8 hPa 0,0 l/m 3,0 km/h (1 Bft) NW 304 9,3 C 6,3 km/h (2 Bft) 100 %
13.06.2018 16:32 15,6 C 65 % 1013,9 hPa 0,0 l/m 11,4 km/h (2 Bft) NO 52 9,0 C 28,2 km/h (4 Bft) 100 %
13.06.2018 16:33 15,7 C 64 % 1013,8 hPa 0,0 l/m 5,8 km/h (2 Bft) NO 46 8,9 C 18,8 km/h (3 Bft) 100 %
13.06.2018 16:34 15,7 C 65 % 1013,9 hPa 0,0 l/m 6,7 km/h (2 Bft) NW 304 9,1 C 12,6 km/h (3 Bft) 100 %
13.06.2018 16:35 15,8 C 62 % 1013,9 hPa 0,0 l/m 14,3 km/h (3 Bft) W-NW 297 8,5 C 25,1 km/h (4 Bft) 100 %
13.06.2018 16:37 15,8 C 62 % 1013,7 hPa 0,0 l/m 8,3 km/h (2 Bft) W-NW 297 8,5 C 18,8 km/h (3 Bft) 100 %
13.06.2018 16:38 15,8 C 62 % 1013,7 hPa 0,0 l/m 6,3 km/h (2 Bft) W-SW 237 8,5 C 12,6 km/h (3 Bft) 100 %
13.06.2018 16:39 15,8 C 62 % 1013,7 hPa 0,0 l/m 7,2 km/h (2 Bft) W 277 8,5 C 15,7 km/h (3 Bft) 100 %
13.06.2018 16:40 15,9 C 63 % 1013,7 hPa 0,0 l/m 6,1 km/h (2 Bft) W-SW 257 8,9 C 9,4 km/h (2 Bft) 100 %
13.06.2018 16:41 16,0 C 64 % 1013,7 hPa 0,0 l/m 7,8 km/h (2 Bft) W-NW 289 9,2 C 15,7 km/h (3 Bft) 100 %
13.06.2018 16:42 16,1 C 63 % 1013,7 hPa 0,0 l/m 6,8 km/h (2 Bft) W 281 9,1 C 15,7 km/h (3 Bft) 100 %
13.06.2018 16:43 16,2 C 64 % 1013,7 hPa 0,0 l/m 11,4 km/h (2 Bft) W 261 9,4 C 25,1 km/h (4 Bft) 100 %
13.06.2018 16:44 16,3 C 63 % 1013,7 hPa 0,0 l/m 7,8 km/h (2 Bft) SW 233 9,2 C 12,6 km/h (3 Bft) 100 %
13.06.2018 16:45 16,3 C 63 % 1013,7 hPa 0,0 l/m 11,2 km/h (2 Bft) NW 304 9,2 C 31,4 km/h (5 Bft) 100 %
13.06.2018 16:46 16,3 C 61 % 1013,7 hPa 0,0 l/m 12,0 km/h (2 Bft) W 264 8,8 C 18,8 km/h (3 Bft) 100 %
13.06.2018 16:47 16,3 C 61 % 1013,7 hPa 0,0 l/m 17,9 km/h (3 Bft) N-NW 332 8,8 C 25,1 km/h (4 Bft) 100 %
13.06.2018 16:48 16,2 C 62 % 1013,7 hPa 0,0 l/m 10,7 km/h (2 Bft) NW 325 8,9 C 15,7 km/h (3 Bft) 100 %
13.06.2018 16:49 16,2 C 62 % 1013,7 hPa 0,0 l/m 12,9 km/h (3 Bft) W 278 8,9 C 22,0 km/h (4 Bft) 100 %
13.06.2018 16:50 16,1 C 62 % 1013,7 hPa 0,0 l/m 10,5 km/h (2 Bft) W 264 8,8 C 22,0 km/h (4 Bft) 100 %
13.06.2018 16:51 16,1 C 62 % 1013,7 hPa 0,0 l/m 5,8 km/h (2 Bft) W 281 8,8 C 18,8 km/h (3 Bft) 96 %
13.06.2018 16:52 16,0 C 63 % 1013,7 hPa 0,0 l/m 10,9 km/h (2 Bft) W-NW 283 9,0 C 18,8 km/h (3 Bft) 100 %
13.06.2018 16:53 16,0 C 63 % 1013,8 hPa 0,0 l/m 6,3 km/h (2 Bft) SW 216 9,0 C 12,6 km/h (3 Bft) 96 %
13.06.2018 16:54 16,0 C 63 % 1013,7 hPa 0,0 l/m 11,9 km/h (2 Bft) W-NW 284 9,0 C 18,8 km/h (3 Bft) 100 %
13.06.2018 16:55 15,9 C 63 % 1013,7 hPa 0,0 l/m 11,5 km/h (2 Bft) W-NW 297 8,9 C 15,7 km/h (3 Bft) 96 %
13.06.2018 16:56 15,9 C 64 % 1013,7 hPa 0,0 l/m 5,0 km/h (1 Bft) NW 315 9,1 C 18,8 km/h (3 Bft) 100 %
13.06.2018 16:57 15,9 C 64 % 1013,8 hPa 0,0 l/m 9,9 km/h (2 Bft) NW 309 9,1 C 18,8 km/h (3 Bft) 99 %
13.06.2018 16:58 15,9 C 63 % 1013,7 hPa 0,0 l/m 9,7 km/h (2 Bft) NW 313 8,9 C 15,7 km/h (3 Bft) 97 %
13.06.2018 16:59 15,8 C 63 % 1013,8 hPa 0,0 l/m 10,1 km/h (2 Bft) W-NW 295 8,8 C 18,8 km/h (3 Bft) 96 %
13.06.2018 17:00 15,8 C 64 % 1013,8 hPa 0,0 l/m 3,3 km/h (1 Bft) W-SW 258 9,0 C 9,4 km/h (2 Bft) 100 %
13.06.2018 17:02 15,8 C 65 % 1013,8 hPa 0,0 l/m 6,7 km/h (2 Bft) W-NW 290 9,2 C 15,7 km/h (3 Bft) 97 %
13.06.2018 17:03 15,8 C 65 % 1013,8 hPa 0,0 l/m 4,3 km/h (1 Bft) NW 305 9,2 C 9,4 km/h (2 Bft) 100 %
13.06.2018 17:04 15,7 C 65 % 1013,9 hPa 0,0 l/m 4,1 km/h (1 Bft) O 98 9,1 C 9,4 km/h (2 Bft) 100 %
13.06.2018 17:05 15,8 C 65 % 1013,8 hPa 0,0 l/m 3,3 km/h (1 Bft) NW 304 9,2 C 9,4 km/h (2 Bft) 100 %
13.06.2018 17:06 15,7 C 65 % 1013,8 hPa 0,0 l/m 4,7 km/h (1 Bft) W-NW 298 9,1 C 12,6 km/h (3 Bft) 100 %
13.06.2018 17:07 15,7 C 64 % 1013,8 hPa 0,0 l/m 4,9 km/h (1 Bft) W-NW 286 8,9 C 9,4 km/h (2 Bft) 100 %
13.06.2018 17:08 15,7 C 65 % 1013,8 hPa 0,0 l/m 2,4 km/h (1 Bft) SW 224 9,1 C 6,3 km/h (2 Bft) 100 %
13.06.2018 17:09 15,7 C 66 % 1013,8 hPa 0,0 l/m 5,0 km/h (1 Bft) NW 304 9,4 C 12,6 km/h (3 Bft) 100 %
13.06.2018 17:10 15,7 C 64 % 1013,9 hPa 0,0 l/m 8,5 km/h (2 Bft) W 261 8,9 C 18,8 km/h (3 Bft) 100 %
13.06.2018 17:12 15,6 C 65 % 1013,9 hPa 0,0 l/m 8,4 km/h (2 Bft) SW 226 9,0 C 15,7 km/h (3 Bft) 100 %
13.06.2018 17:13 15,6 C 65 % 1013,9 hPa 0,0 l/m 4,8 km/h (1 Bft) W-NW 303 9,0 C 6,3 km/h (2 Bft) 100 %
13.06.2018 17:14 15,5 C 66 % 1013,9 hPa 0,0 l/m 7,5 km/h (2 Bft) SW 219 9,2 C 15,7 km/h (3 Bft) 100 %
13.06.2018 17:15 15,5 C 67 % 1013,9 hPa 0,0 l/m 7,0 km/h (2 Bft) W-NW 284 9,4 C 12,6 km/h (3 Bft) 100 %
13.06.2018 17:17 15,4 C 67 % 1013,9 hPa 0,0 l/m 2,5 km/h (1 Bft) S-SW 212 9,3 C 9,4 km/h (2 Bft) 100 %
13.06.2018 17:18 15,4 C 66 % 1013,9 hPa 0,0 l/m 10,7 km/h (2 Bft) W-NW 286 9,1 C 18,8 km/h (3 Bft) 100 %
13.06.2018 17:19 15,4 C 67 % 1013,9 hPa 0,0 l/m 2,6 km/h (1 Bft) SW 222 9,3 C 9,4 km/h (2 Bft) 100 %
13.06.2018 17:20 15,4 C 67 % 1013,8 hPa 0,0 l/m 1,0 km/h (0 Bft) W-NW 289 9,3 C 3,1 km/h (1 Bft) 100 %
13.06.2018 17:21 15,4 C 68 % 1013,9 hPa 0,0 l/m 3,4 km/h (1 Bft) NW 309 9,5 C 12,6 km/h (3 Bft) 100 %
13.06.2018 17:22 15,3 C 68 % 1013,9 hPa 0,0 l/m 2,5 km/h (1 Bft) N 4 9,4 C 6,3 km/h (2 Bft) 100 %
13.06.2018 17:23 15,3 C 67 % 1013,9 hPa 0,0 l/m 7,2 km/h (2 Bft) W-NW 300 9,2 C 15,7 km/h (3 Bft) 100 %
13.06.2018 17:24 15,3 C 67 % 1013,8 hPa 0,0 l/m 11,6 km/h (2 Bft) W-NW 283 9,2 C 25,1 km/h (4 Bft) 100 %
13.06.2018 17:25 15,3 C 67 % 1013,9 hPa 0,0 l/m 13,3 km/h (3 Bft) W 276 9,2 C 28,2 km/h (4 Bft) 100 %
13.06.2018 17:26 15,3 C 68 % 1013,9 hPa 0,0 l/m 4,7 km/h (1 Bft) W-NW 285 9,4 C 9,4 km/h (2 Bft) 96 %
13.06.2018 17:27 15,3 C 68 % 1013,9 hPa 0,0 l/m 3,4 km/h (1 Bft) W-NW 288 9,4 C 12,6 km/h (3 Bft) 100 %
13.06.2018 17:28 15,3 C 67 % 1013,9 hPa 0,0 l/m 5,5 km/h (1 Bft) W-NW 297 9,2 C 12,6 km/h (3 Bft) 100 %
13.06.2018 17:29 15,2 C 68 % 1013,9 hPa 0,0 l/m 4,6 km/h (1 Bft) NW 307 9,3 C 9,4 km/h (2 Bft) 100 %
13.06.2018 17:30 15,2 C 68 % 1013,9 hPa 0,0 l/m 0,6 km/h (0 Bft) S 190 9,3 C 3,1 km/h (1 Bft) 100 %
13.06.2018 17:31 15,3 C 69 % 1014,0 hPa 0,0 l/m 1,9 km/h (1 Bft) W-NW 302 9,6 C 3,1 km/h (1 Bft) 100 %
13.06.2018 17:32 15,3 C 68 % 1014,0 hPa 0,0 l/m 1,6 km/h (1 Bft) W-SW 250 9,4 C 6,3 km/h (2 Bft) 100 %
13.06.2018 17:33 15,3 C 69 % 1013,9 hPa 0,0 l/m 0,9 km/h (0 Bft) W-SW 254 9,6 C 3,1 km/h (1 Bft) 92 %
13.06.2018 17:34 15,3 C 68 % 1013,9 hPa 0,0 l/m 4,8 km/h (1 Bft) W 268 9,4 C 12,6 km/h (3 Bft) 100 %
13.06.2018 17:35 15,4 C 68 % 1013,9 hPa 0,0 l/m 4,1 km/h (1 Bft) W-NW 286 9,5 C 6,3 km/h (2 Bft) 100 %
13.06.2018 17:36 15,4 C 67 % 1013,9 hPa 0,0 l/m 7,7 km/h (2 Bft) W-NW 289 9,3 C 12,6 km/h (3 Bft) 88 %
13.06.2018 17:37 15,4 C 67 % 1013,9 hPa 0,0 l/m 5,5 km/h (1 Bft) O-NO 60 9,3 C 9,4 km/h (2 Bft) 71 %
13.06.2018 17:38 15,4 C 66 % 1013,9 hPa 0,0 l/m 3,8 km/h (1 Bft) O-NO 68 9,1 C 9,4 km/h (2 Bft) 96 %
13.06.2018 17:39 15,4 C 67 % 1013,9 hPa 0,0 l/m 1,2 km/h (1 Bft) N-NO 25 9,3 C 6,3 km/h (2 Bft) 91 %
13.06.2018 17:40 15,5 C 66 % 1013,9 hPa 0,0 l/m 3,8 km/h (1 Bft) W-SW 244 9,2 C 9,4 km/h (2 Bft) 100 %
13.06.2018 17:41 15,5 C 66 % 1013,9 hPa 0,0 l/m 4,2 km/h (1 Bft) W 268 9,2 C 9,4 km/h (2 Bft) 91 %
13.06.2018 17:42 15,6 C 67 % 1013,9 hPa 0,0 l/m 2,2 km/h (1 Bft) SW 222 9,5 C 6,3 km/h (2 Bft) 92 %
13.06.2018 17:43 15,6 C 66 % 1013,9 hPa 0,0 l/m 5,6 km/h (1 Bft) W-NW 297 9,3 C 12,6 km/h (3 Bft) 96 %
13.06.2018 17:44 15,6 C 66 % 1014,0 hPa 0,0 l/m 6,7 km/h (2 Bft) W-NW 300 9,3 C 12,6 km/h (3 Bft) 100 %
13.06.2018 17:45 15,7 C 67 % 1014,0 hPa 0,0 l/m 3,5 km/h (1 Bft) NW 304 9,6 C 6,3 km/h (2 Bft) 100 %
13.06.2018 17:47 15,7 C 65 % 1014,0 hPa 0,0 l/m 6,4 km/h (2 Bft) W-NW 297 9,1 C 15,7 km/h (3 Bft) 98 %
13.06.2018 17:48 15,7 C 65 % 1014,0 hPa 0,0 l/m 3,1 km/h (1 Bft) SW 232 9,1 C 6,3 km/h (2 Bft) 100 %
13.06.2018 17:49 15,7 C 65 % 1014,0 hPa 0,0 l/m 2,9 km/h (1 Bft) W-NW 297 9,1 C 6,3 km/h (2 Bft) 100 %
13.06.2018 17:50 15,7 C 65 % 1014,0 hPa 0,0 l/m 10,7 km/h (2 Bft) W-NW 301 9,1 C 15,7 km/h (3 Bft) 100 %
13.06.2018 17:51 15,7 C 66 % 1013,9 hPa 0,0 l/m 11,0 km/h (2 Bft) W-NW 283 9,4 C 22,0 km/h (4 Bft) 96 %
13.06.2018 17:52 15,7 C 66 % 1014,0 hPa 0,0 l/m 6,1 km/h (2 Bft) W-SW 257 9,4 C 9,4 km/h (2 Bft) 100 %
13.06.2018 17:53 15,7 C 67 % 1014,0 hPa 0,0 l/m 5,4 km/h (1 Bft) NW 311 9,6 C 9,4 km/h (2 Bft) 96 %
13.06.2018 17:54 15,7 C 66 % 1013,9 hPa 0,0 l/m 7,2 km/h (2 Bft) S-SW 205 9,4 C 15,7 km/h (3 Bft) 96 %
13.06.2018 17:55 15,7 C 67 % 1013,9 hPa 0,0 l/m 5,0 km/h (1 Bft) W-NW 282 9,6 C 12,6 km/h (3 Bft) 96 %
13.06.2018 17:57 15,7 C 66 % 1013,9 hPa 0,0 l/m 4,6 km/h (1 Bft) W-NW 286 9,4 C 9,4 km/h (2 Bft) 98 %
13.06.2018 17:58 15,7 C 66 % 1013,9 hPa 0,0 l/m 3,8 km/h (1 Bft) W-NW 290 9,4 C 6,3 km/h (2 Bft) 92 %
13.06.2018 17:59 15,7 C 66 % 1013,9 hPa 0,0 l/m 1,9 km/h (1 Bft) W 266 9,4 C 6,3 km/h (2 Bft) 100 %
13.06.2018 18:00 15,7 C 67 % 1013,9 hPa 0,0 l/m 4,6 km/h (1 Bft) W 268 9,6 C 12,6 km/h (3 Bft) 96 %
13.06.2018 18:01 15,6 C 66 % 1013,9 hPa 0,0 l/m 9,1 km/h (2 Bft) W-NW 290 9,3 C 18,8 km/h (3 Bft) 100 %
13.06.2018 18:02 15,6 C 67 % 1013,9 hPa 0,0 l/m 4,9 km/h (1 Bft) W-NW 293 9,5 C 9,4 km/h (2 Bft) 100 %
13.06.2018 18:03 15,6 C 67 % 1013,9 hPa 0,0 l/m 5,2 km/h (1 Bft) W-NW 302 9,5 C 9,4 km/h (2 Bft) 100 %
13.06.2018 18:04 15,6 C 66 % 1013,9 hPa 0,0 l/m 7,0 km/h (2 Bft) W-SW 255 9,3 C 15,7 km/h (3 Bft) 100 %
13.06.2018 18:05 15,5 C 66 % 1013,9 hPa 0,0 l/m 7,9 km/h (2 Bft) W-NW 287 9,2 C 15,7 km/h (3 Bft) 100 %
13.06.2018 18:06 15,5 C 67 % 1013,9 hPa 0,0 l/m 3,7 km/h (1 Bft) W 272 9,4 C 6,3 km/h (2 Bft) 100 %
13.06.2018 18:07 15,5 C 67 % 1013,9 hPa 0,0 l/m 6,4 km/h (2 Bft) W-NW 300 9,4 C 12,6 km/h (3 Bft) 100 %
13.06.2018 18:08 15,5 C 67 % 1013,9 hPa 0,0 l/m 3,0 km/h (1 Bft) NW 314 9,4 C 6,3 km/h (2 Bft) 100 %
13.06.2018 18:09 15,5 C 66 % 1013,9 hPa 0,0 l/m 7,2 km/h (2 Bft) SO 141 9,2 C 18,8 km/h (3 Bft) 100 %
13.06.2018 18:10 15,5 C 66 % 1013,9 hPa 0,0 l/m 0,5 km/h (0 Bft) S-SO 165 9,2 C 3,1 km/h (1 Bft) 100 %
13.06.2018 18:11 15,5 C 66 % 1014,0 hPa 0,0 l/m 7,8 km/h (2 Bft) W-NW 285 9,2 C 15,7 km/h (3 Bft) 100 %
13.06.2018 18:12 15,4 C 65 % 1014,0 hPa 0,0 l/m 6,7 km/h (2 Bft) W-NW 290 8,9 C 15,7 km/h (3 Bft) 100 %
13.06.2018 18:13 15,4 C 65 % 1014,0 hPa 0,0 l/m 9,7 km/h (2 Bft) W 278 8,9 C 15,7 km/h (3 Bft) 100 %
13.06.2018 18:14 15,4 C 66 % 1014,0 hPa 0,0 l/m 4,7 km/h (1 Bft) W 264 9,1 C 9,4 km/h (2 Bft) 100 %
13.06.2018 18:15 15,4 C 66 % 1014,0 hPa 0,0 l/m 5,8 km/h (2 Bft) W-NW 291 9,1 C 15,7 km/h (3 Bft) 100 %
13.06.2018 18:16 15,4 C 66 % 1014,0 hPa 0,0 l/m 0,5 km/h (0 Bft) W-NW 294 9,1 C 3,1 km/h (1 Bft) 100 %
13.06.2018 18:17 15,4 C 66 % 1014,0 hPa 0,0 l/m 7,4 km/h (2 Bft) SW 229 9,1 C 18,8 km/h (3 Bft) 96 %
13.06.2018 18:18 15,3 C 66 % 1014,0 hPa 0,0 l/m 4,3 km/h (1 Bft) W-NW 289 9,0 C 9,4 km/h (2 Bft) 100 %
13.06.2018 18:19 15,3 C 66 % 1014,0 hPa 0,0 l/m 1,2 km/h (1 Bft) W-NW 287 9,0 C 6,3 km/h (2 Bft) 100 %
13.06.2018 18:20 15,3 C 66 % 1014,0 hPa 0,0 l/m 3,8 km/h (1 Bft) W-NW 291 9,0 C 9,4 km/h (2 Bft) 100 %
13.06.2018 18:21 15,3 C 66 % 1014,1 hPa 0,0 l/m 1,6 km/h (1 Bft) W 280 9,0 C 6,3 km/h (2 Bft) 100 %
13.06.2018 18:22 15,3 C 67 % 1014,1 hPa 0,0 l/m 2,4 km/h (1 Bft) NW 309 9,2 C 3,1 km/h (1 Bft) 100 %
13.06.2018 18:23 15,3 C 66 % 1014,1 hPa 0,0 l/m 4,2 km/h (1 Bft) W 279 9,0 C 9,4 km/h (2 Bft) 100 %
13.06.2018 18:24 15,3 C 66 % 1014,0 hPa 0,0 l/m 4,2 km/h (1 Bft) SW 214 9,0 C 6,3 km/h (2 Bft) 100 %
13.06.2018 18:25 15,3 C 67 % 1014,0 hPa 0,0 l/m 9,6 km/h (2 Bft) W-NW 295 9,2 C 15,7 km/h (3 Bft) 100 %
13.06.2018 18:26 15,3 C 66 % 1014,1 hPa 0,0 l/m 7,6 km/h (2 Bft) SW 232 9,0 C 15,7 km/h (3 Bft) 100 %
13.06.2018 18:27 15,3 C 66 % 1014,1 hPa 0,0 l/m 2,4 km/h (1 Bft) N-NW 333 9,0 C 9,4 km/h (2 Bft) 100 %
13.06.2018 18:28 15,3 C 66 % 1014,0 hPa 0,0 l/m 3,1 km/h (1 Bft) N 354 9,0 C 6,3 km/h (2 Bft) 88 %
13.06.2018 18:29 15,3 C 67 % 1014,1 hPa 0,0 l/m 4,5 km/h (1 Bft) W-NW 300 9,2 C 18,8 km/h (3 Bft) 100 %
13.06.2018 18:30 15,3 C 66 % 1014,1 hPa 0,0 l/m 4,7 km/h (1 Bft) N-NW 345 9,0 C 15,7 km/h (3 Bft) 100 %
13.06.2018 18:31 15,3 C 66 % 1014,1 hPa 0,0 l/m 2,0 km/h (1 Bft) W 279 9,0 C 3,1 km/h (1 Bft) 100 %
13.06.2018 18:32 15,3 C 67 % 1014,1 hPa 0,0 l/m 3,3 km/h (1 Bft) W-NW 294 9,2 C 6,3 km/h (2 Bft) 100 %
13.06.2018 18:33 15,3 C 67 % 1014,1 hPa 0,0 l/m 4,8 km/h (1 Bft) W 271 9,2 C 9,4 km/h (2 Bft) 100 %
13.06.2018 18:34 15,3 C 67 % 1014,1 hPa 0,0 l/m 2,4 km/h (1 Bft) SW 225 9,2 C 3,1 km/h (1 Bft) 100 %
13.06.2018 18:35 15,3 C 67 % 1014,1 hPa 0,0 l/m 4,9 km/h (1 Bft) W 272 9,2 C 9,4 km/h (2 Bft) 100 %
13.06.2018 18:36 15,3 C 67 % 1014,2 hPa 0,0 l/m 0,4 km/h (0 Bft) NO 46 9,2 C 3,1 km/h (1 Bft) 100 %
13.06.2018 18:37 15,3 C 68 % 1014,2 hPa 0,0 l/m 1,2 km/h (1 Bft) N-NW 328 9,4 C 6,3 km/h (2 Bft) 100 %
13.06.2018 18:38 15,3 C 68 % 1014,1 hPa 0,0 l/m 0,3 km/h (0 Bft) W 280 9,4 C 3,1 km/h (1 Bft) 100 %
13.06.2018 18:39 15,3 C 68 % 1014,1 hPa 0,0 l/m 2,5 km/h (1 Bft) W-NW 293 9,4 C 9,4 km/h (2 Bft) 100 %
13.06.2018 18:40 15,3 C 67 % 1014,1 hPa 0,0 l/m 5,1 km/h (1 Bft) W-NW 300 9,2 C 9,4 km/h (2 Bft) 100 %
13.06.2018 18:42 15,3 C 68 % 1014,1 hPa 0,0 l/m 1,7 km/h (1 Bft) W-NW 302 9,4 C 9,4 km/h (2 Bft) 100 %
13.06.2018 18:43 15,3 C 68 % 1014,1 hPa 0,0 l/m 7,4 km/h (2 Bft) W-NW 290 9,4 C 15,7 km/h (3 Bft) 100 %
13.06.2018 18:44 15,3 C 68 % 1014,2 hPa 0,0 l/m 5,5 km/h (1 Bft) W 279 9,4 C 15,7 km/h (3 Bft) 100 %
13.06.2018 18:45 15,4 C 68 % 1014,1 hPa 0,0 l/m 5,8 km/h (2 Bft) W-NW 301 9,5 C 9,4 km/h (2 Bft) 100 %
13.06.2018 18:46 15,4 C 68 % 1014,1 hPa 0,0 l/m 1,8 km/h (1 Bft) S-SW 210 9,5 C 3,1 km/h (1 Bft) 100 %
13.06.2018 18:47 15,4 C 68 % 1014,2 hPa 0,0 l/m 0,0 km/h (0 Bft) W 268 9,5 C 0,0 km/h (0 Bft) 100 %
13.06.2018 18:48 15,4 C 68 % 1014,2 hPa 0,0 l/m 2,5 km/h (1 Bft) W-NW 287 9,5 C 6,3 km/h (2 Bft) 100 %
13.06.2018 18:49 15,4 C 68 % 1014,2 hPa 0,0 l/m 6,1 km/h (2 Bft) NW 317 9,5 C 12,6 km/h (3 Bft) 96 %
13.06.2018 18:50 15,4 C 67 % 1014,2 hPa 0,0 l/m 9,2 km/h (2 Bft) W-NW 291 9,3 C 15,7 km/h (3 Bft) 96 %
13.06.2018 18:51 15,4 C 67 % 1014,2 hPa 0,0 l/m 2,0 km/h (1 Bft) SW 231 9,3 C 9,4 km/h (2 Bft) 100 %
13.06.2018 18:52 15,4 C 68 % 1014,2 hPa 0,0 l/m 0,7 km/h (0 Bft) W 279 9,5 C 3,1 km/h (1 Bft) 96 %
13.06.2018 18:53 15,4 C 68 % 1014,2 hPa 0,0 l/m 1,4 km/h (1 Bft) W 262 9,5 C 3,1 km/h (1 Bft) 100 %
13.06.2018 18:54 15,5 C 67 % 1014,2 hPa 0,0 l/m 0,1 km/h (0 Bft) W 262 9,4 C 3,1 km/h (1 Bft) 97 %
13.06.2018 18:55 15,5 C 68 % 1014,2 hPa 0,0 l/m 0,4 km/h (0 Bft) W 274 9,6 C 3,1 km/h (1 Bft) 100 %
13.06.2018 18:56 15,6 C 67 % 1014,3 hPa 0,0 l/m 2,1 km/h (1 Bft) W 259 9,5 C 6,3 km/h (2 Bft) 97 %
13.06.2018 18:57 15,6 C 67 % 1014,2 hPa 0,0 l/m 1,6 km/h (1 Bft) NW 310 9,5 C 3,1 km/h (1 Bft) 92 %
13.06.2018 18:58 15,6 C 68 % 1014,2 hPa 0,0 l/m 0,0 km/h (0 Bft) NW 310 9,7 C 0,0 km/h (0 Bft) 100 %
13.06.2018 18:59 15,6 C 68 % 1014,2 hPa 0,0 l/m 3,6 km/h (1 Bft) W-SW 252 9,7 C 9,4 km/h (2 Bft) 100 %
13.06.2018 19:00 15,6 C 67 % 1014,2 hPa 0,0 l/m 3,7 km/h (1 Bft) W 278 9,5 C 9,4 km/h (2 Bft) 100 %
13.06.2018 19:02 15,5 C 67 % 1014,2 hPa 0,0 l/m 5,3 km/h (1 Bft) W-NW 301 9,4 C 12,6 km/h (3 Bft) 100 %
13.06.2018 19:03 15,4 C 67 % 1014,2 hPa 0,0 l/m 9,2 km/h (2 Bft) NW 307 9,3 C 12,6 km/h (3 Bft) 87 %
13.06.2018 19:04 15,4 C 67 % 1014,1 hPa 0,0 l/m 7,6 km/h (2 Bft) SW 216 9,3 C 18,8 km/h (3 Bft) 96 %
13.06.2018 19:05 15,4 C 68 % 1014,1 hPa 0,0 l/m 6,0 km/h (2 Bft) SW 226 9,5 C 12,6 km/h (3 Bft) 100 %
13.06.2018 19:06 15,4 C 67 % 1014,1 hPa 0,0 l/m 11,8 km/h (2 Bft) W-NW 285 9,3 C 18,8 km/h (3 Bft) 88 %
13.06.2018 19:07 15,3 C 68 % 1014,2 hPa 0,0 l/m 4,7 km/h (1 Bft) W-NW 290 9,4 C 12,6 km/h (3 Bft) 100 %
13.06.2018 19:08 15,3 C 67 % 1014,2 hPa 0,0 l/m 7,2 km/h (2 Bft) W-NW 287 9,2 C 9,4 km/h (2 Bft) 100 %
13.06.2018 19:09 15,3 C 68 % 1014,2 hPa 0,0 l/m 1,1 km/h (1 Bft) W-NW 288 9,4 C 6,3 km/h (2 Bft) 100 %
13.06.2018 19:10 15,3 C 68 % 1014,3 hPa 0,0 l/m 2,9 km/h (1 Bft) NW 304 9,4 C 6,3 km/h (2 Bft) 100 %
13.06.2018 19:11 15,3 C 67 % 1014,2 hPa 0,0 l/m 1,0 km/h (0 Bft) W 280 9,2 C 3,1 km/h (1 Bft) 100 %
13.06.2018 19:12 15,3 C 68 % 1014,1 hPa 0,0 l/m 4,8 km/h (1 Bft) W 269 9,4 C 9,4 km/h (2 Bft) 100 %
13.06.2018 19:13 15,3 C 68 % 1014,3 hPa 0,0 l/m 9,3 km/h (2 Bft) W 274 9,4 C 22,0 km/h (4 Bft) 100 %
13.06.2018 19:14 15,3 C 67 % 1014,2 hPa 0,0 l/m 4,5 km/h (1 Bft) W 274 9,2 C 12,6 km/h (3 Bft) 100 %
13.06.2018 19:15 15,3 C 67 % 1014,3 hPa 0,0 l/m 3,3 km/h (1 Bft) W-NW 300 9,2 C 12,6 km/h (3 Bft) 100 %
13.06.2018 19:16 15,3 C 67 % 1014,3 hPa 0,0 l/m 5,6 km/h (1 Bft) NW 316 9,2 C 15,7 km/h (3 Bft) 100 %
13.06.2018 19:17 15,3 C 67 % 1014,3 hPa 0,0 l/m 4,4 km/h (1 Bft) W-NW 290 9,2 C 15,7 km/h (3 Bft) 100 %
13.06.2018 19:18 15,3 C 68 % 1014,3 hPa 0,0 l/m 4,7 km/h (1 Bft) W-NW 286 9,4 C 12,6 km/h (3 Bft) 100 %
13.06.2018 19:19 15,3 C 68 % 1014,3 hPa 0,0 l/m 2,6 km/h (1 Bft) W-NW 300 9,4 C 6,3 km/h (2 Bft) 100 %
13.06.2018 19:20 15,3 C 68 % 1014,3 hPa 0,0 l/m 3,8 km/h (1 Bft) W 280 9,4 C 9,4 km/h (2 Bft) 100 %
13.06.2018 19:21 15,3 C 68 % 1014,4 hPa 0,0 l/m 0,4 km/h (0 Bft) W 267 9,4 C 3,1 km/h (1 Bft) 100 %
13.06.2018 19:22 15,3 C 68 % 1014,4 hPa 0,0 l/m 5,8 km/h (2 Bft) W-NW 298 9,4 C 9,4 km/h (2 Bft) 100 %
13.06.2018 19:23 15,3 C 67 % 1014,4 hPa 0,0 l/m 7,2 km/h (2 Bft) W 271 9,2 C 12,6 km/h (3 Bft) 100 %
13.06.2018 19:24 15,3 C 67 % 1014,4 hPa 0,0 l/m 3,4 km/h (1 Bft) W-NW 293 9,2 C 6,3 km/h (2 Bft) 100 %
13.06.2018 19:25 15,3 C 68 % 1014,4 hPa 0,0 l/m 2,1 km/h (1 Bft) NW 325 9,4 C 6,3 km/h (2 Bft) 100 %
13.06.2018 19:27 15,3 C 68 % 1014,4 hPa 0,0 l/m 5,4 km/h (1 Bft) W-SW 244 9,4 C 12,6 km/h (3 Bft) 98 %
13.06.2018 19:28 15,2 C 68 % 1014,4 hPa 0,0 l/m 5,6 km/h (1 Bft) W-SW 249 9,3 C 12,6 km/h (3 Bft) 100 %
13.06.2018 19:29 15,2 C 68 % 1014,4 hPa 0,0 l/m 7,1 km/h (2 Bft) W 276 9,3 C 15,7 km/h (3 Bft) 100 %
13.06.2018 19:30 15,2 C 68 % 1014,4 hPa 0,0 l/m 4,9 km/h (1 Bft) N-NW 336 9,3 C 6,3 km/h (2 Bft) 100 %
13.06.2018 19:31 15,2 C 68 % 1014,4 hPa 0,0 l/m 6,1 km/h (2 Bft) W-NW 295 9,3 C 12,6 km/h (3 Bft) 100 %
13.06.2018 19:32 15,2 C 68 % 1014,4 hPa 0,0 l/m 4,9 km/h (1 Bft) W-NW 286 9,3 C 9,4 km/h (2 Bft) 100 %
13.06.2018 19:33 15,2 C 69 % 1014,4 hPa 0,0 l/m 2,3 km/h (1 Bft) SW 215 9,6 C 6,3 km/h (2 Bft) 100 %
13.06.2018 19:34 15,2 C 69 % 1014,4 hPa 0,0 l/m 7,6 km/h (2 Bft) NW 312 9,6 C 12,6 km/h (3 Bft) 100 %
13.06.2018 19:35 15,1 C 68 % 1014,4 hPa 0,0 l/m 8,9 km/h (2 Bft) W 278 9,2 C 18,8 km/h (3 Bft) 100 %
13.06.2018 19:36 15,1 C 68 % 1014,4 hPa 0,0 l/m 4,4 km/h (1 Bft) W-NW 297 9,2 C 9,4 km/h (2 Bft) 100 %
13.06.2018 19:37 15,1 C 68 % 1014,5 hPa 0,0 l/m 6,0 km/h (2 Bft) W-NW 290 9,2 C 9,4 km/h (2 Bft) 100 %
13.06.2018 19:38 15,1 C 69 % 1014,5 hPa 0,0 l/m 3,9 km/h (1 Bft) W-NW 287 9,5 C 9,4 km/h (2 Bft) 100 %
13.06.2018 19:39 15,1 C 69 % 1014,5 hPa 0,0 l/m 2,7 km/h (1 Bft) W-NW 283 9,5 C 6,3 km/h (2 Bft) 100 %
13.06.2018 19:40 15,1 C 69 % 1014,5 hPa 0,0 l/m 4,2 km/h (1 Bft) NW 307 9,5 C 9,4 km/h (2 Bft) 100 %
13.06.2018 19:42 15,1 C 69 % 1014,6 hPa 0,0 l/m 5,3 km/h (1 Bft) NW 307 9,5 C 15,7 km/h (3 Bft) 96 %
13.06.2018 19:43 15,1 C 69 % 1014,6 hPa 0,0 l/m 1,9 km/h (1 Bft) W 264 9,5 C 3,1 km/h (1 Bft) 100 %
13.06.2018 19:44 15,1 C 69 % 1014,6 hPa 0,0 l/m 3,0 km/h (1 Bft) W-NW 298 9,5 C 6,3 km/h (2 Bft) 100 %
13.06.2018 19:45 15,1 C 69 % 1014,6 hPa 0,0 l/m 3,0 km/h (1 Bft) W-SW 255 9,5 C 6,3 km/h (2 Bft) 88 %
13.06.2018 19:46 15,1 C 69 % 1014,6 hPa 0,0 l/m 3,0 km/h (1 Bft) SW 227 9,5 C 15,7 km/h (3 Bft) 100 %
13.06.2018 19:47 15,1 C 69 % 1014,6 hPa 0,0 l/m 7,7 km/h (2 Bft) W-NW 286 9,5 C 15,7 km/h (3 Bft) 100 %
13.06.2018 19:48 15,1 C 69 % 1014,6 hPa 0,0 l/m 3,3 km/h (1 Bft) W-SW 255 9,5 C 6,3 km/h (2 Bft) 92 %
13.06.2018 19:49 15,1 C 69 % 1014,6 hPa 0,0 l/m 0,4 km/h (0 Bft) W 276 9,5 C 3,1 km/h (1 Bft) 96 %
13.06.2018 19:50 15,1 C 69 % 1014,6 hPa 0,0 l/m 3,9 km/h (1 Bft) W-NW 300 9,5 C 9,4 km/h (2 Bft) 100 %
13.06.2018 19:51 15,1 C 69 % 1014,7 hPa 0,0 l/m 4,3 km/h (1 Bft) W 264 9,5 C 9,4 km/h (2 Bft) 96 %
13.06.2018 19:52 15,1 C 69 % 1014,7 hPa 0,0 l/m 5,8 km/h (2 Bft) W 281 9,5 C 15,7 km/h (3 Bft) 100 %
13.06.2018 19:53 15,1 C 69 % 1014,7 hPa 0,0 l/m 4,6 km/h (1 Bft) S-SW 209 9,5 C 9,4 km/h (2 Bft) 96 %
13.06.2018 19:54 15,1 C 69 % 1014,7 hPa 0,0 l/m 5,6 km/h (1 Bft) NW 313 9,5 C 12,6 km/h (3 Bft) 100 %
13.06.2018 19:55 15,1 C 69 % 1014,7 hPa 0,0 l/m 3,0 km/h (1 Bft) W 267 9,5 C 6,3 km/h (2 Bft) 92 %
13.06.2018 19:56 15,1 C 68 % 1014,7 hPa 0,0 l/m 9,5 km/h (2 Bft) S-SW 207 9,2 C 18,8 km/h (3 Bft) 100 %
13.06.2018 19:57 15,1 C 69 % 1014,7 hPa 0,0 l/m 4,1 km/h (1 Bft) NW 308 9,5 C 9,4 km/h (2 Bft) 100 %
13.06.2018 19:58 15,1 C 69 % 1014,7 hPa 0,0 l/m 11,0 km/h (2 Bft) N-NW 335 9,5 C 22,0 km/h (4 Bft) 100 %
13.06.2018 19:59 15,1 C 68 % 1014,7 hPa 0,0 l/m 5,5 km/h (1 Bft) W-NW 288 9,2 C 12,6 km/h (3 Bft) 96 %
13.06.2018 20:00 15,1 C 68 % 1014,6 hPa 0,0 l/m 2,5 km/h (1 Bft) W-NW 295 9,2 C 6,3 km/h (2 Bft) 100 %
13.06.2018 20:01 15,1 C 68 % 1014,6 hPa 0,0 l/m 4,4 km/h (1 Bft) W-NW 283 9,2 C 9,4 km/h (2 Bft) 100 %
13.06.2018 20:02 15,1 C 68 % 1014,6 hPa 0,0 l/m 8,4 km/h (2 Bft) W 278 9,2 C 15,7 km/h (3 Bft) 100 %
13.06.2018 20:03 15,1 C 68 % 1014,7 hPa 0,0 l/m 3,0 km/h (1 Bft) W-SW 246 9,2 C 6,3 km/h (2 Bft) 100 %
13.06.2018 20:04 15,1 C 69 % 1014,7 hPa 0,0 l/m 4,6 km/h (1 Bft) W-NW 291 9,5 C 12,6 km/h (3 Bft) 100 %
13.06.2018 20:05 15,0 C 68 % 1014,7 hPa 0,0 l/m 7,4 km/h (2 Bft) W 264 9,1 C 12,6 km/h (3 Bft) 100 %
13.06.2018 20:06 15,0 C 69 % 1014,6 hPa 0,0 l/m 5,0 km/h (1 Bft) W-NW 302 9,4 C 12,6 km/h (3 Bft) 100 %
13.06.2018 20:07 15,0 C 68 % 1014,6 hPa 0,0 l/m 5,9 km/h (2 Bft) W 262 9,1 C 9,4 km/h (2 Bft) 100 %
13.06.2018 20:08 15,0 C 68 % 1014,7 hPa 0,0 l/m 6,6 km/h (2 Bft) W 260 9,1 C 12,6 km/h (3 Bft) 100 %
13.06.2018 20:09 15,0 C 69 % 1014,7 hPa 0,0 l/m 2,9 km/h (1 Bft) W-NW 290 9,4 C 6,3 km/h (2 Bft) 100 %
13.06.2018 20:10 15,0 C 69 % 1014,7 hPa 0,0 l/m 5,6 km/h (1 Bft) W-NW 289 9,4 C 12,6 km/h (3 Bft) 100 %
13.06.2018 20:11 15,0 C 68 % 1014,7 hPa 0,0 l/m 0,5 km/h (0 Bft) W 262 9,1 C 6,3 km/h (2 Bft) 100 %
13.06.2018 20:12 15,0 C 69 % 1014,7 hPa 0,0 l/m 5,2 km/h (1 Bft) W-SW 245 9,4 C 9,4 km/h (2 Bft) 100 %
13.06.2018 20:13 15,0 C 69 % 1014,7 hPa 0,0 l/m 4,2 km/h (1 Bft) NW 307 9,4 C 9,4 km/h (2 Bft) 100 %
13.06.2018 20:14 15,0 C 69 % 1014,7 hPa 0,0 l/m 5,5 km/h (1 Bft) W 263 9,4 C 12,6 km/h (3 Bft) 100 %
13.06.2018 20:15 15,0 C 68 % 1014,8 hPa 0,0 l/m 0,3 km/h (0 Bft) NW 309 9,1 C 3,1 km/h (1 Bft) 100 %
13.06.2018 20:16 15,0 C 68 % 1014,7 hPa 0,0 l/m 0,5 km/h (0 Bft) W-NW 298 9,1 C 3,1 km/h (1 Bft) 100 %
13.06.2018 20:17 15,0 C 69 % 1014,7 hPa 0,0 l/m 4,1 km/h (1 Bft) W-NW 283 9,4 C 9,4 km/h (2 Bft) 100 %
13.06.2018 20:18 14,9 C 68 % 1014,8 hPa 0,0 l/m 8,1 km/h (2 Bft) W-NW 297 9,0 C 12,6 km/h (3 Bft) 100 %
13.06.2018 20:19 15,0 C 68 % 1014,8 hPa 0,0 l/m 4,4 km/h (1 Bft) W-NW 297 9,1 C 12,6 km/h (3 Bft) 100 %
13.06.2018 20:20 15,0 C 69 % 1014,8 hPa 0,0 l/m 0,0 km/h (0 Bft) NO 35 9,4 C 0,0 km/h (0 Bft) 100 %
13.06.2018 20:22 14,9 C 68 % 1014,9 hPa 0,0 l/m 2,6 km/h (1 Bft) NW 308 9,0 C 9,4 km/h (2 Bft) 100 %
13.06.2018 20:23 14,9 C 68 % 1014,9 hPa 0,0 l/m 2,7 km/h (1 Bft) W-NW 295 9,0 C 6,3 km/h (2 Bft) 100 %
13.06.2018 20:24 15,0 C 69 % 1014,8 hPa 0,0 l/m 0,1 km/h (0 Bft) NW 319 9,4 C 3,1 km/h (1 Bft) 100 %
13.06.2018 20:25 14,9 C 69 % 1014,8 hPa 0,0 l/m 1,6 km/h (1 Bft) NW 325 9,3 C 3,1 km/h (1 Bft) 100 %
13.06.2018 20:27 14,9 C 68 % 1014,8 hPa 0,0 l/m 2,6 km/h (1 Bft) W 267 9,0 C 9,4 km/h (2 Bft) 100 %
13.06.2018 20:28 14,9 C 69 % 1014,8 hPa 0,0 l/m 7,5 km/h (2 Bft) W-NW 289 9,3 C 12,6 km/h (3 Bft) 100 %
13.06.2018 20:29 14,9 C 68 % 1014,8 hPa 0,0 l/m 7,2 km/h (2 Bft) NW 307 9,0 C 9,4 km/h (2 Bft) 100 %
13.06.2018 20:30 14,9 C 68 % 1014,8 hPa 0,0 l/m 4,6 km/h (1 Bft) NW 309 9,0 C 6,3 km/h (2 Bft) 100 %
13.06.2018 20:31 14,9 C 69 % 1014,8 hPa 0,0 l/m 0,8 km/h (0 Bft) W-SW 251 9,3 C 3,1 km/h (1 Bft) 100 %
13.06.2018 20:32 14,9 C 69 % 1014,8 hPa 0,0 l/m 0,3 km/h (0 Bft) W 270 9,3 C 3,1 km/h (1 Bft) 99 %
13.06.2018 20:33 14,9 C 69 % 1014,8 hPa 0,0 l/m 0,3 km/h (0 Bft) W-NW 290 9,3 C 3,1 km/h (1 Bft) 100 %
13.06.2018 20:34 14,9 C 69 % 1014,8 hPa 0,0 l/m 1,8 km/h (1 Bft) W-SW 252 9,3 C 6,3 km/h (2 Bft) 100 %
13.06.2018 20:35 14,8 C 69 % 1014,8 hPa 0,0 l/m 3,0 km/h (1 Bft) W-SW 248 9,2 C 6,3 km/h (2 Bft) 100 %
13.06.2018 20:36 14,8 C 69 % 1014,8 hPa 0,0 l/m 0,0 km/h (0 Bft) W 271 9,2 C 0,0 km/h (0 Bft) 100 %
13.06.2018 20:37 14,8 C 69 % 1014,8 hPa 0,0 l/m 0,1 km/h (0 Bft) W 271 9,2 C 3,1 km/h (1 Bft) 100 %
13.06.2018 20:38 14,8 C 70 % 1014,8 hPa 0,0 l/m 0,0 km/h (0 Bft) W 271 9,4 C 0,0 km/h (0 Bft) 100 %
13.06.2018 20:39 14,9 C 70 % 1014,8 hPa 0,0 l/m 0,0 km/h (0 Bft) W 271 9,5 C 0,0 km/h (0 Bft) 92 %
13.06.2018 20:40 14,9 C 70 % 1014,8 hPa 0,0 l/m 0,4 km/h (0 Bft) W 281 9,5 C 3,1 km/h (1 Bft) 100 %
13.06.2018 20:41 15,0 C 70 % 1014,8 hPa 0,0 l/m 0,7 km/h (0 Bft) W 274 9,6 C 3,1 km/h (1 Bft) 100 %
13.06.2018 20:42 15,1 C 70 % 1014,8 hPa 0,0 l/m 0,4 km/h (0 Bft) W 274 9,7 C 3,1 km/h (1 Bft) 100 %
13.06.2018 20:43 15,1 C 69 % 1014,8 hPa 0,0 l/m 1,8 km/h (1 Bft) W-NW 283 9,5 C 6,3 km/h (2 Bft) 100 %
13.06.2018 20:44 15,2 C 69 % 1014,8 hPa 0,0 l/m 0,2 km/h (0 Bft) W 272 9,6 C 3,1 km/h (1 Bft) 100 %
13.06.2018 20:45 15,2 C 69 % 1014,9 hPa 0,0 l/m 0,0 km/h (0 Bft) W 272 9,6 C 0,0 km/h (0 Bft) 100 %
13.06.2018 20:47 15,3 C 69 % 1014,9 hPa 0,0 l/m 0,5 km/h (0 Bft) W 276 9,6 C 3,1 km/h (1 Bft) 98 %
13.06.2018 20:48 15,3 C 69 % 1014,9 hPa 0,0 l/m 0,0 km/h (0 Bft) SW 236 9,6 C 0,0 km/h (0 Bft) 96 %
13.06.2018 20:49 15,4 C 69 % 1014,9 hPa 0,0 l/m 0,3 km/h (0 Bft) W-SW 255 9,7 C 3,1 km/h (1 Bft) 100 %
13.06.2018 20:50 15,4 C 69 % 1014,9 hPa 0,0 l/m 2,4 km/h (1 Bft) W 266 9,7 C 3,1 km/h (1 Bft) 97 %
13.06.2018 20:51 15,4 C 68 % 1015,0 hPa 0,0 l/m 1,0 km/h (0 Bft) W-NW 294 9,5 C 3,1 km/h (1 Bft) 100 %
13.06.2018 20:52 15,4 C 69 % 1015,0 hPa 0,0 l/m 0,6 km/h (0 Bft) W 264 9,7 C 3,1 km/h (1 Bft) 93 %
13.06.2018 20:53 15,4 C 68 % 1015,0 hPa 0,0 l/m 0,9 km/h (0 Bft) W 273 9,5 C 3,1 km/h (1 Bft) 100 %
13.06.2018 20:54 15,4 C 68 % 1015,0 hPa 0,0 l/m 0,1 km/h (0 Bft) W 273 9,5 C 3,1 km/h (1 Bft) 96 %
13.06.2018 20:55 15,4 C 68 % 1015,0 hPa 0,0 l/m 0,0 km/h (0 Bft) W 273 9,5 C 0,0 km/h (0 Bft) 100 %
13.06.2018 20:56 15,4 C 68 % 1015,0 hPa 0,0 l/m 0,0 km/h (0 Bft) W 273 9,5 C 0,0 km/h (0 Bft) 96 %
13.06.2018 20:57 15,4 C 69 % 1015,0 hPa 0,0 l/m 0,7 km/h (0 Bft) W-NW 292 9,7 C 3,1 km/h (1 Bft) 96 %
13.06.2018 20:58 15,3 C 68 % 1015,0 hPa 0,0 l/m 3,5 km/h (1 Bft) W 273 9,4 C 6,3 km/h (2 Bft) 100 %
13.06.2018 20:59 15,3 C 68 % 1014,9 hPa 0,0 l/m 3,0 km/h (1 Bft) W 268 9,4 C 6,3 km/h (2 Bft) 100 %
13.06.2018 21:00 15,2 C 68 % 1015,0 hPa 0,0 l/m 0,4 km/h (0 Bft) W 269 9,3 C 3,1 km/h (1 Bft) 100 %
13.06.2018 21:01 15,2 C 69 % 1014,9 hPa 0,0 l/m 0,0 km/h (0 Bft) W 269 9,6 C 0,0 km/h (0 Bft) 100 %
13.06.2018 21:02 15,1 C 69 % 1014,9 hPa 0,0 l/m 0,9 km/h (0 Bft) W-NW 287 9,5 C 3,1 km/h (1 Bft) 100 %
13.06.2018 21:03 15,1 C 69 % 1014,9 hPa 0,0 l/m 1,2 km/h (1 Bft) W-NW 283 9,5 C 3,1 km/h (1 Bft) 100 %
13.06.2018 21:04 15,1 C 70 % 1014,9 hPa 0,0 l/m 0,1 km/h (0 Bft) W 281 9,7 C 3,1 km/h (1 Bft) 100 %
13.06.2018 21:05 15,0 C 70 % 1015,0 hPa 0,0 l/m 0,0 km/h (0 Bft) W 281 9,6 C 0,0 km/h (0 Bft) 100 %
13.06.2018 21:06 14,9 C 70 % 1014,9 hPa 0,0 l/m 0,0 km/h (0 Bft) W 281 9,5 C 0,0 km/h (0 Bft) 96 %
13.06.2018 21:07 14,9 C 70 % 1014,9 hPa 0,0 l/m 2,2 km/h (1 Bft) W-NW 285 9,5 C 6,3 km/h (2 Bft) 100 %
13.06.2018 21:08 14,9 C 70 % 1014,9 hPa 0,0 l/m 1,9 km/h (1 Bft) W-NW 293 9,5 C 6,3 km/h (2 Bft) 100 %
13.06.2018 21:09 14,8 C 70 % 1015,0 hPa 0,0 l/m 0,1 km/h (0 Bft) W-NW 293 9,4 C 3,1 km/h (1 Bft) 100 %
13.06.2018 21:10 14,8 C 71 % 1015,0 hPa 0,0 l/m 0,1 km/h (0 Bft) W-NW 293 9,6 C 3,1 km/h (1 Bft) 100 %
13.06.2018 21:12 14,7 C 71 % 1015,0 hPa 0,0 l/m 1,0 km/h (0 Bft) W-SW 250 9,5 C 3,1 km/h (1 Bft) 100 %
13.06.2018 21:13 14,7 C 70 % 1015,0 hPa 0,0 l/m 0,5 km/h (0 Bft) W-NW 283 9,3 C 3,1 km/h (1 Bft) 100 %
13.06.2018 21:14 14,7 C 71 % 1015,0 hPa 0,0 l/m 1,3 km/h (1 Bft) W-NW 291 9,5 C 3,1 km/h (1 Bft) 100 %
13.06.2018 21:15 14,7 C 71 % 1015,0 hPa 0,0 l/m 0,1 km/h (0 Bft) W-NW 291 9,5 C 3,1 km/h (1 Bft) 100 %
13.06.2018 21:16 14,6 C 71 % 1015,0 hPa 0,0 l/m 1,5 km/h (1 Bft) NW 311 9,4 C 6,3 km/h (2 Bft) 100 %
13.06.2018 21:17 14,6 C 71 % 1015,0 hPa 0,0 l/m 0,6 km/h (0 Bft) NW 307 9,4 C 3,1 km/h (1 Bft) 100 %
13.06.2018 21:18 14,6 C 71 % 1015,1 hPa 0,0 l/m 0,0 km/h (0 Bft) W 259 9,4 C 0,0 km/h (0 Bft) 100 %
13.06.2018 21:19 14,6 C 72 % 1015,0 hPa 0,0 l/m 0,1 km/h (0 Bft) W-SW 257 9,6 C 3,1 km/h (1 Bft) 99 %
13.06.2018 21:20 14,5 C 72 % 1015,0 hPa 0,0 l/m 0,3 km/h (0 Bft) W-SW 257 9,5 C 3,1 km/h (1 Bft) 100 %
13.06.2018 21:21 14,5 C 72 % 1015,0 hPa 0,0 l/m 0,0 km/h (0 Bft) W 269 9,5 C 0,0 km/h (0 Bft) 100 %
13.06.2018 21:22 14,4 C 72 % 1015,0 hPa 0,0 l/m 0,0 km/h (0 Bft) W 269 9,4 C 0,0 km/h (0 Bft) 100 %
13.06.2018 21:23 14,4 C 72 % 1015,0 hPa 0,0 l/m 0,0 km/h (0 Bft) W 269 9,4 C 0,0 km/h (0 Bft) 100 %
13.06.2018 21:24 14,4 C 72 % 1015,0 hPa 0,0 l/m 0,0 km/h (0 Bft) W 269 9,4 C 0,0 km/h (0 Bft) 100 %
13.06.2018 21:25 14,4 C 72 % 1015,0 hPa 0,0 l/m 0,0 km/h (0 Bft) W 269 9,4 C 0,0 km/h (0 Bft) 100 %
13.06.2018 21:26 14,4 C 73 % 1015,1 hPa 0,0 l/m 0,2 km/h (0 Bft) W-SW 240 9,6 C 3,1 km/h (1 Bft) 100 %
13.06.2018 21:27 14,3 C 72 % 1015,1 hPa 0,0 l/m 0,4 km/h (0 Bft) W 264 9,3 C 3,1 km/h (1 Bft) 100 %
13.06.2018 21:28 14,3 C 73 % 1015,1 hPa 0,0 l/m 0,0 km/h (0 Bft) W 264 9,5 C 0,0 km/h (0 Bft) 100 %
13.06.2018 21:29 14,3 C 73 % 1015,1 hPa 0,0 l/m 1,8 km/h (1 Bft) W-NW 283 9,5 C 6,3 km/h (2 Bft) 100 %
13.06.2018 21:30 14,3 C 72 % 1015,1 hPa 0,0 l/m 1,6 km/h (1 Bft) W-NW 294 9,3 C 6,3 km/h (2 Bft) 100 %
13.06.2018 21:32 14,2 C 73 % 1015,2 hPa 0,0 l/m 0,2 km/h (0 Bft) W-NW 287 9,4 C 3,1 km/h (1 Bft) 98 %
13.06.2018 21:33 14,2 C 73 % 1015,2 hPa 0,0 l/m 0,0 km/h (0 Bft) W-NW 287 9,4 C 0,0 km/h (0 Bft) 100 %
13.06.2018 21:34 14,2 C 74 % 1015,2 hPa 0,0 l/m 0,0 km/h (0 Bft) W-NW 287 9,6 C 0,0 km/h (0 Bft) 100 %
13.06.2018 21:35 14,2 C 74 % 1015,2 hPa 0,0 l/m 0,2 km/h (0 Bft) W-NW 287 9,6 C 3,1 km/h (1 Bft) 100 %
13.06.2018 21:37 14,1 C 73 % 1015,3 hPa 0,0 l/m 1,6 km/h (1 Bft) W-NW 288 9,3 C 6,3 km/h (2 Bft) 100 %
13.06.2018 21:38 14,1 C 73 % 1015,3 hPa 0,0 l/m 0,0 km/h (0 Bft) W-NW 289 9,3 C 0,0 km/h (0 Bft) 100 %
13.06.2018 21:39 14,1 C 73 % 1015,3 hPa 0,0 l/m 0,0 km/h (0 Bft) W-NW 288 9,3 C 0,0 km/h (0 Bft) 97 %
13.06.2018 21:40 14,1 C 73 % 1015,2 hPa 0,0 l/m 0,0 km/h (0 Bft) W-NW 288 9,3 C 0,0 km/h (0 Bft) 100 %
13.06.2018 21:41 14,1 C 73 % 1015,3 hPa 0,0 l/m 0,0 km/h (0 Bft) W-NW 289 9,3 C 0,0 km/h (0 Bft) 96 %
13.06.2018 21:42 14,0 C 73 % 1015,3 hPa 0,0 l/m 0,0 km/h (0 Bft) W 281 9,2 C 0,0 km/h (0 Bft) 96 %
13.06.2018 21:43 13,9 C 73 % 1015,3 hPa 0,0 l/m 0,0 km/h (0 Bft) W 281 9,1 C 0,0 km/h (0 Bft) 100 %
13.06.2018 21:44 13,9 C 73 % 1015,3 hPa 0,0 l/m 0,3 km/h (0 Bft) W 274 9,1 C 3,1 km/h (1 Bft) 100 %
13.06.2018 21:45 13,9 C 74 % 1015,3 hPa 0,0 l/m 0,0 km/h (0 Bft) W 274 9,3 C 0,0 km/h (0 Bft) 96 %
13.06.2018 21:46 13,8 C 74 % 1015,3 hPa 0,0 l/m 0,0 km/h (0 Bft) W 274 9,2 C 0,0 km/h (0 Bft) 100 %
13.06.2018 21:47 13,8 C 74 % 1015,3 hPa 0,0 l/m 0,1 km/h (0 Bft) W 274 9,2 C 3,1 km/h (1 Bft) 96 %
13.06.2018 21:48 13,8 C 74 % 1015,3 hPa 0,0 l/m 0,0 km/h (0 Bft) W 274 9,2 C 0,0 km/h (0 Bft) 100 %
13.06.2018 21:49 13,8 C 74 % 1015,3 hPa 0,0 l/m 0,1 km/h (0 Bft) W 274 9,2 C 3,1 km/h (1 Bft) 96 %
13.06.2018 21:50 13,7 C 74 % 1015,3 hPa 0,0 l/m 0,0 km/h (0 Bft) W-SW 239 9,2 C 0,0 km/h (0 Bft) 100 %
13.06.2018 21:52 13,7 C 74 % 1015,3 hPa 0,0 l/m 0,2 km/h (0 Bft) NW 311 9,2 C 3,1 km/h (1 Bft) 98 %
13.06.2018 21:53 13,7 C 74 % 1015,3 hPa 0,0 l/m 0,0 km/h (0 Bft) NW 311 9,2 C 0,0 km/h (0 Bft) 92 %
13.06.2018 21:54 13,7 C 75 % 1015,3 hPa 0,0 l/m 0,0 km/h (0 Bft) NW 311 9,3 C 0,0 km/h (0 Bft) 100 %
13.06.2018 21:55 13,7 C 75 % 1015,3 hPa 0,0 l/m 0,0 km/h (0 Bft) NW 312 9,3 C 0,0 km/h (0 Bft) 96 %
13.06.2018 21:56 13,6 C 75 % 1015,3 hPa 0,0 l/m 0,0 km/h (0 Bft) NW 311 9,3 C 0,0 km/h (0 Bft) 96 %
13.06.2018 21:57 13,6 C 75 % 1015,3 hPa 0,0 l/m 0,0 km/h (0 Bft) NW 311 9,3 C 0,0 km/h (0 Bft) 100 %
13.06.2018 21:58 13,6 C 75 % 1015,3 hPa 0,0 l/m 0,0 km/h (0 Bft) NW 311 9,3 C 0,0 km/h (0 Bft) 96 %
13.06.2018 21:59 13,5 C 76 % 1015,4 hPa 0,0 l/m 0,0 km/h (0 Bft) NW 311 9,4 C 0,0 km/h (0 Bft) 100 %
13.06.2018 22:00 13,5 C 75 % 1015,4 hPa 0,0 l/m 0,0 km/h (0 Bft) NW 311 9,2 C 0,0 km/h (0 Bft) 100 %
13.06.2018 22:01 13,4 C 75 % 1015,4 hPa 0,0 l/m 0,0 km/h (0 Bft) NW 311 9,1 C 0,0 km/h (0 Bft) 100 %
13.06.2018 22:02 13,4 C 76 % 1015,4 hPa 0,0 l/m 0,0 km/h (0 Bft) NW 311 9,3 C 0,0 km/h (0 Bft) 100 %
13.06.2018 22:03 13,4 C 76 % 1015,4 hPa 0,0 l/m 0,0 km/h (0 Bft) NW 311 9,3 C 0,0 km/h (0 Bft) 100 %
13.06.2018 22:04 13,3 C 76 % 1015,4 hPa 0,0 l/m 0,0 km/h (0 Bft) NW 311 9,2 C 0,0 km/h (0 Bft) 100 %
13.06.2018 22:05 13,3 C 76 % 1015,4 hPa 0,0 l/m 0,0 km/h (0 Bft) NW 311 9,2 C 0,0 km/h (0 Bft) 100 %
13.06.2018 22:06 13,3 C 76 % 1015,4 hPa 0,0 l/m 0,0 km/h (0 Bft) NW 311 9,2 C 0,0 km/h (0 Bft) 100 %
13.06.2018 22:07 13,2 C 76 % 1015,4 hPa 0,0 l/m 0,0 km/h (0 Bft) NW 311 9,1 C 0,0 km/h (0 Bft) 100 %
13.06.2018 22:08 13,2 C 76 % 1015,4 hPa 0,0 l/m 0,0 km/h (0 Bft) NW 311 9,1 C 0,0 km/h (0 Bft) 100 %
13.06.2018 22:09 13,2 C 77 % 1015,3 hPa 0,0 l/m 0,6 km/h (0 Bft) NW 308 9,3 C 3,1 km/h (1 Bft) 100 %
13.06.2018 22:10 13,2 C 77 % 1015,4 hPa 0,0 l/m 0,0 km/h (0 Bft) NW 308 9,3 C 0,0 km/h (0 Bft) 100 %
13.06.2018 22:11 13,1 C 77 % 1015,4 hPa 0,0 l/m 0,0 km/h (0 Bft) NW 308 9,2 C 0,0 km/h (0 Bft) 100 %
13.06.2018 22:12 13,1 C 77 % 1015,3 hPa 0,0 l/m 0,0 km/h (0 Bft) NW 308 9,2 C 0,0 km/h (0 Bft) 100 %
13.06.2018 22:13 13,1 C 77 % 1015,3 hPa 0,0 l/m 0,0 km/h (0 Bft) NW 308 9,2 C 0,0 km/h (0 Bft) 100 %
13.06.2018 22:14 13,1 C 77 % 1015,3 hPa 0,0 l/m 1,2 km/h (1 Bft) W-NW 302 9,2 C 3,1 km/h (1 Bft) 100 %
13.06.2018 22:15 13,0 C 77 % 1015,3 hPa 0,0 l/m 0,7 km/h (0 Bft) W-NW 294 9,1 C 3,1 km/h (1 Bft) 100 %
13.06.2018 22:16 12,9 C 77 % 1015,4 hPa 0,0 l/m 0,7 km/h (0 Bft) W-NW 293 9,0 C 6,3 km/h (2 Bft) 100 %
13.06.2018 22:17 12,9 C 77 % 1015,4 hPa 0,0 l/m 1,6 km/h (1 Bft) W-NW 293 9,0 C 6,3 km/h (2 Bft) 100 %
13.06.2018 22:18 12,9 C 77 % 1015,4 hPa 0,0 l/m 0,3 km/h (0 Bft) W-NW 293 9,0 C 3,1 km/h (1 Bft) 100 %
13.06.2018 22:19 12,9 C 77 % 1015,4 hPa 0,0 l/m 0,1 km/h (0 Bft) W-NW 293 9,0 C 3,1 km/h (1 Bft) 100 %
13.06.2018 22:20 12,8 C 77 % 1015,4 hPa 0,0 l/m 0,1 km/h (0 Bft) W-NW 290 8,9 C 3,1 km/h (1 Bft) 100 %
13.06.2018 22:21 12,8 C 77 % 1015,5 hPa 0,0 l/m 0,0 km/h (0 Bft) W-NW 290 8,9 C 0,0 km/h (0 Bft) 100 %
13.06.2018 22:22 12,8 C 77 % 1015,5 hPa 0,0 l/m 0,1 km/h (0 Bft) W-NW 290 8,9 C 3,1 km/h (1 Bft) 100 %
13.06.2018 22:23 12,8 C 77 % 1015,5 hPa 0,0 l/m 0,7 km/h (0 Bft) W 273 8,9 C 3,1 km/h (1 Bft) 100 %
13.06.2018 22:24 12,7 C 77 % 1015,5 hPa 0,0 l/m 0,0 km/h (0 Bft) W 273 8,8 C 0,0 km/h (0 Bft) 100 %
13.06.2018 22:25 12,7 C 77 % 1015,4 hPa 0,0 l/m 0,1 km/h (0 Bft) W 273 8,8 C 3,1 km/h (1 Bft) 100 %
13.06.2018 22:27 12,6 C 77 % 1015,4 hPa 0,0 l/m 0,0 km/h (0 Bft) W 273 8,7 C 0,0 km/h (0 Bft) 100 %
13.06.2018 22:28 12,6 C 77 % 1015,4 hPa 0,0 l/m 0,0 km/h (0 Bft) W 273 8,7 C 0,0 km/h (0 Bft) 100 %
13.06.2018 22:29 12,6 C 77 % 1015,4 hPa 0,0 l/m 0,1 km/h (0 Bft) W 273 8,7 C 3,1 km/h (1 Bft) 100 %
13.06.2018 22:30 12,6 C 77 % 1015,4 hPa 0,0 l/m 0,2 km/h (0 Bft) W-NW 286 8,7 C 3,1 km/h (1 Bft) 100 %
13.06.2018 22:31 12,5 C 78 % 1015,4 hPa 0,0 l/m 0,4 km/h (0 Bft) W-NW 283 8,8 C 3,1 km/h (1 Bft) 100 %
13.06.2018 22:32 12,5 C 78 % 1015,4 hPa 0,0 l/m 0,9 km/h (0 Bft) W-NW 283 8,8 C 3,1 km/h (1 Bft) 100 %
13.06.2018 22:33 12,4 C 78 % 1015,4 hPa 0,0 l/m 0,0 km/h (0 Bft) W-NW 291 8,7 C 0,0 km/h (0 Bft) 100 %
13.06.2018 22:34 12,4 C 78 % 1015,4 hPa 0,0 l/m 0,1 km/h (0 Bft) W-NW 291 8,7 C 3,1 km/h (1 Bft) 96 %
13.06.2018 22:35 12,4 C 78 % 1015,4 hPa 0,0 l/m 0,0 km/h (0 Bft) W-NW 290 8,7 C 0,0 km/h (0 Bft) 100 %
13.06.2018 22:36 12,4 C 78 % 1015,4 hPa 0,0 l/m 0,0 km/h (0 Bft) W-NW 290 8,7 C 0,0 km/h (0 Bft) 100 %
13.06.2018 22:37 12,3 C 78 % 1015,4 hPa 0,0 l/m 0,0 km/h (0 Bft) W-NW 290 8,6 C 0,0 km/h (0 Bft) 100 %
13.06.2018 22:38 12,3 C 78 % 1015,4 hPa 0,0 l/m 0,3 km/h (0 Bft) W-SW 246 8,6 C 3,1 km/h (1 Bft) 100 %
13.06.2018 22:39 12,3 C 78 % 1015,4 hPa 0,0 l/m 0,0 km/h (0 Bft) W-SW 248 8,6 C 0,0 km/h (0 Bft) 100 %
13.06.2018 22:40 12,3 C 78 % 1015,5 hPa 0,0 l/m 0,0 km/h (0 Bft) W-SW 248 8,6 C 0,0 km/h (0 Bft) 100 %
13.06.2018 22:41 12,2 C 78 % 1015,5 hPa 0,0 l/m 0,0 km/h (0 Bft) W-SW 248 8,5 C 0,0 km/h (0 Bft) 100 %
13.06.2018 22:42 12,2 C 78 % 1015,5 hPa 0,0 l/m 0,0 km/h (0 Bft) W-SW 249 8,5 C 0,0 km/h (0 Bft) 100 %
13.06.2018 22:43 12,2 C 78 % 1015,5 hPa 0,0 l/m 0,0 km/h (0 Bft) W-SW 254 8,5 C 0,0 km/h (0 Bft) 100 %
13.06.2018 22:44 12,2 C 78 % 1015,5 hPa 0,0 l/m 0,0 km/h (0 Bft) W-SW 254 8,5 C 0,0 km/h (0 Bft) 96 %
13.06.2018 22:45 12,2 C 78 % 1015,6 hPa 0,0 l/m 0,0 km/h (0 Bft) W-SW 254 8,5 C 0,0 km/h (0 Bft) 92 %
13.06.2018 22:47 12,1 C 78 % 1015,6 hPa 0,0 l/m 0,1 km/h (0 Bft) W-SW 254 8,4 C 3,1 km/h (1 Bft) 85 %
13.06.2018 22:48 12,1 C 78 % 1015,6 hPa 0,0 l/m 0,2 km/h (0 Bft) W-SW 254 8,4 C 3,1 km/h (1 Bft) 100 %
13.06.2018 22:49 12,0 C 78 % 1015,6 hPa 0,0 l/m 0,0 km/h (0 Bft) W-SW 254 8,3 C 0,0 km/h (0 Bft) 100 %
13.06.2018 22:50 12,0 C 78 % 1015,6 hPa 0,0 l/m 0,0 km/h (0 Bft) W-SW 254 8,3 C 0,0 km/h (0 Bft) 100 %
13.06.2018 22:51 11,9 C 78 % 1015,6 hPa 0,0 l/m 0,0 km/h (0 Bft) W-SW 254 8,2 C 0,0 km/h (0 Bft) 100 %
13.06.2018 22:52 11,9 C 78 % 1015,6 hPa 0,0 l/m 0,1 km/h (0 Bft) W-SW 254 8,2 C 3,1 km/h (1 Bft) 100 %
13.06.2018 22:53 11,9 C 79 % 1015,6 hPa 0,0 l/m 0,0 km/h (0 Bft) W-NW 283 8,4 C 0,0 km/h (0 Bft) 96 %
13.06.2018 22:54 11,8 C 79 % 1015,6 hPa 0,0 l/m 0,4 km/h (0 Bft) W-NW 288 8,3 C 3,1 km/h (1 Bft) 96 %
13.06.2018 22:55 11,8 C 79 % 1015,6 hPa 0,0 l/m 0,0 km/h (0 Bft) W-NW 288 8,3 C 0,0 km/h (0 Bft) 79 %
13.06.2018 22:56 11,8 C 79 % 1015,7 hPa 0,0 l/m 0,0 km/h (0 Bft) W 277 8,3 C 0,0 km/h (0 Bft) 91 %
13.06.2018 22:57 11,8 C 79 % 1015,7 hPa 0,0 l/m 0,0 km/h (0 Bft) W 277 8,3 C 0,0 km/h (0 Bft) 74 %
13.06.2018 22:58 11,7 C 79 % 1015,7 hPa 0,0 l/m 0,0 km/h (0 Bft) W 277 8,2 C 0,0 km/h (0 Bft) 67 %
13.06.2018 22:59 11,7 C 79 % 1015,7 hPa 0,0 l/m 0,0 km/h (0 Bft) W-NW 284 8,2 C 0,0 km/h (0 Bft) 67 %
13.06.2018 23:00 11,7 C 79 % 1015,7 hPa 0,0 l/m 0,0 km/h (0 Bft) W-NW 284 8,2 C 0,0 km/h (0 Bft) 88 %
13.06.2018 23:01 11,6 C 80 % 1015,7 hPa 0,0 l/m 0,0 km/h (0 Bft) W-NW 285 8,3 C 0,0 km/h (0 Bft) 73 %
13.06.2018 23:02 11,6 C 80 % 1015,7 hPa 0,0 l/m 0,0 km/h (0 Bft) W-NW 285 8,3 C 0,0 km/h (0 Bft) 17 %
13.06.2018 23:03 11,6 C 80 % 1015,7 hPa 0,0 l/m 0,0 km/h (0 Bft) W-NW 284 8,3 C 0,0 km/h (0 Bft) 45 %
13.06.2018 23:04 11,6 C 80 % 1015,7 hPa 0,0 l/m 0,0 km/h (0 Bft) W-NW 284 8,3 C 0,0 km/h (0 Bft) 99 %
13.06.2018 23:05 11,6 C 80 % 1015,7 hPa 0,0 l/m 0,0 km/h (0 Bft) W-NW 284 8,3 C 0,0 km/h (0 Bft) 99 %
13.06.2018 23:06 11,6 C 80 % 1015,7 hPa 0,0 l/m 0,0 km/h (0 Bft) W-NW 284 8,3 C 0,0 km/h (0 Bft) 99 %
13.06.2018 23:07 11,6 C 80 % 1015,7 hPa 0,0 l/m 0,0 km/h (0 Bft) W-NW 284 8,3 C 0,0 km/h (0 Bft) 99 %
13.06.2018 23:08 11,4 C 81 % 1015,7 hPa 0,0 l/m 0,0 km/h (0 Bft) W-NW 285 8,3 C 0,0 km/h (0 Bft) 100 %
13.06.2018 23:09 11,3 C 81 % 1015,7 hPa 0,0 l/m 0,9 km/h (0 Bft) W 274 8,2 C 3,1 km/h (1 Bft) 67 %
13.06.2018 23:10 11,3 C 81 % 1015,7 hPa 0,0 l/m 0,0 km/h (0 Bft) W 274 8,2 C 0,0 km/h (0 Bft) 59 %
13.06.2018 23:11 11,3 C 81 % 1015,8 hPa 0,0 l/m 0,0 km/h (0 Bft) W 274 8,2 C 0,0 km/h (0 Bft) 75 %
13.06.2018 23:12 11,2 C 81 % 1015,8 hPa 0,0 l/m 0,0 km/h (0 Bft) W 274 8,1 C 0,0 km/h (0 Bft) 78 %
13.06.2018 23:13 11,2 C 81 % 1015,8 hPa 0,0 l/m 0,0 km/h (0 Bft) W 274 8,1 C 0,0 km/h (0 Bft) 65 %
13.06.2018 23:14 11,2 C 81 % 1015,8 hPa 0,0 l/m 0,0 km/h (0 Bft) W 274 8,1 C 0,0 km/h (0 Bft) 52 %
13.06.2018 23:15 11,2 C 81 % 1015,8 hPa 0,0 l/m 0,0 km/h (0 Bft) W 274 8,1 C 0,0 km/h (0 Bft) 57 %
13.06.2018 23:16 11,2 C 81 % 1015,8 hPa 0,0 l/m 0,0 km/h (0 Bft) W 274 8,1 C 0,0 km/h (0 Bft) 48 %
13.06.2018 23:17 11,1 C 81 % 1015,8 hPa 0,0 l/m 0,0 km/h (0 Bft) W 274 8,0 C 0,0 km/h (0 Bft) 54 %
13.06.2018 23:18 11,1 C 82 % 1015,8 hPa 0,0 l/m 0,0 km/h (0 Bft) W 274 8,1 C 0,0 km/h (0 Bft) 100 %
13.06.2018 23:19 11,1 C 82 % 1015,8 hPa 0,0 l/m 0,0 km/h (0 Bft) W 274 8,1 C 0,0 km/h (0 Bft) 75 %
13.06.2018 23:20 11,1 C 82 % 1015,8 hPa 0,0 l/m 0,0 km/h (0 Bft) W 274 8,1 C 0,0 km/h (0 Bft) 83 %
13.06.2018 23:21 11,0 C 82 % 1015,8 hPa 0,0 l/m 0,0 km/h (0 Bft) W 274 8,0 C 0,0 km/h (0 Bft) 79 %
13.06.2018 23:22 11,0 C 82 % 1015,8 hPa 0,0 l/m 0,0 km/h (0 Bft) W 274 8,0 C 0,0 km/h (0 Bft) 74 %
13.06.2018 23:23 10,9 C 82 % 1015,8 hPa 0,0 l/m 0,0 km/h (0 Bft) W 274 7,9 C 0,0 km/h (0 Bft) 91 %
13.06.2018 23:24 10,9 C 82 % 1015,8 hPa 0,0 l/m 0,0 km/h (0 Bft) W 274 7,9 C 0,0 km/h (0 Bft) 96 %
13.06.2018 23:25 10,9 C 82 % 1015,8 hPa 0,0 l/m 0,0 km/h (0 Bft) W 274 7,9 C 0,0 km/h (0 Bft) 91 %
13.06.2018 23:27 10,9 C 82 % 1015,8 hPa 0,0 l/m 0,0 km/h (0 Bft) W 274 7,9 C 0,0 km/h (0 Bft) 51 %
13.06.2018 23:28 10,9 C 82 % 1015,8 hPa 0,0 l/m 0,0 km/h (0 Bft) W 274 7,9 C 0,0 km/h (0 Bft) 98 %
13.06.2018 23:29 10,9 C 82 % 1015,7 hPa 0,0 l/m 0,0 km/h (0 Bft) W 274 7,9 C 0,0 km/h (0 Bft) 98 %
13.06.2018 23:30 10,9 C 82 % 1015,8 hPa 0,0 l/m 0,0 km/h (0 Bft) W 274 7,9 C 0,0 km/h (0 Bft) 98 %
13.06.2018 23:31 10,8 C 83 % 1015,7 hPa 0,0 l/m 0,0 km/h (0 Bft) W 274 8,0 C 0,0 km/h (0 Bft) 98 %
13.06.2018 23:32 10,8 C 83 % 1015,7 hPa 0,0 l/m 0,3 km/h (0 Bft) W-NW 297 8,0 C 3,1 km/h (1 Bft) 74 %
13.06.2018 23:33 10,8 C 83 % 1015,7 hPa 0,0 l/m 0,0 km/h (0 Bft) W-NW 297 8,0 C 0,0 km/h (0 Bft) 100 %
13.06.2018 23:34 10,7 C 83 % 1015,7 hPa 0,0 l/m 0,0 km/h (0 Bft) W-NW 297 7,9 C 0,0 km/h (0 Bft) 100 %
13.06.2018 23:35 10,7 C 83 % 1015,7 hPa 0,0 l/m 0,0 km/h (0 Bft) W-NW 297 7,9 C 0,0 km/h (0 Bft) 100 %
13.06.2018 23:36 10,7 C 83 % 1015,7 hPa 0,0 l/m 0,0 km/h (0 Bft) W 274 7,9 C 0,0 km/h (0 Bft) 96 %
13.06.2018 23:37 10,7 C 84 % 1015,7 hPa 0,0 l/m 0,0 km/h (0 Bft) W 274 8,1 C 0,0 km/h (0 Bft) 100 %
13.06.2018 23:38 10,7 C 84 % 1015,7 hPa 0,0 l/m 0,0 km/h (0 Bft) W 274 8,1 C 0,0 km/h (0 Bft) 100 %
13.06.2018 23:39 10,6 C 84 % 1015,7 hPa 0,0 l/m 0,0 km/h (0 Bft) W 274 8,0 C 0,0 km/h (0 Bft) 100 %
_ Min-Zeit 23:39 16:46 03:56 - 00:03 - - 23:34 00:03 23:02
Minimum _ 10,6 C 61 % 1011,4 hPa - 0,0 km/h (0 Bft) - - 7,9 C 0,0 km/h (0 Bft) 17 %
_ Max-Zeit 16:44 05:56 23:11 00:00 16:47 - - 13:12 10:54 00:00
Maximum _ 16,3 C 87 % 1015,8 hPa 0,0 l/m 17,9 km/h
N-NW (3 Bft)
- - 10,9 C 34,5 km/h
W-SW (5 Bft)
100 %
Durchschnitt _ 13,7 C 76 % 1013,2 hPa #0,0 l/m 3,0 km/h (1 Bft) W-NW - 9,5 C 7,5 km/h (2 Bft) 98 %